<?xml version='1.0' encoding='UTF-8'?><gpx version="1.1" creator="JPX - https://github.com/jenetics/jpx" xmlns="http://www.topografix.com/GPX/1/1"><trk><trkseg><trkpt lat="40.4414076" lon="9.0593006"><ele>425.0</ele><time>2026-04-12T07:47:17.435Z</time></trkpt><trkpt lat="40.4413518" lon="9.0594052"><ele>425.0</ele><time>2026-04-12T07:47:19.437Z</time></trkpt><trkpt lat="40.4412932" lon="9.0595193"><ele>425.0</ele><time>2026-04-12T07:47:21.436Z</time></trkpt><trkpt lat="40.4412402" lon="9.0596089"><ele>425.0</ele><time>2026-04-12T07:47:23.436Z</time></trkpt><trkpt lat="40.4411802" lon="9.0596758"><ele>425.0</ele><time>2026-04-12T07:47:25.437Z</time></trkpt><trkpt lat="40.4410495" lon="9.0597164"><ele>421.8333333333333</ele><time>2026-04-12T07:47:27.435Z</time></trkpt><trkpt lat="40.4409695" lon="9.0597175"><ele>418.66666666666663</ele><time>2026-04-12T07:47:28.436Z</time></trkpt><trkpt lat="40.4408963" lon="9.0597097"><ele>415.5</ele><time>2026-04-12T07:47:29.437Z</time></trkpt><trkpt lat="40.4408253" lon="9.0596894"><ele>412.33333333333337</ele><time>2026-04-12T07:47:30.437Z</time></trkpt><trkpt lat="40.4407513" lon="9.0596399"><ele>409.1666666666667</ele><time>2026-04-12T07:47:31.437Z</time></trkpt><trkpt lat="40.4406748" lon="9.0595644"><ele>406.0</ele><time>2026-04-12T07:47:32.436Z</time></trkpt><trkpt lat="40.4406141" lon="9.059474"><ele>406.00000000000006</ele><time>2026-04-12T07:47:33.437Z</time></trkpt><trkpt lat="40.44057" lon="9.0593847"><ele>406.0</ele><time>2026-04-12T07:47:34.435Z</time></trkpt><trkpt lat="40.4405475" lon="9.0592888"><ele>406.0</ele><time>2026-04-12T07:47:35.437Z</time></trkpt><trkpt lat="40.4405471" lon="9.0591952"><ele>406.0</ele><time>2026-04-12T07:47:36.436Z</time></trkpt><trkpt lat="40.4405457" lon="9.0590867"><ele>406.00000000000006</ele><time>2026-04-12T07:47:37.435Z</time></trkpt><trkpt lat="40.4405056" lon="9.0589797"><ele>406.0</ele><time>2026-04-12T07:47:38.435Z</time></trkpt><trkpt lat="40.4404248" lon="9.0588853"><ele>405.33333333333337</ele><time>2026-04-12T07:47:39.436Z</time></trkpt><trkpt lat="40.4402982" lon="9.0588037"><ele>404.66666666666663</ele><time>2026-04-12T07:47:40.435Z</time></trkpt><trkpt lat="40.4401286" lon="9.0587223"><ele>404.0</ele><time>2026-04-12T07:47:41.436Z</time></trkpt><trkpt lat="40.4399338" lon="9.0586364"><ele>404.0</ele><time>2026-04-12T07:47:42.437Z</time></trkpt><trkpt lat="40.4397155" lon="9.0585343"><ele>404.0</ele><time>2026-04-12T07:47:43.435Z</time></trkpt><trkpt lat="40.4394756" lon="9.0584192"><ele>403.3333333333333</ele><time>2026-04-12T07:47:44.436Z</time></trkpt><trkpt lat="40.4392603" lon="9.058319"><ele>402.66666666666663</ele><time>2026-04-12T07:47:45.436Z</time></trkpt><trkpt lat="40.439062" lon="9.0582238"><ele>402.0</ele><time>2026-04-12T07:47:46.436Z</time></trkpt><trkpt lat="40.4388783" lon="9.058141"><ele>406.66666666666663</ele><time>2026-04-12T07:47:47.437Z</time></trkpt><trkpt lat="40.4386962" lon="9.0580616"><ele>411.3333333333333</ele><time>2026-04-12T07:47:48.435Z</time></trkpt><trkpt lat="40.4385217" lon="9.0579892"><ele>416.0</ele><time>2026-04-12T07:47:49.436Z</time></trkpt><trkpt lat="40.4383544" lon="9.0579265"><ele>416.0</ele><time>2026-04-12T07:47:50.437Z</time></trkpt><trkpt lat="40.438195" lon="9.0578719"><ele>416.0</ele><time>2026-04-12T07:47:51.436Z</time></trkpt><trkpt lat="40.4380543" lon="9.0578341"><ele>416.0</ele><time>2026-04-12T07:47:52.436Z</time></trkpt><trkpt lat="40.4379349" lon="9.0578016"><ele>416.0</ele><time>2026-04-12T07:47:53.435Z</time></trkpt><trkpt lat="40.4378347" lon="9.0577639"><ele>414.57142857142856</ele><time>2026-04-12T07:47:54.436Z</time></trkpt><trkpt lat="40.4377569" lon="9.0576964"><ele>413.14285714285717</ele><time>2026-04-12T07:47:55.437Z</time></trkpt><trkpt lat="40.4377265" lon="9.0576159"><ele>411.7142857142857</ele><time>2026-04-12T07:47:56.436Z</time></trkpt><trkpt lat="40.4377324" lon="9.0575273"><ele>410.2857142857143</ele><time>2026-04-12T07:47:57.437Z</time></trkpt><trkpt lat="40.4377635" lon="9.0574397"><ele>408.8571428571429</ele><time>2026-04-12T07:47:58.435Z</time></trkpt><trkpt lat="40.4378142" lon="9.0573767"><ele>407.42857142857144</ele><time>2026-04-12T07:47:59.436Z</time></trkpt><trkpt lat="40.4378863" lon="9.0573572"><ele>406.0</ele><time>2026-04-12T07:48:00.435Z</time></trkpt><trkpt lat="40.437971" lon="9.0573714"><ele>415.25</ele><time>2026-04-12T07:48:01.436Z</time></trkpt><trkpt lat="40.4380713" lon="9.0574003"><ele>424.5</ele><time>2026-04-12T07:48:02.435Z</time></trkpt><trkpt lat="40.4381911" lon="9.0574174"><ele>433.75</ele><time>2026-04-12T07:48:03.437Z</time></trkpt><trkpt lat="40.4383247" lon="9.0574268"><ele>443.0</ele><time>2026-04-12T07:48:04.436Z</time></trkpt><trkpt lat="40.4384748" lon="9.0574307"><ele>443.0</ele><time>2026-04-12T07:48:05.437Z</time></trkpt><trkpt lat="40.4386408" lon="9.057423"><ele>443.0</ele><time>2026-04-12T07:48:06.436Z</time></trkpt><trkpt lat="40.4388409" lon="9.057415"><ele>443.0</ele><time>2026-04-12T07:48:07.435Z</time></trkpt><trkpt lat="40.4390371" lon="9.057414"><ele>444.66666666666663</ele><time>2026-04-12T07:48:08.435Z</time></trkpt><trkpt lat="40.4392136" lon="9.0574087"><ele>446.33333333333337</ele><time>2026-04-12T07:48:09.436Z</time></trkpt><trkpt lat="40.4393779" lon="9.0574016"><ele>448.0</ele><time>2026-04-12T07:48:10.436Z</time></trkpt><trkpt lat="40.4395289" lon="9.0573764"><ele>447.33333333333337</ele><time>2026-04-12T07:48:11.435Z</time></trkpt><trkpt lat="40.4396741" lon="9.0573236"><ele>446.66666666666663</ele><time>2026-04-12T07:48:12.436Z</time></trkpt><trkpt lat="40.4398132" lon="9.0572433"><ele>446.0</ele><time>2026-04-12T07:48:13.435Z</time></trkpt><trkpt lat="40.4399613" lon="9.0571327"><ele>446.0</ele><time>2026-04-12T07:48:14.436Z</time></trkpt><trkpt lat="40.4401166" lon="9.0570436"><ele>446.0</ele><time>2026-04-12T07:48:15.436Z</time></trkpt><trkpt lat="40.4402554" lon="9.05698"><ele>446.0</ele><time>2026-04-12T07:48:16.437Z</time></trkpt><trkpt lat="40.4403806" lon="9.0569354"><ele>446.0</ele><time>2026-04-12T07:48:17.435Z</time></trkpt><trkpt lat="40.4404927" lon="9.0569184"><ele>446.6</ele><time>2026-04-12T07:48:18.437Z</time></trkpt><trkpt lat="40.4405906" lon="9.0569376"><ele>447.20000000000005</ele><time>2026-04-12T07:48:19.437Z</time></trkpt><trkpt lat="40.4406754" lon="9.0570006"><ele>447.79999999999995</ele><time>2026-04-12T07:48:20.438Z</time></trkpt><trkpt lat="40.4407535" lon="9.0571043"><ele>448.4</ele><time>2026-04-12T07:48:21.435Z</time></trkpt><trkpt lat="40.4408224" lon="9.0572247"><ele>449.0</ele><time>2026-04-12T07:48:22.435Z</time></trkpt><trkpt lat="40.4408905" lon="9.0573543"><ele>446.49999999999994</ele><time>2026-04-12T07:48:23.435Z</time></trkpt><trkpt lat="40.4409532" lon="9.0574693"><ele>444.0</ele><time>2026-04-12T07:48:24.437Z</time></trkpt><trkpt lat="40.4410089" lon="9.0575692"><ele>441.5</ele><time>2026-04-12T07:48:25.435Z</time></trkpt><trkpt lat="40.4410555" lon="9.0576307"><ele>439.0</ele><time>2026-04-12T07:48:26.435Z</time></trkpt><trkpt lat="40.4411135" lon="9.0577068"><ele>436.49999999999994</ele><time>2026-04-12T07:48:28.436Z</time></trkpt><trkpt lat="40.4411881" lon="9.0577901"><ele>434.0</ele><time>2026-04-12T07:49:41.436Z</time></trkpt><trkpt lat="40.4412439" lon="9.0578386"><ele>438.2</ele><time>2026-04-12T07:49:42.435Z</time></trkpt><trkpt lat="40.4413198" lon="9.0578826"><ele>442.4</ele><time>2026-04-12T07:49:43.435Z</time></trkpt><trkpt lat="40.4414147" lon="9.0579042"><ele>446.6</ele><time>2026-04-12T07:49:44.437Z</time></trkpt><trkpt lat="40.4415096" lon="9.0579185"><ele>450.8</ele><time>2026-04-12T07:49:45.435Z</time></trkpt><trkpt lat="40.4416137" lon="9.0579131"><ele>455.0</ele><time>2026-04-12T07:49:46.436Z</time></trkpt><trkpt lat="40.4417203" lon="9.0579031"><ele>454.99999999999994</ele><time>2026-04-12T07:49:47.436Z</time></trkpt><trkpt lat="40.4418152" lon="9.0579301"><ele>455.0</ele><time>2026-04-12T07:49:48.437Z</time></trkpt><trkpt lat="40.4418945" lon="9.0579994"><ele>455.0</ele><time>2026-04-12T07:49:49.436Z</time></trkpt><trkpt lat="40.4419554" lon="9.0580833"><ele>455.0</ele><time>2026-04-12T07:49:50.437Z</time></trkpt><trkpt lat="40.442013" lon="9.0581671"><ele>454.99999999999994</ele><time>2026-04-12T07:49:51.435Z</time></trkpt><trkpt lat="40.4420777" lon="9.0582347"><ele>455.0</ele><time>2026-04-12T07:49:52.436Z</time></trkpt><trkpt lat="40.4421485" lon="9.0582751"><ele>455.6</ele><time>2026-04-12T07:49:53.435Z</time></trkpt><trkpt lat="40.4422299" lon="9.0582875"><ele>456.2</ele><time>2026-04-12T07:49:54.436Z</time></trkpt><trkpt lat="40.4423087" lon="9.0582584"><ele>456.79999999999995</ele><time>2026-04-12T07:49:55.436Z</time></trkpt><trkpt lat="40.4423797" lon="9.0581923"><ele>457.4</ele><time>2026-04-12T07:49:56.436Z</time></trkpt><trkpt lat="40.4424559" lon="9.0580921"><ele>458.0</ele><time>2026-04-12T07:49:57.436Z</time></trkpt><trkpt lat="40.4425408" lon="9.057979"><ele>458.0</ele><time>2026-04-12T07:49:58.436Z</time></trkpt><trkpt lat="40.4426269" lon="9.0578395"><ele>458.0</ele><time>2026-04-12T07:49:59.435Z</time></trkpt><trkpt lat="40.4427099" lon="9.0577021"><ele>458.0</ele><time>2026-04-12T07:50:00.436Z</time></trkpt><trkpt lat="40.4427752" lon="9.0575586"><ele>458.0</ele><time>2026-04-12T07:50:01.435Z</time></trkpt><trkpt lat="40.4428331" lon="9.0574051"><ele>460.0</ele><time>2026-04-12T07:50:02.436Z</time></trkpt><trkpt lat="40.4429029" lon="9.0572517"><ele>462.0</ele><time>2026-04-12T07:50:03.436Z</time></trkpt><trkpt lat="40.4429657" lon="9.057104"><ele>464.0</ele><time>2026-04-12T07:50:04.435Z</time></trkpt><trkpt lat="40.4430154" lon="9.0569728"><ele>466.0</ele><time>2026-04-12T07:50:05.437Z</time></trkpt><trkpt lat="40.4430581" lon="9.0568608"><ele>466.00000000000006</ele><time>2026-04-12T07:50:06.436Z</time></trkpt><trkpt lat="40.4430956" lon="9.0567739"><ele>466.0</ele><time>2026-04-12T07:50:07.435Z</time></trkpt><trkpt lat="40.4431755" lon="9.0567862"><ele>466.0</ele><time>2026-04-12T07:50:08.435Z</time></trkpt><trkpt lat="40.443255" lon="9.0568189"><ele>466.0</ele><time>2026-04-12T07:50:09.435Z</time></trkpt><trkpt lat="40.4433632" lon="9.0568774"><ele>466.00000000000006</ele><time>2026-04-12T07:50:10.435Z</time></trkpt><trkpt lat="40.4434433" lon="9.0569311"><ele>466.0</ele><time>2026-04-12T07:50:11.436Z</time></trkpt><trkpt lat="40.4434931" lon="9.0569926"><ele>466.0</ele><time>2026-04-12T07:50:12.435Z</time></trkpt><trkpt lat="40.4435656" lon="9.0570549"><ele>466.0</ele><time>2026-04-12T07:50:14.436Z</time></trkpt><trkpt lat="40.4435818" lon="9.0569614"><ele>466.0</ele><time>2026-04-12T07:50:17.435Z</time></trkpt><trkpt lat="40.4435462" lon="9.0568817"><ele>466.0</ele><time>2026-04-12T07:50:19.435Z</time></trkpt><trkpt lat="40.4434583" lon="9.0567975"><ele>466.0</ele><time>2026-04-12T07:50:21.437Z</time></trkpt><trkpt lat="40.4172577" lon="9.0324594"><ele>539.0</ele><time>2026-04-12T07:55:41.985Z</time></trkpt><trkpt lat="40.4169256" lon="9.0313185"><ele>539.0</ele><time>2026-04-12T07:55:47.602Z</time></trkpt><trkpt lat="40.4166231" lon="9.0308468"><ele>537.0</ele><time>2026-04-12T07:55:53.511Z</time></trkpt><trkpt lat="40.4168839" lon="9.0301129"><ele>537.0</ele><time>2026-04-12T07:55:59.215Z</time></trkpt><trkpt lat="40.416679" lon="9.0303109"><ele>537.0</ele><time>2026-04-12T07:58:31.892Z</time></trkpt><trkpt lat="40.4169133" lon="9.0301382"><ele>537.0</ele><time>2026-04-12T07:59:06.064Z</time></trkpt><trkpt lat="40.4168615" lon="9.0300842"><ele>537.0</ele><time>2026-04-12T08:00:57.92Z</time></trkpt><trkpt lat="40.4166794" lon="9.030326"><ele>537.0</ele><time>2026-04-12T08:00:59.997Z</time></trkpt></trkseg><trkseg><trkpt lat="40.4169322" lon="9.0301464"><ele>537.0</ele><time>2026-04-12T08:14:57.5Z</time></trkpt><trkpt lat="40.4166908" lon="9.030652"><ele>538.0</ele><time>2026-04-12T08:15:04.148Z</time></trkpt><trkpt lat="40.4165588" lon="9.031211"><ele>539.0</ele><time>2026-04-12T08:15:10.751Z</time></trkpt><trkpt lat="40.4164074" lon="9.0315246"><ele>534.0</ele><time>2026-04-12T08:15:18.453Z</time></trkpt><trkpt lat="40.4156061" lon="9.0320237"><ele>537.0</ele><time>2026-04-12T08:15:25.473Z</time></trkpt><trkpt lat="40.4168409" lon="9.0300837"><ele>520.0</ele><time>2026-04-12T08:15:39.094Z</time></trkpt><trkpt lat="40.4149187" lon="9.0296436"><ele>503.0</ele><time>2026-04-12T08:15:58.476Z</time></trkpt><trkpt lat="40.4142449" lon="9.0305592"><ele>498.0</ele><time>2026-04-12T08:16:05.488Z</time></trkpt><trkpt lat="40.414274" lon="9.0312653"><ele>498.0</ele><time>2026-04-12T08:16:19.16Z</time></trkpt><trkpt lat="40.4140773" lon="9.0313965"><ele>498.0</ele><time>2026-04-12T08:16:25.764Z</time></trkpt><trkpt lat="40.4136675" lon="9.0336605"><ele>488.0</ele><time>2026-04-12T08:16:38.182Z</time></trkpt><trkpt lat="40.4136682" lon="9.0335659"><ele>478.0</ele><time>2026-04-12T08:17:09.618Z</time></trkpt><trkpt lat="40.416462" lon="9.0303343"><ele>478.0</ele><time>2026-04-12T08:17:34.453Z</time></trkpt><trkpt lat="40.41367" lon="9.0335728"><ele>517.0</ele><time>2026-04-12T08:18:05.268Z</time></trkpt><trkpt lat="40.4135369" lon="9.0298633"><ele>478.0</ele><time>2026-04-12T08:19:25.007Z</time></trkpt><trkpt lat="40.4136584" lon="9.0335831"><ele>450.0</ele><time>2026-04-12T08:20:15.825Z</time></trkpt><trkpt lat="40.4435524" lon="9.058215"><ele>651.0</ele><time>2026-04-12T08:29:38.178Z</time></trkpt><trkpt lat="40.5791674" lon="9.2511025"><ele>670.0</ele><time>2026-04-12T08:46:25.64Z</time></trkpt><trkpt lat="40.5773664" lon="9.2542896"><ele>712.0</ele><time>2026-04-12T08:46:54.594Z</time></trkpt><trkpt lat="40.5721501" lon="9.2560269"><ele>755.0</ele><time>2026-04-12T08:48:29.053Z</time></trkpt><trkpt lat="40.491364" lon="9.3455273"><ele>576.0</ele><time>2026-04-12T09:02:42.146Z</time></trkpt><trkpt lat="40.484099" lon="9.3763445"><ele>581.0</ele><time>2026-04-12T09:23:53.302Z</time></trkpt><trkpt lat="40.4805477" lon="9.3713246"><ele>572.0</ele><time>2026-04-12T09:24:54.514Z</time></trkpt><trkpt lat="40.4793547" lon="9.3720181"><ele>568.0</ele><time>2026-04-12T09:25:26.111Z</time></trkpt><trkpt lat="40.4773179" lon="9.3884539"><ele>539.0</ele><time>2026-04-12T09:29:20.634Z</time></trkpt><trkpt lat="40.4780215" lon="9.3952592"><ele>484.0</ele><time>2026-04-12T09:30:18.699Z</time></trkpt><trkpt lat="40.3295754" lon="9.2888855"><ele>484.0</ele><time>2026-04-12T09:58:35.002Z</time></trkpt><trkpt lat="40.3295304" lon="9.288423"><ele>484.0</ele><time>2026-04-12T10:08:53.95Z</time></trkpt><trkpt lat="40.3295767" lon="9.2888871"><ele>493.0</ele><time>2026-04-12T10:09:46.072Z</time></trkpt><trkpt lat="40.3281626" lon="9.2910515"><ele>571.0</ele><time>2026-04-12T10:11:13.438Z</time></trkpt><trkpt lat="40.3258366" lon="9.3125281"><ele>576.0</ele><time>2026-04-12T10:14:14.544Z</time></trkpt><trkpt lat="40.3251178" lon="9.3131198"><ele>576.0</ele><time>2026-04-12T10:14:25.94Z</time></trkpt><trkpt lat="40.3234302" lon="9.3186152"><ele>555.0</ele><time>2026-04-12T10:15:10.311Z</time></trkpt><trkpt lat="40.3210311" lon="9.3191911"><ele>546.0</ele><time>2026-04-12T10:15:21.098Z</time></trkpt><trkpt lat="40.3205978" lon="9.3205173"><ele>546.0</ele><time>2026-04-12T10:15:33.078Z</time></trkpt><trkpt lat="40.3204949" lon="9.3207442"><ele>546.0</ele><time>2026-04-12T10:15:41.437Z</time></trkpt><trkpt lat="40.3205974" lon="9.3217573"><ele>546.5</ele><time>2026-04-12T10:15:54.97Z</time></trkpt><trkpt lat="40.3205006" lon="9.3219274"><ele>547.0</ele><time>2026-04-12T10:16:02.152Z</time></trkpt><trkpt lat="40.3211197" lon="9.3231208"><ele>552.0</ele><time>2026-04-12T10:16:10.402Z</time></trkpt><trkpt lat="40.3215002" lon="9.3239019"><ele>552.0</ele><time>2026-04-12T10:16:18.239Z</time></trkpt><trkpt lat="40.3215215" lon="9.3240575"><ele>552.0</ele><time>2026-04-12T10:16:24.955Z</time></trkpt><trkpt lat="40.3214044" lon="9.3238286"><ele>552.0</ele><time>2026-04-12T10:16:31.66Z</time></trkpt><trkpt lat="40.3214821" lon="9.3237869"><ele>552.0</ele><time>2026-04-12T10:16:39.391Z</time></trkpt><trkpt lat="40.3212396" lon="9.3238102"><ele>547.0</ele><time>2026-04-12T10:19:12.207Z</time></trkpt><trkpt lat="40.3215352" lon="9.3237986"><ele>555.0</ele><time>2026-04-12T10:20:17.11Z</time></trkpt></trkseg><trkseg><trkpt lat="40.3213675" lon="9.3236593"><ele>547.0</ele><time>2026-04-12T10:43:43.998Z</time></trkpt><trkpt lat="40.321368" lon="9.3237505"><ele>547.0</ele><time>2026-04-12T10:43:45.998Z</time></trkpt><trkpt lat="40.3213845" lon="9.3238311"><ele>547.0</ele><time>2026-04-12T10:43:46.999Z</time></trkpt><trkpt lat="40.3214071" lon="9.3239137"><ele>547.0</ele><time>2026-04-12T10:43:47.998Z</time></trkpt><trkpt lat="40.3214337" lon="9.3239958"><ele>547.0</ele><time>2026-04-12T10:43:48.998Z</time></trkpt><trkpt lat="40.3214544" lon="9.3240744"><ele>547.0</ele><time>2026-04-12T10:43:49.999Z</time></trkpt><trkpt lat="40.3214865" lon="9.3242307"><ele>547.8333333333334</ele><time>2026-04-12T10:43:51.999Z</time></trkpt><trkpt lat="40.3214976" lon="9.3243135"><ele>548.6666666666667</ele><time>2026-04-12T10:43:52.998Z</time></trkpt><trkpt lat="40.3215012" lon="9.3244212"><ele>549.5</ele><time>2026-04-12T10:43:53.999Z</time></trkpt><trkpt lat="40.3215061" lon="9.32453"><ele>550.3333333333334</ele><time>2026-04-12T10:43:54.998Z</time></trkpt><trkpt lat="40.3215112" lon="9.3246492"><ele>551.1666666666666</ele><time>2026-04-12T10:43:55.998Z</time></trkpt><trkpt lat="40.3215238" lon="9.3247788"><ele>552.0</ele><time>2026-04-12T10:43:56.999Z</time></trkpt><trkpt lat="40.3215399" lon="9.3249161"><ele>552.25</ele><time>2026-04-12T10:43:57.998Z</time></trkpt><trkpt lat="40.3215574" lon="9.3250605"><ele>552.5</ele><time>2026-04-12T10:43:58.997Z</time></trkpt><trkpt lat="40.3215724" lon="9.3252023"><ele>552.75</ele><time>2026-04-12T10:43:59.998Z</time></trkpt><trkpt lat="40.3215808" lon="9.325365"><ele>553.0</ele><time>2026-04-12T10:44:00.998Z</time></trkpt><trkpt lat="40.3215938" lon="9.3255258"><ele>553.5</ele><time>2026-04-12T10:44:01.997Z</time></trkpt><trkpt lat="40.3216019" lon="9.325686"><ele>554.0</ele><time>2026-04-12T10:44:02.999Z</time></trkpt><trkpt lat="40.3216151" lon="9.3258467"><ele>554.5</ele><time>2026-04-12T10:44:03.998Z</time></trkpt><trkpt lat="40.3216251" lon="9.3260005"><ele>555.0</ele><time>2026-04-12T10:44:04.997Z</time></trkpt><trkpt lat="40.3216348" lon="9.3261569"><ele>555.0</ele><time>2026-04-12T10:44:05.997Z</time></trkpt><trkpt lat="40.3216437" lon="9.3263119"><ele>555.0</ele><time>2026-04-12T10:44:06.998Z</time></trkpt><trkpt lat="40.3216516" lon="9.3264598"><ele>555.0</ele><time>2026-04-12T10:44:07.998Z</time></trkpt><trkpt lat="40.3216607" lon="9.3266055"><ele>555.0</ele><time>2026-04-12T10:44:08.998Z</time></trkpt><trkpt lat="40.3216784" lon="9.3267551"><ele>554.8</ele><time>2026-04-12T10:44:09.999Z</time></trkpt><trkpt lat="40.3217078" lon="9.3268915"><ele>554.6</ele><time>2026-04-12T10:44:10.998Z</time></trkpt><trkpt lat="40.321748" lon="9.3270306"><ele>554.4</ele><time>2026-04-12T10:44:11.998Z</time></trkpt><trkpt lat="40.3218089" lon="9.3271534"><ele>554.2</ele><time>2026-04-12T10:44:12.997Z</time></trkpt><trkpt lat="40.3218704" lon="9.3272638"><ele>554.0</ele><time>2026-04-12T10:44:13.998Z</time></trkpt><trkpt lat="40.321934" lon="9.3273876"><ele>553.6</ele><time>2026-04-12T10:44:14.999Z</time></trkpt><trkpt lat="40.3219985" lon="9.3275051"><ele>553.2</ele><time>2026-04-12T10:44:15.998Z</time></trkpt><trkpt lat="40.3220667" lon="9.3276133"><ele>552.8000000000001</ele><time>2026-04-12T10:44:16.998Z</time></trkpt><trkpt lat="40.322128" lon="9.3277392"><ele>552.4</ele><time>2026-04-12T10:44:17.999Z</time></trkpt><trkpt lat="40.3221904" lon="9.3278592"><ele>552.0</ele><time>2026-04-12T10:44:18.999Z</time></trkpt><trkpt lat="40.3222516" lon="9.32799"><ele>552.75</ele><time>2026-04-12T10:44:19.998Z</time></trkpt><trkpt lat="40.3223162" lon="9.3281205"><ele>553.5</ele><time>2026-04-12T10:44:20.999Z</time></trkpt><trkpt lat="40.3223882" lon="9.3282342"><ele>554.25</ele><time>2026-04-12T10:44:21.998Z</time></trkpt><trkpt lat="40.3224634" lon="9.3283592"><ele>555.0</ele><time>2026-04-12T10:44:22.997Z</time></trkpt><trkpt lat="40.3225344" lon="9.328477"><ele>555.0</ele><time>2026-04-12T10:44:23.997Z</time></trkpt><trkpt lat="40.3226148" lon="9.3285979"><ele>555.0</ele><time>2026-04-12T10:44:24.998Z</time></trkpt><trkpt lat="40.3226886" lon="9.3287086"><ele>555.0</ele><time>2026-04-12T10:44:25.999Z</time></trkpt><trkpt lat="40.3227574" lon="9.3288048"><ele>555.0</ele><time>2026-04-12T10:44:26.999Z</time></trkpt><trkpt lat="40.3228124" lon="9.3288841"><ele>555.0</ele><time>2026-04-12T10:44:27.997Z</time></trkpt><trkpt lat="40.3228593" lon="9.3289612"><ele>554.5</ele><time>2026-04-12T10:44:28.998Z</time></trkpt><trkpt lat="40.3229428" lon="9.3290896"><ele>554.0</ele><time>2026-04-12T10:44:30.997Z</time></trkpt><trkpt lat="40.3229913" lon="9.3291631"><ele>553.5</ele><time>2026-04-12T10:44:31.998Z</time></trkpt><trkpt lat="40.3230416" lon="9.3292284"><ele>553.0</ele><time>2026-04-12T10:44:32.997Z</time></trkpt><trkpt lat="40.323093" lon="9.3293089"><ele>552.5</ele><time>2026-04-12T10:44:33.998Z</time></trkpt><trkpt lat="40.3231428" lon="9.3293876"><ele>552.0</ele><time>2026-04-12T10:44:34.997Z</time></trkpt><trkpt lat="40.323189" lon="9.3294555"><ele>552.0</ele><time>2026-04-12T10:44:35.998Z</time></trkpt><trkpt lat="40.3232339" lon="9.3295206"><ele>552.0</ele><time>2026-04-12T10:44:36.998Z</time></trkpt><trkpt lat="40.3233011" lon="9.3296175"><ele>552.0</ele><time>2026-04-12T10:44:38.999Z</time></trkpt><trkpt lat="40.3233439" lon="9.32969"><ele>552.0</ele><time>2026-04-12T10:44:40.998Z</time></trkpt><trkpt lat="40.3233936" lon="9.3297861"><ele>552.0</ele><time>2026-04-12T10:44:42.998Z</time></trkpt><trkpt lat="40.3234779" lon="9.3299168"><ele>551.5</ele><time>2026-04-12T10:44:44.998Z</time></trkpt><trkpt lat="40.3235261" lon="9.3299846"><ele>551.0</ele><time>2026-04-12T10:44:45.998Z</time></trkpt><trkpt lat="40.3235723" lon="9.3300555"><ele>550.5</ele><time>2026-04-12T10:44:46.998Z</time></trkpt><trkpt lat="40.3236291" lon="9.3301282"><ele>550.0</ele><time>2026-04-12T10:44:47.998Z</time></trkpt><trkpt lat="40.3236844" lon="9.3302066"><ele>549.5</ele><time>2026-04-12T10:44:48.999Z</time></trkpt><trkpt lat="40.3237384" lon="9.3302913"><ele>549.0</ele><time>2026-04-12T10:44:49.998Z</time></trkpt><trkpt lat="40.3237972" lon="9.3303729"><ele>549.0</ele><time>2026-04-12T10:44:50.998Z</time></trkpt><trkpt lat="40.3238574" lon="9.3304511"><ele>549.0</ele><time>2026-04-12T10:44:51.998Z</time></trkpt><trkpt lat="40.3239187" lon="9.3305464"><ele>549.0</ele><time>2026-04-12T10:44:52.999Z</time></trkpt><trkpt lat="40.323983" lon="9.3306466"><ele>549.0</ele><time>2026-04-12T10:44:53.998Z</time></trkpt><trkpt lat="40.3240387" lon="9.3307517"><ele>549.0</ele><time>2026-04-12T10:44:54.998Z</time></trkpt><trkpt lat="40.3240898" lon="9.3308532"><ele>549.0</ele><time>2026-04-12T10:44:55.999Z</time></trkpt><trkpt lat="40.3241404" lon="9.3309549"><ele>549.0</ele><time>2026-04-12T10:44:56.998Z</time></trkpt><trkpt lat="40.3241877" lon="9.3310496"><ele>549.0</ele><time>2026-04-12T10:44:57.998Z</time></trkpt><trkpt lat="40.3242437" lon="9.3311578"><ele>549.0</ele><time>2026-04-12T10:44:58.999Z</time></trkpt><trkpt lat="40.3243146" lon="9.3312864"><ele>549.0</ele><time>2026-04-12T10:44:59.998Z</time></trkpt><trkpt lat="40.3244136" lon="9.3314637"><ele>549.0</ele><time>2026-04-12T10:45:00.998Z</time></trkpt><trkpt lat="40.3245352" lon="9.3316911"><ele>549.0</ele><time>2026-04-12T10:45:01.998Z</time></trkpt><trkpt lat="40.3246515" lon="9.3319055"><ele>549.0</ele><time>2026-04-12T10:45:02.999Z</time></trkpt><trkpt lat="40.3247583" lon="9.3320983"><ele>549.5</ele><time>2026-04-12T10:45:03.999Z</time></trkpt><trkpt lat="40.3248521" lon="9.3322628"><ele>550.0</ele><time>2026-04-12T10:45:04.997Z</time></trkpt><trkpt lat="40.3249326" lon="9.3324063"><ele>550.5</ele><time>2026-04-12T10:45:05.998Z</time></trkpt><trkpt lat="40.3250015" lon="9.3325343"><ele>551.0</ele><time>2026-04-12T10:45:06.998Z</time></trkpt><trkpt lat="40.3250658" lon="9.3326339"><ele>551.0</ele><time>2026-04-12T10:45:07.997Z</time></trkpt><trkpt lat="40.3251202" lon="9.3327152"><ele>551.0</ele><time>2026-04-12T10:45:08.998Z</time></trkpt><trkpt lat="40.3251689" lon="9.3327877"><ele>551.0</ele><time>2026-04-12T10:45:09.998Z</time></trkpt><trkpt lat="40.3252154" lon="9.3328634"><ele>551.0</ele><time>2026-04-12T10:45:10.998Z</time></trkpt><trkpt lat="40.3252593" lon="9.3329409"><ele>551.0</ele><time>2026-04-12T10:45:11.999Z</time></trkpt><trkpt lat="40.3253057" lon="9.3330186"><ele>551.0</ele><time>2026-04-12T10:45:12.998Z</time></trkpt><trkpt lat="40.3253541" lon="9.3330946"><ele>549.8333333333333</ele><time>2026-04-12T10:45:13.998Z</time></trkpt><trkpt lat="40.3253976" lon="9.3331802"><ele>548.6666666666666</ele><time>2026-04-12T10:45:14.998Z</time></trkpt><trkpt lat="40.3254434" lon="9.3332702"><ele>547.5</ele><time>2026-04-12T10:45:15.997Z</time></trkpt><trkpt lat="40.3254857" lon="9.3333679"><ele>546.3333333333334</ele><time>2026-04-12T10:45:16.997Z</time></trkpt><trkpt lat="40.3255325" lon="9.3334685"><ele>545.1666666666667</ele><time>2026-04-12T10:45:17.998Z</time></trkpt><trkpt lat="40.3255783" lon="9.3335784"><ele>544.0</ele><time>2026-04-12T10:45:18.998Z</time></trkpt><trkpt lat="40.3256201" lon="9.3336863"><ele>544.0</ele><time>2026-04-12T10:45:19.997Z</time></trkpt><trkpt lat="40.3256625" lon="9.3337943"><ele>544.0</ele><time>2026-04-12T10:45:20.998Z</time></trkpt><trkpt lat="40.3256937" lon="9.3339168"><ele>544.0</ele><time>2026-04-12T10:45:21.998Z</time></trkpt><trkpt lat="40.3257108" lon="9.3340307"><ele>544.0</ele><time>2026-04-12T10:45:22.998Z</time></trkpt><trkpt lat="40.325732" lon="9.3341375"><ele>544.0</ele><time>2026-04-12T10:45:23.998Z</time></trkpt><trkpt lat="40.3257478" lon="9.33425"><ele>546.2</ele><time>2026-04-12T10:45:24.997Z</time></trkpt><trkpt lat="40.3257659" lon="9.3343598"><ele>548.4</ele><time>2026-04-12T10:45:25.997Z</time></trkpt><trkpt lat="40.3257826" lon="9.3344795"><ele>550.6</ele><time>2026-04-12T10:45:26.998Z</time></trkpt><trkpt lat="40.3258003" lon="9.3346075"><ele>552.8</ele><time>2026-04-12T10:45:27.998Z</time></trkpt><trkpt lat="40.3258234" lon="9.3347386"><ele>555.0</ele><time>2026-04-12T10:45:28.998Z</time></trkpt><trkpt lat="40.3258455" lon="9.3348581"><ele>555.0</ele><time>2026-04-12T10:45:29.998Z</time></trkpt><trkpt lat="40.3258685" lon="9.3349687"><ele>555.0</ele><time>2026-04-12T10:45:30.997Z</time></trkpt><trkpt lat="40.325903" lon="9.3350622"><ele>555.0</ele><time>2026-04-12T10:45:31.998Z</time></trkpt><trkpt lat="40.325934" lon="9.3351456"><ele>555.0</ele><time>2026-04-12T10:45:32.999Z</time></trkpt><trkpt lat="40.3260003" lon="9.3352815"><ele>555.0</ele><time>2026-04-12T10:45:34.998Z</time></trkpt><trkpt lat="40.3260685" lon="9.3354089"><ele>555.0</ele><time>2026-04-12T10:45:36.998Z</time></trkpt><trkpt lat="40.3261234" lon="9.3355372"><ele>555.0</ele><time>2026-04-12T10:45:38.996Z</time></trkpt><trkpt lat="40.3261752" lon="9.3356463"><ele>555.0</ele><time>2026-04-12T10:45:40.998Z</time></trkpt><trkpt lat="40.32624" lon="9.3357405"><ele>555.0</ele><time>2026-04-12T10:45:42.998Z</time></trkpt><trkpt lat="40.3263309" lon="9.335803"><ele>555.0</ele><time>2026-04-12T10:45:44.998Z</time></trkpt><trkpt lat="40.3264188" lon="9.3358474"><ele>555.0</ele><time>2026-04-12T10:45:46.998Z</time></trkpt><trkpt lat="40.3265026" lon="9.3358801"><ele>555.0</ele><time>2026-04-12T10:45:48.998Z</time></trkpt><trkpt lat="40.3266047" lon="9.3359164"><ele>555.0</ele><time>2026-04-12T10:45:50.997Z</time></trkpt><trkpt lat="40.3267148" lon="9.3359561"><ele>555.0</ele><time>2026-04-12T10:45:52.998Z</time></trkpt><trkpt lat="40.3268266" lon="9.3360063"><ele>555.0</ele><time>2026-04-12T10:45:54.998Z</time></trkpt><trkpt lat="40.3269461" lon="9.336056"><ele>555.0000000000001</ele><time>2026-04-12T10:45:56.997Z</time></trkpt><trkpt lat="40.3270064" lon="9.3360805"><ele>555.0</ele><time>2026-04-12T10:45:57.998Z</time></trkpt><trkpt lat="40.32707" lon="9.3361062"><ele>555.0</ele><time>2026-04-12T10:45:58.998Z</time></trkpt><trkpt lat="40.3271374" lon="9.3361361"><ele>555.0</ele><time>2026-04-12T10:45:59.998Z</time></trkpt><trkpt lat="40.3272041" lon="9.3361704"><ele>555.0</ele><time>2026-04-12T10:46:00.998Z</time></trkpt><trkpt lat="40.3272709" lon="9.3362157"><ele>555.0000000000001</ele><time>2026-04-12T10:46:01.998Z</time></trkpt><trkpt lat="40.3273389" lon="9.3362441"><ele>555.0</ele><time>2026-04-12T10:46:02.997Z</time></trkpt><trkpt lat="40.3274032" lon="9.3362679"><ele>555.5</ele><time>2026-04-12T10:46:03.998Z</time></trkpt><trkpt lat="40.3275208" lon="9.3363039"><ele>556.0</ele><time>2026-04-12T10:46:05.998Z</time></trkpt><trkpt lat="40.3276402" lon="9.3363404"><ele>556.5</ele><time>2026-04-12T10:46:07.998Z</time></trkpt><trkpt lat="40.3277392" lon="9.3363572"><ele>557.0</ele><time>2026-04-12T10:46:09.997Z</time></trkpt><trkpt lat="40.3278538" lon="9.3363806"><ele>557.0</ele><time>2026-04-12T10:46:11.998Z</time></trkpt><trkpt lat="40.3279688" lon="9.3364113"><ele>557.0</ele><time>2026-04-12T10:46:13.998Z</time></trkpt><trkpt lat="40.328058" lon="9.3365042"><ele>557.0</ele><time>2026-04-12T10:46:15.998Z</time></trkpt><trkpt lat="40.3280874" lon="9.3365787"><ele>557.0</ele><time>2026-04-12T10:46:16.998Z</time></trkpt><trkpt lat="40.3281021" lon="9.3366622"><ele>557.0</ele><time>2026-04-12T10:46:17.998Z</time></trkpt><trkpt lat="40.3280407" lon="9.3368032"><ele>557.0</ele><time>2026-04-12T10:46:19.998Z</time></trkpt><trkpt lat="40.3279143" lon="9.3368726"><ele>557.0</ele><time>2026-04-12T10:46:21.998Z</time></trkpt><trkpt lat="40.3278395" lon="9.3369013"><ele>557.0</ele><time>2026-04-12T10:46:22.997Z</time></trkpt><trkpt lat="40.3277593" lon="9.3369289"><ele>557.0</ele><time>2026-04-12T10:46:23.998Z</time></trkpt><trkpt lat="40.3276769" lon="9.3369589"><ele>557.0</ele><time>2026-04-12T10:46:24.997Z</time></trkpt><trkpt lat="40.3275969" lon="9.3369795"><ele>557.0</ele><time>2026-04-12T10:46:25.998Z</time></trkpt><trkpt lat="40.3275212" lon="9.3369992"><ele>557.0</ele><time>2026-04-12T10:46:26.997Z</time></trkpt><trkpt lat="40.3274485" lon="9.3370227"><ele>557.0</ele><time>2026-04-12T10:46:27.998Z</time></trkpt><trkpt lat="40.3273786" lon="9.3370439"><ele>557.0</ele><time>2026-04-12T10:46:28.998Z</time></trkpt><trkpt lat="40.3273065" lon="9.3370663"><ele>557.0</ele><time>2026-04-12T10:46:29.997Z</time></trkpt><trkpt lat="40.3272332" lon="9.3370872"><ele>557.0</ele><time>2026-04-12T10:46:30.999Z</time></trkpt><trkpt lat="40.3271621" lon="9.3371132"><ele>557.0</ele><time>2026-04-12T10:46:31.998Z</time></trkpt><trkpt lat="40.3270893" lon="9.3371348"><ele>557.1428571428571</ele><time>2026-04-12T10:46:32.998Z</time></trkpt><trkpt lat="40.3270185" lon="9.3371459"><ele>557.2857142857142</ele><time>2026-04-12T10:46:33.998Z</time></trkpt><trkpt lat="40.3269538" lon="9.337168"><ele>557.4285714285713</ele><time>2026-04-12T10:46:34.998Z</time></trkpt><trkpt lat="40.3268876" lon="9.3371899"><ele>557.5714285714286</ele><time>2026-04-12T10:46:35.998Z</time></trkpt><trkpt lat="40.3268222" lon="9.337208"><ele>557.7142857142857</ele><time>2026-04-12T10:46:36.998Z</time></trkpt><trkpt lat="40.326756" lon="9.3372253"><ele>557.8571428571428</ele><time>2026-04-12T10:46:37.999Z</time></trkpt><trkpt lat="40.3266864" lon="9.3372527"><ele>558.0</ele><time>2026-04-12T10:46:38.998Z</time></trkpt><trkpt lat="40.3266163" lon="9.3372805"><ele>558.0</ele><time>2026-04-12T10:46:39.997Z</time></trkpt><trkpt lat="40.3265479" lon="9.3373104"><ele>558.0</ele><time>2026-04-12T10:46:40.997Z</time></trkpt><trkpt lat="40.3264767" lon="9.3373408"><ele>558.0</ele><time>2026-04-12T10:46:41.997Z</time></trkpt><trkpt lat="40.3263667" lon="9.3374112"><ele>558.0</ele><time>2026-04-12T10:46:43.999Z</time></trkpt><trkpt lat="40.3263127" lon="9.3374608"><ele>558.0</ele><time>2026-04-12T10:46:44.997Z</time></trkpt><trkpt lat="40.3262311" lon="9.3375849"><ele>558.0</ele><time>2026-04-12T10:46:46.999Z</time></trkpt><trkpt lat="40.3262091" lon="9.3376649"><ele>558.0</ele><time>2026-04-12T10:46:47.999Z</time></trkpt><trkpt lat="40.3262378" lon="9.3378089"><ele>558.0</ele><time>2026-04-12T10:46:49.998Z</time></trkpt><trkpt lat="40.3263354" lon="9.3379002"><ele>558.0</ele><time>2026-04-12T10:46:51.998Z</time></trkpt><trkpt lat="40.326409" lon="9.3379432"><ele>558.0</ele><time>2026-04-12T10:46:52.998Z</time></trkpt><trkpt lat="40.3264921" lon="9.3379923"><ele>558.0</ele><time>2026-04-12T10:46:53.998Z</time></trkpt><trkpt lat="40.3265868" lon="9.338051"><ele>558.0</ele><time>2026-04-12T10:46:54.998Z</time></trkpt><trkpt lat="40.3266744" lon="9.3381223"><ele>558.0</ele><time>2026-04-12T10:46:55.997Z</time></trkpt><trkpt lat="40.3267605" lon="9.3382163"><ele>558.0</ele><time>2026-04-12T10:46:56.999Z</time></trkpt><trkpt lat="40.3268369" lon="9.338318"><ele>558.0</ele><time>2026-04-12T10:46:57.998Z</time></trkpt><trkpt lat="40.3269022" lon="9.3384176"><ele>555.6</ele><time>2026-04-12T10:46:58.999Z</time></trkpt><trkpt lat="40.3269631" lon="9.3385176"><ele>553.1999999999999</ele><time>2026-04-12T10:46:59.999Z</time></trkpt><trkpt lat="40.3270205" lon="9.3386161"><ele>550.8</ele><time>2026-04-12T10:47:00.998Z</time></trkpt><trkpt lat="40.3270804" lon="9.3387127"><ele>548.4</ele><time>2026-04-12T10:47:01.997Z</time></trkpt><trkpt lat="40.327136" lon="9.3387918"><ele>546.0</ele><time>2026-04-12T10:47:02.997Z</time></trkpt><trkpt lat="40.3271878" lon="9.3388764"><ele>544.8333333333334</ele><time>2026-04-12T10:47:03.998Z</time></trkpt><trkpt lat="40.3272319" lon="9.33896"><ele>543.6666666666666</ele><time>2026-04-12T10:47:04.997Z</time></trkpt><trkpt lat="40.3272659" lon="9.33904"><ele>542.5</ele><time>2026-04-12T10:47:05.998Z</time></trkpt><trkpt lat="40.3273039" lon="9.339116"><ele>541.3333333333333</ele><time>2026-04-12T10:47:06.997Z</time></trkpt><trkpt lat="40.3272799" lon="9.3392268"><ele>540.1666666666666</ele><time>2026-04-12T10:47:08.999Z</time></trkpt><trkpt lat="40.3271916" lon="9.3392477"><ele>539.0</ele><time>2026-04-12T10:47:10.998Z</time></trkpt><trkpt lat="40.3270671" lon="9.3391892"><ele>540.4</ele><time>2026-04-12T10:47:12.999Z</time></trkpt><trkpt lat="40.326983" lon="9.3391556"><ele>541.8</ele><time>2026-04-12T10:47:13.998Z</time></trkpt><trkpt lat="40.3268926" lon="9.3391183"><ele>543.2</ele><time>2026-04-12T10:47:14.998Z</time></trkpt><trkpt lat="40.3267913" lon="9.3390351"><ele>544.6</ele><time>2026-04-12T10:47:15.997Z</time></trkpt><trkpt lat="40.3266933" lon="9.3389392"><ele>546.0</ele><time>2026-04-12T10:47:16.998Z</time></trkpt><trkpt lat="40.3265953" lon="9.3388497"><ele>546.0</ele><time>2026-04-12T10:47:17.998Z</time></trkpt><trkpt lat="40.3265104" lon="9.3387663"><ele>546.0</ele><time>2026-04-12T10:47:18.998Z</time></trkpt><trkpt lat="40.326428" lon="9.3386934"><ele>546.0</ele><time>2026-04-12T10:47:19.997Z</time></trkpt><trkpt lat="40.3263616" lon="9.3386243"><ele>546.0</ele><time>2026-04-12T10:47:20.998Z</time></trkpt><trkpt lat="40.3262992" lon="9.3385609"><ele>546.0</ele><time>2026-04-12T10:47:21.996Z</time></trkpt><trkpt lat="40.3262347" lon="9.3385012"><ele>546.0</ele><time>2026-04-12T10:47:22.999Z</time></trkpt><trkpt lat="40.3261747" lon="9.3384554"><ele>545.3333333333334</ele><time>2026-04-12T10:47:23.999Z</time></trkpt><trkpt lat="40.3261043" lon="9.3384152"><ele>544.6666666666666</ele><time>2026-04-12T10:47:24.997Z</time></trkpt><trkpt lat="40.3260264" lon="9.3383993"><ele>544.0</ele><time>2026-04-12T10:47:25.998Z</time></trkpt><trkpt lat="40.3259472" lon="9.3383939"><ele>543.3333333333333</ele><time>2026-04-12T10:47:26.999Z</time></trkpt><trkpt lat="40.3258688" lon="9.3384089"><ele>542.6666666666666</ele><time>2026-04-12T10:47:27.997Z</time></trkpt><trkpt lat="40.325787" lon="9.338421"><ele>542.0</ele><time>2026-04-12T10:47:28.998Z</time></trkpt><trkpt lat="40.325709" lon="9.3384414"><ele>542.0</ele><time>2026-04-12T10:47:29.998Z</time></trkpt><trkpt lat="40.3256344" lon="9.3384596"><ele>542.0</ele><time>2026-04-12T10:47:30.998Z</time></trkpt><trkpt lat="40.3255582" lon="9.3384803"><ele>542.0</ele><time>2026-04-12T10:47:31.999Z</time></trkpt><trkpt lat="40.3254781" lon="9.3385062"><ele>542.0</ele><time>2026-04-12T10:47:32.998Z</time></trkpt><trkpt lat="40.3253929" lon="9.3385351"><ele>542.0</ele><time>2026-04-12T10:47:33.999Z</time></trkpt><trkpt lat="40.3253042" lon="9.3385576"><ele>542.0</ele><time>2026-04-12T10:47:34.998Z</time></trkpt><trkpt lat="40.3252164" lon="9.338574"><ele>542.0</ele><time>2026-04-12T10:47:35.998Z</time></trkpt><trkpt lat="40.3251292" lon="9.3385602"><ele>542.0</ele><time>2026-04-12T10:47:36.999Z</time></trkpt><trkpt lat="40.325042" lon="9.3385376"><ele>542.0</ele><time>2026-04-12T10:47:37.998Z</time></trkpt><trkpt lat="40.3249705" lon="9.3384744"><ele>542.0</ele><time>2026-04-12T10:47:38.998Z</time></trkpt><trkpt lat="40.3248989" lon="9.3383947"><ele>542.0</ele><time>2026-04-12T10:47:39.998Z</time></trkpt><trkpt lat="40.3248354" lon="9.3383154"><ele>542.0</ele><time>2026-04-12T10:47:40.999Z</time></trkpt><trkpt lat="40.3247695" lon="9.3382237"><ele>543.0</ele><time>2026-04-12T10:47:41.998Z</time></trkpt><trkpt lat="40.3247035" lon="9.3381249"><ele>544.0</ele><time>2026-04-12T10:47:42.999Z</time></trkpt><trkpt lat="40.3246388" lon="9.3380359"><ele>545.0</ele><time>2026-04-12T10:47:43.997Z</time></trkpt><trkpt lat="40.324558" lon="9.3379623"><ele>546.0</ele><time>2026-04-12T10:47:44.996Z</time></trkpt><trkpt lat="40.3244808" lon="9.3378967"><ele>547.0</ele><time>2026-04-12T10:47:45.998Z</time></trkpt><trkpt lat="40.3243968" lon="9.3378454"><ele>547.0</ele><time>2026-04-12T10:47:46.998Z</time></trkpt><trkpt lat="40.3243143" lon="9.3378076"><ele>547.0</ele><time>2026-04-12T10:47:47.998Z</time></trkpt><trkpt lat="40.3242169" lon="9.337793"><ele>547.0</ele><time>2026-04-12T10:47:48.998Z</time></trkpt><trkpt lat="40.3241192" lon="9.3378155"><ele>547.0</ele><time>2026-04-12T10:47:49.998Z</time></trkpt><trkpt lat="40.3240358" lon="9.3378591"><ele>547.0</ele><time>2026-04-12T10:47:50.997Z</time></trkpt><trkpt lat="40.323962" lon="9.337905"><ele>546.8000000000001</ele><time>2026-04-12T10:47:51.998Z</time></trkpt><trkpt lat="40.323894" lon="9.3379451"><ele>546.6</ele><time>2026-04-12T10:47:52.997Z</time></trkpt><trkpt lat="40.3238365" lon="9.3379874"><ele>546.4000000000001</ele><time>2026-04-12T10:47:53.997Z</time></trkpt><trkpt lat="40.3237279" lon="9.3380515"><ele>546.2</ele><time>2026-04-12T10:47:55.998Z</time></trkpt><trkpt lat="40.3236372" lon="9.3381136"><ele>546.0</ele><time>2026-04-12T10:47:57.998Z</time></trkpt><trkpt lat="40.3235616" lon="9.3381744"><ele>543.0</ele><time>2026-04-12T10:47:59.996Z</time></trkpt><trkpt lat="40.3235225" lon="9.3382542"><ele>540.0</ele><time>2026-04-12T10:48:01.997Z</time></trkpt><trkpt lat="40.3235562" lon="9.3383369"><ele>537.0</ele><time>2026-04-12T10:48:03.998Z</time></trkpt><trkpt lat="40.3236438" lon="9.338355"><ele>534.0</ele><time>2026-04-12T10:48:05.998Z</time></trkpt><trkpt lat="40.323752" lon="9.3382915"><ele>531.0</ele><time>2026-04-12T10:48:07.999Z</time></trkpt><trkpt lat="40.323818" lon="9.3382356"><ele>528.0</ele><time>2026-04-12T10:48:08.997Z</time></trkpt><trkpt lat="40.3238922" lon="9.3381759"><ele>528.3333333333334</ele><time>2026-04-12T10:48:09.998Z</time></trkpt><trkpt lat="40.323962" lon="9.3381169"><ele>528.6666666666666</ele><time>2026-04-12T10:48:10.998Z</time></trkpt><trkpt lat="40.3240318" lon="9.3380566"><ele>529.0</ele><time>2026-04-12T10:48:11.998Z</time></trkpt><trkpt lat="40.3241183" lon="9.338006"><ele>529.3333333333333</ele><time>2026-04-12T10:48:12.998Z</time></trkpt><trkpt lat="40.3242096" lon="9.3379845"><ele>529.6666666666666</ele><time>2026-04-12T10:48:13.997Z</time></trkpt><trkpt lat="40.324302" lon="9.3380073"><ele>530.0</ele><time>2026-04-12T10:48:14.998Z</time></trkpt><trkpt lat="40.3243963" lon="9.3380639"><ele>530.0</ele><time>2026-04-12T10:48:15.996Z</time></trkpt><trkpt lat="40.3244496" lon="9.3382031"><ele>530.0</ele><time>2026-04-12T10:48:16.998Z</time></trkpt><trkpt lat="40.3244986" lon="9.3383582"><ele>530.0</ele><time>2026-04-12T10:48:17.999Z</time></trkpt><trkpt lat="40.3245385" lon="9.3385103"><ele>530.0</ele><time>2026-04-12T10:48:18.998Z</time></trkpt><trkpt lat="40.3245816" lon="9.3386546"><ele>530.0</ele><time>2026-04-12T10:48:19.998Z</time></trkpt><trkpt lat="40.3246343" lon="9.3387768"><ele>530.0</ele><time>2026-04-12T10:48:20.997Z</time></trkpt><trkpt lat="40.324702" lon="9.3388812"><ele>530.0</ele><time>2026-04-12T10:48:21.996Z</time></trkpt><trkpt lat="40.3247839" lon="9.33896"><ele>530.0</ele><time>2026-04-12T10:48:22.999Z</time></trkpt><trkpt lat="40.3248902" lon="9.3390164"><ele>530.0</ele><time>2026-04-12T10:48:23.998Z</time></trkpt><trkpt lat="40.325011" lon="9.3390578"><ele>526.0</ele><time>2026-04-12T10:48:24.997Z</time></trkpt><trkpt lat="40.3251452" lon="9.3390729"><ele>522.0</ele><time>2026-04-12T10:48:25.997Z</time></trkpt><trkpt lat="40.3252862" lon="9.3390509"><ele>518.0</ele><time>2026-04-12T10:48:26.998Z</time></trkpt><trkpt lat="40.325416" lon="9.3389953"><ele>514.0</ele><time>2026-04-12T10:48:27.999Z</time></trkpt><trkpt lat="40.3255423" lon="9.3389484"><ele>514.0</ele><time>2026-04-12T10:48:28.998Z</time></trkpt><trkpt lat="40.3256669" lon="9.3389181"><ele>514.0</ele><time>2026-04-12T10:48:29.997Z</time></trkpt><trkpt lat="40.3257986" lon="9.3389291"><ele>514.0</ele><time>2026-04-12T10:48:30.998Z</time></trkpt><trkpt lat="40.3259311" lon="9.3389982"><ele>514.0</ele><time>2026-04-12T10:48:31.998Z</time></trkpt><trkpt lat="40.3260716" lon="9.3391133"><ele>514.0</ele><time>2026-04-12T10:48:32.998Z</time></trkpt><trkpt lat="40.3262069" lon="9.3392481"><ele>514.0</ele><time>2026-04-12T10:48:33.999Z</time></trkpt><trkpt lat="40.326326" lon="9.3393974"><ele>514.0</ele><time>2026-04-12T10:48:34.997Z</time></trkpt><trkpt lat="40.3264433" lon="9.3395321"><ele>510.25</ele><time>2026-04-12T10:48:35.997Z</time></trkpt><trkpt lat="40.3265526" lon="9.3396539"><ele>506.5</ele><time>2026-04-12T10:48:36.998Z</time></trkpt><trkpt lat="40.3266631" lon="9.3397554"><ele>502.75</ele><time>2026-04-12T10:48:37.998Z</time></trkpt><trkpt lat="40.3267727" lon="9.339837"><ele>499.0</ele><time>2026-04-12T10:48:38.997Z</time></trkpt><trkpt lat="40.326889" lon="9.3399051"><ele>499.0</ele><time>2026-04-12T10:48:39.998Z</time></trkpt><trkpt lat="40.327003" lon="9.3399911"><ele>499.0</ele><time>2026-04-12T10:48:40.997Z</time></trkpt><trkpt lat="40.3270968" lon="9.3400939"><ele>499.0</ele><time>2026-04-12T10:48:41.997Z</time></trkpt><trkpt lat="40.3271721" lon="9.3402105"><ele>499.0</ele><time>2026-04-12T10:48:42.999Z</time></trkpt><trkpt lat="40.3272357" lon="9.3403284"><ele>495.79999999999995</ele><time>2026-04-12T10:48:43.997Z</time></trkpt><trkpt lat="40.3272843" lon="9.3404654"><ele>492.59999999999997</ele><time>2026-04-12T10:48:44.998Z</time></trkpt><trkpt lat="40.3273009" lon="9.3406029"><ele>489.4</ele><time>2026-04-12T10:48:45.998Z</time></trkpt><trkpt lat="40.327287" lon="9.3407379"><ele>486.2</ele><time>2026-04-12T10:48:46.997Z</time></trkpt><trkpt lat="40.3272355" lon="9.3408686"><ele>483.0</ele><time>2026-04-12T10:48:47.998Z</time></trkpt><trkpt lat="40.3271417" lon="9.3409647"><ele>483.0</ele><time>2026-04-12T10:48:48.999Z</time></trkpt><trkpt lat="40.3270003" lon="9.3410507"><ele>483.0</ele><time>2026-04-12T10:48:49.997Z</time></trkpt><trkpt lat="40.3268516" lon="9.3411512"><ele>483.0</ele><time>2026-04-12T10:48:50.998Z</time></trkpt><trkpt lat="40.3267073" lon="9.341282"><ele>488.33333333333337</ele><time>2026-04-12T10:48:51.998Z</time></trkpt><trkpt lat="40.3265645" lon="9.3414715"><ele>493.6666666666667</ele><time>2026-04-12T10:48:52.997Z</time></trkpt><trkpt lat="40.3264577" lon="9.3416648"><ele>499.0</ele><time>2026-04-12T10:48:53.998Z</time></trkpt><trkpt lat="40.3263409" lon="9.3418438"><ele>495.33333333333337</ele><time>2026-04-12T10:48:54.996Z</time></trkpt><trkpt lat="40.326213" lon="9.3419862"><ele>491.66666666666663</ele><time>2026-04-12T10:48:55.997Z</time></trkpt><trkpt lat="40.32608" lon="9.3421041"><ele>488.0</ele><time>2026-04-12T10:48:56.998Z</time></trkpt><trkpt lat="40.3259566" lon="9.3422562"><ele>488.0</ele><time>2026-04-12T10:48:57.998Z</time></trkpt><trkpt lat="40.3258381" lon="9.3424132"><ele>488.0</ele><time>2026-04-12T10:48:58.999Z</time></trkpt><trkpt lat="40.3257119" lon="9.3425467"><ele>488.0</ele><time>2026-04-12T10:48:59.997Z</time></trkpt><trkpt lat="40.3255658" lon="9.3426535"><ele>478.3333333333333</ele><time>2026-04-12T10:49:00.997Z</time></trkpt><trkpt lat="40.3253866" lon="9.3427342"><ele>468.66666666666663</ele><time>2026-04-12T10:49:01.998Z</time></trkpt><trkpt lat="40.3252236" lon="9.3428083"><ele>459.0</ele><time>2026-04-12T10:49:02.999Z</time></trkpt><trkpt lat="40.3250643" lon="9.3428781"><ele>459.0</ele><time>2026-04-12T10:49:03.998Z</time></trkpt><trkpt lat="40.3249132" lon="9.3429456"><ele>459.0</ele><time>2026-04-12T10:49:04.997Z</time></trkpt><trkpt lat="40.3247776" lon="9.3430191"><ele>459.0</ele><time>2026-04-12T10:49:05.999Z</time></trkpt><trkpt lat="40.3246604" lon="9.3431258"><ele>459.0</ele><time>2026-04-12T10:49:06.997Z</time></trkpt><trkpt lat="40.3245541" lon="9.3432702"><ele>458.33333333333337</ele><time>2026-04-12T10:49:07.998Z</time></trkpt><trkpt lat="40.3244566" lon="9.3434349"><ele>457.6666666666667</ele><time>2026-04-12T10:49:08.998Z</time></trkpt><trkpt lat="40.3244007" lon="9.3436861"><ele>457.0</ele><time>2026-04-12T10:49:09.999Z</time></trkpt><trkpt lat="40.3243286" lon="9.3438992"><ele>460.0</ele><time>2026-04-12T10:49:10.996Z</time></trkpt><trkpt lat="40.3242267" lon="9.3441013"><ele>463.0</ele><time>2026-04-12T10:49:11.998Z</time></trkpt><trkpt lat="40.3241269" lon="9.3442837"><ele>466.0</ele><time>2026-04-12T10:49:12.998Z</time></trkpt><trkpt lat="40.3240232" lon="9.344453"><ele>466.0</ele><time>2026-04-12T10:49:13.997Z</time></trkpt><trkpt lat="40.3239183" lon="9.3446146"><ele>466.0</ele><time>2026-04-12T10:49:14.999Z</time></trkpt><trkpt lat="40.3238172" lon="9.3447633"><ele>466.0</ele><time>2026-04-12T10:49:15.998Z</time></trkpt><trkpt lat="40.3237061" lon="9.3448983"><ele>462.33333333333337</ele><time>2026-04-12T10:49:16.997Z</time></trkpt><trkpt lat="40.3235756" lon="9.345004"><ele>458.66666666666663</ele><time>2026-04-12T10:49:17.998Z</time></trkpt><trkpt lat="40.3234263" lon="9.3450883"><ele>455.0</ele><time>2026-04-12T10:49:18.998Z</time></trkpt><trkpt lat="40.3232825" lon="9.3451521"><ele>455.0</ele><time>2026-04-12T10:49:19.997Z</time></trkpt><trkpt lat="40.323155" lon="9.3452037"><ele>455.0</ele><time>2026-04-12T10:49:20.997Z</time></trkpt><trkpt lat="40.3230408" lon="9.3452359"><ele>455.0</ele><time>2026-04-12T10:49:21.998Z</time></trkpt><trkpt lat="40.3229292" lon="9.3452397"><ele>455.0</ele><time>2026-04-12T10:49:22.998Z</time></trkpt><trkpt lat="40.3228291" lon="9.3452017"><ele>457.5</ele><time>2026-04-12T10:49:23.997Z</time></trkpt><trkpt lat="40.3227406" lon="9.3451119"><ele>460.0</ele><time>2026-04-12T10:49:24.998Z</time></trkpt><trkpt lat="40.322652" lon="9.3449838"><ele>462.5</ele><time>2026-04-12T10:49:25.998Z</time></trkpt><trkpt lat="40.322577" lon="9.3447817"><ele>465.0</ele><time>2026-04-12T10:49:26.999Z</time></trkpt><trkpt lat="40.32251" lon="9.344611"><ele>463.0</ele><time>2026-04-12T10:49:27.998Z</time></trkpt><trkpt lat="40.3224429" lon="9.3444499"><ele>461.0</ele><time>2026-04-12T10:49:28.998Z</time></trkpt><trkpt lat="40.3223827" lon="9.3443028"><ele>459.0</ele><time>2026-04-12T10:49:29.997Z</time></trkpt><trkpt lat="40.3223119" lon="9.3441722"><ele>457.0</ele><time>2026-04-12T10:49:30.997Z</time></trkpt><trkpt lat="40.3222142" lon="9.3440653"><ele>457.0</ele><time>2026-04-12T10:49:31.998Z</time></trkpt><trkpt lat="40.322081" lon="9.3439933"><ele>457.0</ele><time>2026-04-12T10:49:32.998Z</time></trkpt><trkpt lat="40.3219089" lon="9.3439376"><ele>457.0</ele><time>2026-04-12T10:49:33.997Z</time></trkpt><trkpt lat="40.3217016" lon="9.34389"><ele>447.33333333333337</ele><time>2026-04-12T10:49:34.997Z</time></trkpt><trkpt lat="40.3214863" lon="9.3438596"><ele>437.66666666666663</ele><time>2026-04-12T10:49:35.999Z</time></trkpt><trkpt lat="40.3212702" lon="9.3438376"><ele>428.0</ele><time>2026-04-12T10:49:36.998Z</time></trkpt><trkpt lat="40.3210643" lon="9.3438312"><ele>427.3333333333333</ele><time>2026-04-12T10:49:37.999Z</time></trkpt><trkpt lat="40.3208736" lon="9.3438335"><ele>426.66666666666663</ele><time>2026-04-12T10:49:38.997Z</time></trkpt><trkpt lat="40.320691" lon="9.3438402"><ele>426.0</ele><time>2026-04-12T10:49:39.999Z</time></trkpt><trkpt lat="40.3205223" lon="9.3438661"><ele>431.66666666666663</ele><time>2026-04-12T10:49:40.998Z</time></trkpt><trkpt lat="40.3203469" lon="9.3439004"><ele>437.3333333333333</ele><time>2026-04-12T10:49:41.998Z</time></trkpt><trkpt lat="40.3201765" lon="9.3440042"><ele>443.0</ele><time>2026-04-12T10:49:42.998Z</time></trkpt><trkpt lat="40.3200014" lon="9.3441039"><ele>443.0</ele><time>2026-04-12T10:49:43.998Z</time></trkpt><trkpt lat="40.3198343" lon="9.3441962"><ele>443.0</ele><time>2026-04-12T10:49:44.998Z</time></trkpt><trkpt lat="40.3196744" lon="9.3442641"><ele>443.0</ele><time>2026-04-12T10:49:45.998Z</time></trkpt><trkpt lat="40.3195176" lon="9.3443128"><ele>437.3333333333333</ele><time>2026-04-12T10:49:46.997Z</time></trkpt><trkpt lat="40.3193579" lon="9.344347"><ele>431.66666666666663</ele><time>2026-04-12T10:49:47.999Z</time></trkpt><trkpt lat="40.3192011" lon="9.3443777"><ele>426.0</ele><time>2026-04-12T10:49:48.998Z</time></trkpt><trkpt lat="40.3190385" lon="9.3444059"><ele>425.33333333333337</ele><time>2026-04-12T10:49:49.998Z</time></trkpt><trkpt lat="40.3188743" lon="9.3444314"><ele>424.6666666666667</ele><time>2026-04-12T10:49:50.998Z</time></trkpt><trkpt lat="40.3187173" lon="9.3444248"><ele>424.0</ele><time>2026-04-12T10:49:51.999Z</time></trkpt><trkpt lat="40.3185645" lon="9.34441"><ele>424.0</ele><time>2026-04-12T10:49:52.999Z</time></trkpt><trkpt lat="40.3184125" lon="9.3443712"><ele>424.0</ele><time>2026-04-12T10:49:53.999Z</time></trkpt><trkpt lat="40.3182626" lon="9.3443058"><ele>424.0</ele><time>2026-04-12T10:49:54.998Z</time></trkpt><trkpt lat="40.3181171" lon="9.3442127"><ele>426.0</ele><time>2026-04-12T10:49:55.998Z</time></trkpt><trkpt lat="40.31798" lon="9.3441171"><ele>428.0</ele><time>2026-04-12T10:49:56.997Z</time></trkpt><trkpt lat="40.317855" lon="9.3440184"><ele>430.0</ele><time>2026-04-12T10:49:57.998Z</time></trkpt><trkpt lat="40.3177341" lon="9.3439277"><ele>432.0</ele><time>2026-04-12T10:49:58.998Z</time></trkpt><trkpt lat="40.3176159" lon="9.3438473"><ele>432.0</ele><time>2026-04-12T10:49:59.998Z</time></trkpt><trkpt lat="40.3174954" lon="9.3438277"><ele>432.0</ele><time>2026-04-12T10:50:00.999Z</time></trkpt><trkpt lat="40.3173639" lon="9.343913"><ele>432.0</ele><time>2026-04-12T10:50:01.998Z</time></trkpt><trkpt lat="40.3172196" lon="9.3439709"><ele>432.0</ele><time>2026-04-12T10:50:02.998Z</time></trkpt><trkpt lat="40.3170563" lon="9.3440094"><ele>429.33333333333337</ele><time>2026-04-12T10:50:03.997Z</time></trkpt><trkpt lat="40.3169054" lon="9.344045"><ele>426.6666666666667</ele><time>2026-04-12T10:50:04.998Z</time></trkpt><trkpt lat="40.3167593" lon="9.3440583"><ele>424.0</ele><time>2026-04-12T10:50:05.998Z</time></trkpt><trkpt lat="40.3166075" lon="9.3440712"><ele>424.0</ele><time>2026-04-12T10:50:06.998Z</time></trkpt><trkpt lat="40.3164563" lon="9.3441253"><ele>424.0</ele><time>2026-04-12T10:50:07.999Z</time></trkpt><trkpt lat="40.3163023" lon="9.3442173"><ele>424.0</ele><time>2026-04-12T10:50:08.998Z</time></trkpt><trkpt lat="40.3161647" lon="9.3443309"><ele>425.6666666666667</ele><time>2026-04-12T10:50:09.999Z</time></trkpt><trkpt lat="40.3160073" lon="9.3444603"><ele>427.33333333333337</ele><time>2026-04-12T10:50:10.998Z</time></trkpt><trkpt lat="40.3158561" lon="9.344612"><ele>429.0</ele><time>2026-04-12T10:50:11.997Z</time></trkpt><trkpt lat="40.3157061" lon="9.3447737"><ele>417.66666666666663</ele><time>2026-04-12T10:50:12.999Z</time></trkpt><trkpt lat="40.3155616" lon="9.3449274"><ele>406.3333333333333</ele><time>2026-04-12T10:50:13.998Z</time></trkpt><trkpt lat="40.3154326" lon="9.3450806"><ele>395.0</ele><time>2026-04-12T10:50:14.999Z</time></trkpt><trkpt lat="40.3153007" lon="9.3452305"><ele>395.0</ele><time>2026-04-12T10:50:15.998Z</time></trkpt><trkpt lat="40.3151774" lon="9.3453698"><ele>395.0</ele><time>2026-04-12T10:50:16.999Z</time></trkpt><trkpt lat="40.3150614" lon="9.34549"><ele>395.0</ele><time>2026-04-12T10:50:17.998Z</time></trkpt><trkpt lat="40.3149588" lon="9.3456099"><ele>395.0</ele><time>2026-04-12T10:50:18.998Z</time></trkpt><trkpt lat="40.3148621" lon="9.3457241"><ele>396.4</ele><time>2026-04-12T10:50:19.998Z</time></trkpt><trkpt lat="40.3147691" lon="9.3458139"><ele>397.8</ele><time>2026-04-12T10:50:20.997Z</time></trkpt><trkpt lat="40.3146874" lon="9.345899"><ele>399.20000000000005</ele><time>2026-04-12T10:50:21.997Z</time></trkpt><trkpt lat="40.3145667" lon="9.3459276"><ele>400.6</ele><time>2026-04-12T10:50:22.998Z</time></trkpt><trkpt lat="40.3144625" lon="9.3459354"><ele>402.0</ele><time>2026-04-12T10:50:23.997Z</time></trkpt><trkpt lat="40.3143575" lon="9.3458591"><ele>402.0</ele><time>2026-04-12T10:50:24.997Z</time></trkpt><trkpt lat="40.3142444" lon="9.3458321"><ele>402.0</ele><time>2026-04-12T10:50:25.997Z</time></trkpt><trkpt lat="40.3141153" lon="9.3458528"><ele>402.0</ele><time>2026-04-12T10:50:26.998Z</time></trkpt><trkpt lat="40.3139831" lon="9.3459477"><ele>402.0</ele><time>2026-04-12T10:50:27.997Z</time></trkpt><trkpt lat="40.3138428" lon="9.3460728"><ele>403.0</ele><time>2026-04-12T10:50:28.998Z</time></trkpt><trkpt lat="40.3137145" lon="9.3461882"><ele>404.0</ele><time>2026-04-12T10:50:29.998Z</time></trkpt><trkpt lat="40.313588" lon="9.3463028"><ele>405.0</ele><time>2026-04-12T10:50:30.998Z</time></trkpt><trkpt lat="40.3134571" lon="9.3464041"><ele>405.0</ele><time>2026-04-12T10:50:31.998Z</time></trkpt><trkpt lat="40.3133388" lon="9.3465103"><ele>405.0</ele><time>2026-04-12T10:50:32.998Z</time></trkpt><trkpt lat="40.3132344" lon="9.3466359"><ele>405.0</ele><time>2026-04-12T10:50:33.999Z</time></trkpt><trkpt lat="40.3131454" lon="9.3467843"><ele>405.0</ele><time>2026-04-12T10:50:34.998Z</time></trkpt><trkpt lat="40.3130734" lon="9.3469655"><ele>398.66666666666663</ele><time>2026-04-12T10:50:35.997Z</time></trkpt><trkpt lat="40.3129871" lon="9.3471958"><ele>392.3333333333333</ele><time>2026-04-12T10:50:36.997Z</time></trkpt><trkpt lat="40.3128988" lon="9.347436"><ele>386.0</ele><time>2026-04-12T10:50:37.998Z</time></trkpt><trkpt lat="40.3128191" lon="9.3476681"><ele>386.0</ele><time>2026-04-12T10:50:38.997Z</time></trkpt><trkpt lat="40.312742" lon="9.3478814"><ele>386.0</ele><time>2026-04-12T10:50:39.996Z</time></trkpt><trkpt lat="40.3126726" lon="9.3480857"><ele>386.0</ele><time>2026-04-12T10:50:40.997Z</time></trkpt><trkpt lat="40.3126049" lon="9.3482697"><ele>388.75</ele><time>2026-04-12T10:50:41.997Z</time></trkpt><trkpt lat="40.3125485" lon="9.3484368"><ele>391.5</ele><time>2026-04-12T10:50:42.998Z</time></trkpt><trkpt lat="40.3124957" lon="9.3485884"><ele>394.25</ele><time>2026-04-12T10:50:43.998Z</time></trkpt><trkpt lat="40.312441" lon="9.3487156"><ele>397.0</ele><time>2026-04-12T10:50:44.998Z</time></trkpt><trkpt lat="40.3123765" lon="9.3488072"><ele>397.0</ele><time>2026-04-12T10:50:45.997Z</time></trkpt><trkpt lat="40.3122996" lon="9.3488677"><ele>397.0</ele><time>2026-04-12T10:50:46.998Z</time></trkpt><trkpt lat="40.3122" lon="9.348881"><ele>397.0</ele><time>2026-04-12T10:50:47.998Z</time></trkpt><trkpt lat="40.3120832" lon="9.3488284"><ele>397.0</ele><time>2026-04-12T10:50:48.998Z</time></trkpt><trkpt lat="40.3119631" lon="9.3487419"><ele>394.0</ele><time>2026-04-12T10:50:49.998Z</time></trkpt><trkpt lat="40.3118492" lon="9.3486386"><ele>391.0</ele><time>2026-04-12T10:50:50.999Z</time></trkpt><trkpt lat="40.3117315" lon="9.3485729"><ele>388.0</ele><time>2026-04-12T10:50:51.997Z</time></trkpt><trkpt lat="40.3116111" lon="9.3485505"><ele>385.0</ele><time>2026-04-12T10:50:52.999Z</time></trkpt><trkpt lat="40.3114696" lon="9.3485811"><ele>380.33333333333337</ele><time>2026-04-12T10:50:53.999Z</time></trkpt><trkpt lat="40.3113249" lon="9.3486722"><ele>375.6666666666667</ele><time>2026-04-12T10:50:54.998Z</time></trkpt><trkpt lat="40.3111889" lon="9.3487647"><ele>371.0</ele><time>2026-04-12T10:50:55.997Z</time></trkpt><trkpt lat="40.3110387" lon="9.3488276"><ele>371.0</ele><time>2026-04-12T10:50:56.998Z</time></trkpt><trkpt lat="40.3108951" lon="9.3488528"><ele>371.0</ele><time>2026-04-12T10:50:57.997Z</time></trkpt><trkpt lat="40.3107476" lon="9.348898"><ele>371.0</ele><time>2026-04-12T10:50:58.997Z</time></trkpt><trkpt lat="40.3105862" lon="9.3489791"><ele>371.33333333333337</ele><time>2026-04-12T10:50:59.997Z</time></trkpt><trkpt lat="40.3104055" lon="9.3491265"><ele>371.6666666666667</ele><time>2026-04-12T10:51:00.998Z</time></trkpt><trkpt lat="40.3102393" lon="9.3492516"><ele>372.0</ele><time>2026-04-12T10:51:01.997Z</time></trkpt><trkpt lat="40.310079" lon="9.3493779"><ele>372.0</ele><time>2026-04-12T10:51:02.998Z</time></trkpt><trkpt lat="40.3099345" lon="9.3494931"><ele>372.0</ele><time>2026-04-12T10:51:03.998Z</time></trkpt><trkpt lat="40.3098054" lon="9.3496072"><ele>372.0</ele><time>2026-04-12T10:51:04.998Z</time></trkpt><trkpt lat="40.3096961" lon="9.3497362"><ele>371.25</ele><time>2026-04-12T10:51:05.996Z</time></trkpt><trkpt lat="40.3095927" lon="9.3498753"><ele>370.5</ele><time>2026-04-12T10:51:06.999Z</time></trkpt><trkpt lat="40.3094808" lon="9.3500044"><ele>369.75</ele><time>2026-04-12T10:51:07.997Z</time></trkpt><trkpt lat="40.3093588" lon="9.3501093"><ele>369.0</ele><time>2026-04-12T10:51:08.996Z</time></trkpt><trkpt lat="40.3092268" lon="9.3502058"><ele>369.0</ele><time>2026-04-12T10:51:09.997Z</time></trkpt><trkpt lat="40.3090928" lon="9.3502957"><ele>369.0</ele><time>2026-04-12T10:51:10.997Z</time></trkpt><trkpt lat="40.3089553" lon="9.3504002"><ele>369.0</ele><time>2026-04-12T10:51:11.997Z</time></trkpt><trkpt lat="40.3088078" lon="9.3505223"><ele>367.0</ele><time>2026-04-12T10:51:12.997Z</time></trkpt><trkpt lat="40.3086627" lon="9.3506536"><ele>365.0</ele><time>2026-04-12T10:51:13.998Z</time></trkpt><trkpt lat="40.3085232" lon="9.35078"><ele>363.0</ele><time>2026-04-12T10:51:14.999Z</time></trkpt><trkpt lat="40.3083953" lon="9.3509111"><ele>363.0</ele><time>2026-04-12T10:51:15.998Z</time></trkpt><trkpt lat="40.3082749" lon="9.3510432"><ele>363.0</ele><time>2026-04-12T10:51:16.997Z</time></trkpt><trkpt lat="40.3081585" lon="9.3511893"><ele>363.0</ele><time>2026-04-12T10:51:17.998Z</time></trkpt><trkpt lat="40.3080381" lon="9.3513316"><ele>360.0</ele><time>2026-04-12T10:51:18.997Z</time></trkpt><trkpt lat="40.3079104" lon="9.3514761"><ele>357.0</ele><time>2026-04-12T10:51:19.998Z</time></trkpt><trkpt lat="40.3077848" lon="9.3516221"><ele>354.0</ele><time>2026-04-12T10:51:20.997Z</time></trkpt><trkpt lat="40.3076651" lon="9.3517624"><ele>354.0</ele><time>2026-04-12T10:51:21.998Z</time></trkpt><trkpt lat="40.3075532" lon="9.35189"><ele>354.0</ele><time>2026-04-12T10:51:22.996Z</time></trkpt><trkpt lat="40.3074486" lon="9.3520156"><ele>354.0</ele><time>2026-04-12T10:51:23.998Z</time></trkpt><trkpt lat="40.3073521" lon="9.3521391"><ele>354.0</ele><time>2026-04-12T10:51:24.999Z</time></trkpt><trkpt lat="40.3072573" lon="9.3522579"><ele>352.5</ele><time>2026-04-12T10:51:25.997Z</time></trkpt><trkpt lat="40.3071729" lon="9.3523761"><ele>351.0</ele><time>2026-04-12T10:51:26.999Z</time></trkpt><trkpt lat="40.3070936" lon="9.3524981"><ele>349.5</ele><time>2026-04-12T10:51:27.999Z</time></trkpt><trkpt lat="40.3070054" lon="9.3526086"><ele>348.0</ele><time>2026-04-12T10:51:28.997Z</time></trkpt><trkpt lat="40.3068981" lon="9.3527055"><ele>348.0</ele><time>2026-04-12T10:51:29.997Z</time></trkpt><trkpt lat="40.3067749" lon="9.3527804"><ele>348.0</ele><time>2026-04-12T10:51:30.999Z</time></trkpt><trkpt lat="40.3066333" lon="9.3528343"><ele>348.0</ele><time>2026-04-12T10:51:31.998Z</time></trkpt><trkpt lat="40.3064781" lon="9.3528788"><ele>348.0</ele><time>2026-04-12T10:51:32.998Z</time></trkpt><trkpt lat="40.3063156" lon="9.3529248"><ele>350.0</ele><time>2026-04-12T10:51:33.998Z</time></trkpt><trkpt lat="40.3061536" lon="9.352976"><ele>352.0</ele><time>2026-04-12T10:51:34.997Z</time></trkpt><trkpt lat="40.3060019" lon="9.3530382"><ele>354.0</ele><time>2026-04-12T10:51:35.998Z</time></trkpt><trkpt lat="40.3058595" lon="9.3531165"><ele>354.0</ele><time>2026-04-12T10:51:36.998Z</time></trkpt><trkpt lat="40.3057229" lon="9.353232"><ele>354.0</ele><time>2026-04-12T10:51:37.999Z</time></trkpt><trkpt lat="40.3055892" lon="9.3533808"><ele>354.0</ele><time>2026-04-12T10:51:38.996Z</time></trkpt><trkpt lat="40.3054693" lon="9.3535622"><ele>350.0</ele><time>2026-04-12T10:51:39.998Z</time></trkpt><trkpt lat="40.3053581" lon="9.3537424"><ele>346.0</ele><time>2026-04-12T10:51:40.999Z</time></trkpt><trkpt lat="40.3052371" lon="9.3538983"><ele>342.0</ele><time>2026-04-12T10:51:41.998Z</time></trkpt><trkpt lat="40.3051074" lon="9.354024"><ele>342.0</ele><time>2026-04-12T10:51:42.998Z</time></trkpt><trkpt lat="40.3049791" lon="9.3541401"><ele>342.0</ele><time>2026-04-12T10:51:43.998Z</time></trkpt><trkpt lat="40.3048506" lon="9.3542586"><ele>342.0</ele><time>2026-04-12T10:51:44.997Z</time></trkpt><trkpt lat="40.3047444" lon="9.3544119"><ele>337.75</ele><time>2026-04-12T10:51:45.998Z</time></trkpt><trkpt lat="40.3046529" lon="9.3545714"><ele>333.5</ele><time>2026-04-12T10:51:46.998Z</time></trkpt><trkpt lat="40.3045761" lon="9.3547275"><ele>329.25</ele><time>2026-04-12T10:51:47.998Z</time></trkpt><trkpt lat="40.304517" lon="9.3548817"><ele>325.0</ele><time>2026-04-12T10:51:48.997Z</time></trkpt><trkpt lat="40.30449" lon="9.3550485"><ele>325.0</ele><time>2026-04-12T10:51:49.997Z</time></trkpt><trkpt lat="40.3044954" lon="9.3552314"><ele>325.0</ele><time>2026-04-12T10:51:50.997Z</time></trkpt><trkpt lat="40.3045143" lon="9.3554151"><ele>325.0</ele><time>2026-04-12T10:51:51.999Z</time></trkpt><trkpt lat="40.3045113" lon="9.3555889"><ele>325.0</ele><time>2026-04-12T10:51:52.997Z</time></trkpt><trkpt lat="40.3044804" lon="9.3557522"><ele>326.5</ele><time>2026-04-12T10:51:53.999Z</time></trkpt><trkpt lat="40.3044101" lon="9.3558998"><ele>328.0</ele><time>2026-04-12T10:51:54.997Z</time></trkpt><trkpt lat="40.3043081" lon="9.3560248"><ele>329.5</ele><time>2026-04-12T10:51:55.998Z</time></trkpt><trkpt lat="40.3041952" lon="9.3561545"><ele>331.0</ele><time>2026-04-12T10:51:56.998Z</time></trkpt><trkpt lat="40.3040942" lon="9.356291"><ele>332.25</ele><time>2026-04-12T10:51:57.997Z</time></trkpt><trkpt lat="40.3040077" lon="9.3564221"><ele>333.5</ele><time>2026-04-12T10:51:58.997Z</time></trkpt><trkpt lat="40.3039427" lon="9.3565514"><ele>334.75</ele><time>2026-04-12T10:51:59.998Z</time></trkpt><trkpt lat="40.3039024" lon="9.3566911"><ele>336.0</ele><time>2026-04-12T10:52:00.998Z</time></trkpt><trkpt lat="40.303894" lon="9.3568342"><ele>336.0</ele><time>2026-04-12T10:52:01.998Z</time></trkpt><trkpt lat="40.3039147" lon="9.3569821"><ele>336.0</ele><time>2026-04-12T10:52:02.996Z</time></trkpt><trkpt lat="40.3039569" lon="9.3571347"><ele>336.0</ele><time>2026-04-12T10:52:03.998Z</time></trkpt><trkpt lat="40.30401" lon="9.357293"><ele>336.0</ele><time>2026-04-12T10:52:04.998Z</time></trkpt><trkpt lat="40.304056" lon="9.3574507"><ele>335.5</ele><time>2026-04-12T10:52:05.998Z</time></trkpt><trkpt lat="40.3040807" lon="9.357605"><ele>335.0</ele><time>2026-04-12T10:52:06.997Z</time></trkpt><trkpt lat="40.304086" lon="9.3577655"><ele>334.5</ele><time>2026-04-12T10:52:07.997Z</time></trkpt><trkpt lat="40.3040106" lon="9.3579266"><ele>334.0</ele><time>2026-04-12T10:52:08.998Z</time></trkpt><trkpt lat="40.3039402" lon="9.3580685"><ele>333.6</ele><time>2026-04-12T10:52:09.997Z</time></trkpt><trkpt lat="40.3038912" lon="9.3582"><ele>333.2</ele><time>2026-04-12T10:52:10.998Z</time></trkpt><trkpt lat="40.3038721" lon="9.3583399"><ele>332.8</ele><time>2026-04-12T10:52:11.997Z</time></trkpt><trkpt lat="40.3038876" lon="9.3584908"><ele>332.40000000000003</ele><time>2026-04-12T10:52:12.997Z</time></trkpt><trkpt lat="40.303924" lon="9.3586266"><ele>332.0</ele><time>2026-04-12T10:52:13.999Z</time></trkpt><trkpt lat="40.3039743" lon="9.3587541"><ele>332.0</ele><time>2026-04-12T10:52:14.998Z</time></trkpt><trkpt lat="40.303988" lon="9.3588825"><ele>332.0</ele><time>2026-04-12T10:52:15.996Z</time></trkpt><trkpt lat="40.3039653" lon="9.3589983"><ele>332.0</ele><time>2026-04-12T10:52:16.999Z</time></trkpt><trkpt lat="40.3038976" lon="9.3591012"><ele>332.0</ele><time>2026-04-12T10:52:17.999Z</time></trkpt><trkpt lat="40.3037761" lon="9.359177"><ele>332.0</ele><time>2026-04-12T10:52:18.998Z</time></trkpt><trkpt lat="40.3036153" lon="9.3592309"><ele>327.75</ele><time>2026-04-12T10:52:19.998Z</time></trkpt><trkpt lat="40.3034638" lon="9.3592878"><ele>323.5</ele><time>2026-04-12T10:52:20.999Z</time></trkpt><trkpt lat="40.3033209" lon="9.3593466"><ele>319.25</ele><time>2026-04-12T10:52:21.998Z</time></trkpt><trkpt lat="40.3031956" lon="9.3594326"><ele>315.0</ele><time>2026-04-12T10:52:22.996Z</time></trkpt><trkpt lat="40.3030962" lon="9.3595367"><ele>313.5</ele><time>2026-04-12T10:52:23.999Z</time></trkpt><trkpt lat="40.3030125" lon="9.3596708"><ele>312.0</ele><time>2026-04-12T10:52:24.998Z</time></trkpt><trkpt lat="40.3029493" lon="9.3598243"><ele>310.5</ele><time>2026-04-12T10:52:25.998Z</time></trkpt><trkpt lat="40.302905" lon="9.359978"><ele>309.0</ele><time>2026-04-12T10:52:26.998Z</time></trkpt><trkpt lat="40.3028836" lon="9.3601294"><ele>309.0</ele><time>2026-04-12T10:52:27.996Z</time></trkpt><trkpt lat="40.3028773" lon="9.3602769"><ele>309.0</ele><time>2026-04-12T10:52:28.998Z</time></trkpt><trkpt lat="40.3028932" lon="9.3604209"><ele>309.0</ele><time>2026-04-12T10:52:29.998Z</time></trkpt><trkpt lat="40.3029273" lon="9.360569"><ele>309.0</ele><time>2026-04-12T10:52:30.997Z</time></trkpt><trkpt lat="40.3029732" lon="9.3607156"><ele>308.25</ele><time>2026-04-12T10:52:31.997Z</time></trkpt><trkpt lat="40.303019" lon="9.3608653"><ele>307.5</ele><time>2026-04-12T10:52:32.997Z</time></trkpt><trkpt lat="40.3030674" lon="9.3610135"><ele>306.75</ele><time>2026-04-12T10:52:33.998Z</time></trkpt><trkpt lat="40.303114" lon="9.3611592"><ele>306.0</ele><time>2026-04-12T10:52:34.997Z</time></trkpt><trkpt lat="40.3031632" lon="9.3613093"><ele>311.6666666666667</ele><time>2026-04-12T10:52:35.998Z</time></trkpt><trkpt lat="40.3032172" lon="9.3614682"><ele>317.33333333333337</ele><time>2026-04-12T10:52:36.998Z</time></trkpt><trkpt lat="40.3032679" lon="9.3616547"><ele>323.0</ele><time>2026-04-12T10:52:37.998Z</time></trkpt><trkpt lat="40.3032926" lon="9.3619066"><ele>323.0</ele><time>2026-04-12T10:52:38.998Z</time></trkpt><trkpt lat="40.3032842" lon="9.362147"><ele>323.0</ele><time>2026-04-12T10:52:39.998Z</time></trkpt><trkpt lat="40.3032595" lon="9.3623704"><ele>323.0</ele><time>2026-04-12T10:52:40.998Z</time></trkpt><trkpt lat="40.3032387" lon="9.3625748"><ele>322.5</ele><time>2026-04-12T10:52:41.999Z</time></trkpt><trkpt lat="40.3032385" lon="9.3627625"><ele>322.0</ele><time>2026-04-12T10:52:42.998Z</time></trkpt><trkpt lat="40.3032617" lon="9.3629278"><ele>321.5</ele><time>2026-04-12T10:52:43.998Z</time></trkpt><trkpt lat="40.3033228" lon="9.3630792"><ele>321.0</ele><time>2026-04-12T10:52:44.996Z</time></trkpt><trkpt lat="40.3034264" lon="9.3632101"><ele>318.5</ele><time>2026-04-12T10:52:45.997Z</time></trkpt><trkpt lat="40.3035362" lon="9.3633232"><ele>316.0</ele><time>2026-04-12T10:52:46.998Z</time></trkpt><trkpt lat="40.3036317" lon="9.3634156"><ele>313.5</ele><time>2026-04-12T10:52:47.996Z</time></trkpt><trkpt lat="40.3037143" lon="9.3635086"><ele>311.0</ele><time>2026-04-12T10:52:48.998Z</time></trkpt><trkpt lat="40.3037675" lon="9.3636169"><ele>311.0</ele><time>2026-04-12T10:52:49.997Z</time></trkpt><trkpt lat="40.303784" lon="9.3637359"><ele>311.0</ele><time>2026-04-12T10:52:50.999Z</time></trkpt><trkpt lat="40.3037402" lon="9.3638689"><ele>311.0</ele><time>2026-04-12T10:52:51.997Z</time></trkpt><trkpt lat="40.303637" lon="9.364007"><ele>311.0</ele><time>2026-04-12T10:52:52.997Z</time></trkpt><trkpt lat="40.3034928" lon="9.3641516"><ele>311.0</ele><time>2026-04-12T10:52:53.999Z</time></trkpt><trkpt lat="40.3033627" lon="9.364288"><ele>311.0</ele><time>2026-04-12T10:52:54.998Z</time></trkpt><trkpt lat="40.3032467" lon="9.3644317"><ele>311.0</ele><time>2026-04-12T10:52:55.998Z</time></trkpt><trkpt lat="40.3031449" lon="9.3646014"><ele>306.0</ele><time>2026-04-12T10:52:56.998Z</time></trkpt><trkpt lat="40.3030643" lon="9.3648242"><ele>301.0</ele><time>2026-04-12T10:52:57.998Z</time></trkpt><trkpt lat="40.3030076" lon="9.3650668"><ele>296.0</ele><time>2026-04-12T10:52:58.998Z</time></trkpt><trkpt lat="40.3029646" lon="9.365314"><ele>296.6666666666667</ele><time>2026-04-12T10:52:59.998Z</time></trkpt><trkpt lat="40.3029523" lon="9.3655857"><ele>297.3333333333333</ele><time>2026-04-12T10:53:00.998Z</time></trkpt><trkpt lat="40.3029696" lon="9.3658975"><ele>298.0</ele><time>2026-04-12T10:53:01.997Z</time></trkpt><trkpt lat="40.3029963" lon="9.3662312"><ele>297.5</ele><time>2026-04-12T10:53:02.998Z</time></trkpt><trkpt lat="40.3030203" lon="9.3665407"><ele>297.0</ele><time>2026-04-12T10:53:03.998Z</time></trkpt><trkpt lat="40.3030414" lon="9.3668321"><ele>297.0</ele><time>2026-04-12T10:53:04.999Z</time></trkpt><trkpt lat="40.3030655" lon="9.3671079"><ele>297.0</ele><time>2026-04-12T10:53:05.998Z</time></trkpt><trkpt lat="40.3030849" lon="9.367359"><ele>297.0</ele><time>2026-04-12T10:53:06.999Z</time></trkpt><trkpt lat="40.3031025" lon="9.3675981"><ele>297.3333333333333</ele><time>2026-04-12T10:53:07.998Z</time></trkpt><trkpt lat="40.3031005" lon="9.3678322"><ele>297.66666666666663</ele><time>2026-04-12T10:53:08.997Z</time></trkpt><trkpt lat="40.303058" lon="9.3680734"><ele>298.0</ele><time>2026-04-12T10:53:09.999Z</time></trkpt><trkpt lat="40.3030017" lon="9.3682919"><ele>298.0</ele><time>2026-04-12T10:53:10.998Z</time></trkpt><trkpt lat="40.3029542" lon="9.3684971"><ele>298.0</ele><time>2026-04-12T10:53:11.998Z</time></trkpt><trkpt lat="40.3029216" lon="9.3686894"><ele>298.0</ele><time>2026-04-12T10:53:12.997Z</time></trkpt><trkpt lat="40.3029308" lon="9.3688904"><ele>298.0</ele><time>2026-04-12T10:53:13.998Z</time></trkpt><trkpt lat="40.3029899" lon="9.3690775"><ele>298.0</ele><time>2026-04-12T10:53:14.998Z</time></trkpt><trkpt lat="40.3030485" lon="9.3692521"><ele>298.0</ele><time>2026-04-12T10:53:15.997Z</time></trkpt><trkpt lat="40.3030917" lon="9.3694444"><ele>298.0</ele><time>2026-04-12T10:53:16.998Z</time></trkpt><trkpt lat="40.3030634" lon="9.3696552"><ele>298.0</ele><time>2026-04-12T10:53:17.999Z</time></trkpt><trkpt lat="40.3030509" lon="9.3698977"><ele>298.0</ele><time>2026-04-12T10:53:18.998Z</time></trkpt><trkpt lat="40.3030695" lon="9.3701729"><ele>308.5</ele><time>2026-04-12T10:53:19.998Z</time></trkpt><trkpt lat="40.3031288" lon="9.370484"><ele>319.0</ele><time>2026-04-12T10:53:20.998Z</time></trkpt><trkpt lat="40.3032005" lon="9.3708081"><ele>319.5</ele><time>2026-04-12T10:53:21.997Z</time></trkpt><trkpt lat="40.3032693" lon="9.3711071"><ele>320.0</ele><time>2026-04-12T10:53:22.997Z</time></trkpt><trkpt lat="40.3033403" lon="9.3714125"><ele>318.0</ele><time>2026-04-12T10:53:23.997Z</time></trkpt><trkpt lat="40.3034107" lon="9.3717132"><ele>316.0</ele><time>2026-04-12T10:53:24.997Z</time></trkpt><trkpt lat="40.3034749" lon="9.3719835"><ele>314.3333333333333</ele><time>2026-04-12T10:53:25.998Z</time></trkpt><trkpt lat="40.3035334" lon="9.3722308"><ele>312.6666666666667</ele><time>2026-04-12T10:53:26.997Z</time></trkpt><trkpt lat="40.3035851" lon="9.3724596"><ele>311.0</ele><time>2026-04-12T10:53:27.999Z</time></trkpt><trkpt lat="40.3036381" lon="9.3726807"><ele>311.0</ele><time>2026-04-12T10:53:28.998Z</time></trkpt><trkpt lat="40.3036865" lon="9.3729018"><ele>311.0</ele><time>2026-04-12T10:53:29.997Z</time></trkpt><trkpt lat="40.3037349" lon="9.3731223"><ele>311.0</ele><time>2026-04-12T10:53:30.998Z</time></trkpt><trkpt lat="40.3037769" lon="9.3733071"><ele>311.0</ele><time>2026-04-12T10:53:31.998Z</time></trkpt><trkpt lat="40.3038209" lon="9.3734664"><ele>311.0</ele><time>2026-04-12T10:53:32.999Z</time></trkpt><trkpt lat="40.3038507" lon="9.3736036"><ele>311.0</ele><time>2026-04-12T10:53:33.997Z</time></trkpt><trkpt lat="40.3038865" lon="9.3737147"><ele>311.0</ele><time>2026-04-12T10:53:34.999Z</time></trkpt><trkpt lat="40.30394" lon="9.3738234"><ele>311.0</ele><time>2026-04-12T10:53:35.998Z</time></trkpt><trkpt lat="40.3040307" lon="9.3739074"><ele>314.5</ele><time>2026-04-12T10:53:36.997Z</time></trkpt><trkpt lat="40.3041322" lon="9.3739809"><ele>318.0</ele><time>2026-04-12T10:53:37.998Z</time></trkpt><trkpt lat="40.3042477" lon="9.3740188"><ele>321.5</ele><time>2026-04-12T10:53:38.997Z</time></trkpt><trkpt lat="40.304359" lon="9.374063"><ele>325.0</ele><time>2026-04-12T10:53:39.997Z</time></trkpt><trkpt lat="40.3044518" lon="9.3741199"><ele>325.0</ele><time>2026-04-12T10:53:40.998Z</time></trkpt><trkpt lat="40.3045454" lon="9.3742243"><ele>325.0</ele><time>2026-04-12T10:53:41.998Z</time></trkpt><trkpt lat="40.304641" lon="9.3743728"><ele>325.0</ele><time>2026-04-12T10:53:42.997Z</time></trkpt><trkpt lat="40.3047894" lon="9.3745748"><ele>331.5</ele><time>2026-04-12T10:53:43.998Z</time></trkpt><trkpt lat="40.3049433" lon="9.37479"><ele>338.0</ele><time>2026-04-12T10:53:44.997Z</time></trkpt><trkpt lat="40.3050962" lon="9.375039"><ele>338.0</ele><time>2026-04-12T10:53:45.998Z</time></trkpt><trkpt lat="40.3052214" lon="9.3753191"><ele>338.0</ele><time>2026-04-12T10:53:46.997Z</time></trkpt><trkpt lat="40.3053253" lon="9.3755841"><ele>334.5</ele><time>2026-04-12T10:53:47.997Z</time></trkpt><trkpt lat="40.3054397" lon="9.3758589"><ele>331.0</ele><time>2026-04-12T10:53:48.997Z</time></trkpt><trkpt lat="40.3055588" lon="9.3760955"><ele>334.0</ele><time>2026-04-12T10:53:49.997Z</time></trkpt><trkpt lat="40.3056906" lon="9.3763007"><ele>337.0</ele><time>2026-04-12T10:53:50.997Z</time></trkpt><trkpt lat="40.3058429" lon="9.3764736"><ele>340.0</ele><time>2026-04-12T10:53:51.997Z</time></trkpt><trkpt lat="40.306008" lon="9.3766043"><ele>340.0</ele><time>2026-04-12T10:53:52.998Z</time></trkpt><trkpt lat="40.306171" lon="9.3766982"><ele>340.0</ele><time>2026-04-12T10:53:53.998Z</time></trkpt><trkpt lat="40.3063121" lon="9.3767827"><ele>340.0</ele><time>2026-04-12T10:53:54.997Z</time></trkpt><trkpt lat="40.3064372" lon="9.3768777"><ele>342.66666666666663</ele><time>2026-04-12T10:53:55.998Z</time></trkpt><trkpt lat="40.3065415" lon="9.3770152"><ele>345.3333333333333</ele><time>2026-04-12T10:53:56.997Z</time></trkpt><trkpt lat="40.3066078" lon="9.3772038"><ele>348.0</ele><time>2026-04-12T10:53:57.998Z</time></trkpt><trkpt lat="40.3066425" lon="9.3774271"><ele>348.0</ele><time>2026-04-12T10:53:58.997Z</time></trkpt><trkpt lat="40.3066808" lon="9.3776172"><ele>348.0</ele><time>2026-04-12T10:53:59.998Z</time></trkpt><trkpt lat="40.3067274" lon="9.377779"><ele>348.0</ele><time>2026-04-12T10:54:00.998Z</time></trkpt><trkpt lat="40.3067988" lon="9.3779082"><ele>348.0</ele><time>2026-04-12T10:54:01.998Z</time></trkpt><trkpt lat="40.3069097" lon="9.377996"><ele>348.0</ele><time>2026-04-12T10:54:02.998Z</time></trkpt><trkpt lat="40.307071" lon="9.3780372"><ele>348.0</ele><time>2026-04-12T10:54:03.996Z</time></trkpt><trkpt lat="40.3072483" lon="9.3780282"><ele>348.0</ele><time>2026-04-12T10:54:04.997Z</time></trkpt><trkpt lat="40.3074073" lon="9.3780201"><ele>349.0</ele><time>2026-04-12T10:54:05.998Z</time></trkpt><trkpt lat="40.3075574" lon="9.3780123"><ele>350.0</ele><time>2026-04-12T10:54:06.998Z</time></trkpt><trkpt lat="40.3076815" lon="9.3780594"><ele>351.0</ele><time>2026-04-12T10:54:07.998Z</time></trkpt><trkpt lat="40.3077926" lon="9.3781272"><ele>352.0</ele><time>2026-04-12T10:54:08.999Z</time></trkpt><trkpt lat="40.3078781" lon="9.3782581"><ele>349.0</ele><time>2026-04-12T10:54:09.998Z</time></trkpt><trkpt lat="40.3079388" lon="9.3784541"><ele>346.0</ele><time>2026-04-12T10:54:10.997Z</time></trkpt><trkpt lat="40.3079676" lon="9.3787102"><ele>343.0</ele><time>2026-04-12T10:54:11.998Z</time></trkpt><trkpt lat="40.3079876" lon="9.3790089"><ele>340.5</ele><time>2026-04-12T10:54:12.997Z</time></trkpt><trkpt lat="40.3080087" lon="9.3793132"><ele>338.0</ele><time>2026-04-12T10:54:13.997Z</time></trkpt><trkpt lat="40.3080276" lon="9.3795963"><ele>339.33333333333337</ele><time>2026-04-12T10:54:14.996Z</time></trkpt><trkpt lat="40.3080474" lon="9.3798456"><ele>340.6666666666667</ele><time>2026-04-12T10:54:15.998Z</time></trkpt><trkpt lat="40.3080673" lon="9.3800685"><ele>342.0</ele><time>2026-04-12T10:54:16.998Z</time></trkpt><trkpt lat="40.3081009" lon="9.380266"><ele>342.0</ele><time>2026-04-12T10:54:17.998Z</time></trkpt><trkpt lat="40.3081806" lon="9.3804826"><ele>342.0</ele><time>2026-04-12T10:54:18.998Z</time></trkpt><trkpt lat="40.3083175" lon="9.3806961"><ele>342.0</ele><time>2026-04-12T10:54:19.998Z</time></trkpt><trkpt lat="40.308477" lon="9.3809039"><ele>339.6666666666667</ele><time>2026-04-12T10:54:20.996Z</time></trkpt><trkpt lat="40.3086346" lon="9.3810991"><ele>337.33333333333337</ele><time>2026-04-12T10:54:21.997Z</time></trkpt><trkpt lat="40.3087845" lon="9.3812793"><ele>335.0</ele><time>2026-04-12T10:54:22.997Z</time></trkpt><trkpt lat="40.3089277" lon="9.3814525"><ele>334.33333333333337</ele><time>2026-04-12T10:54:23.996Z</time></trkpt><trkpt lat="40.3090523" lon="9.3816299"><ele>333.6666666666667</ele><time>2026-04-12T10:54:24.999Z</time></trkpt><trkpt lat="40.3091685" lon="9.3818339"><ele>333.0</ele><time>2026-04-12T10:54:25.999Z</time></trkpt><trkpt lat="40.3092422" lon="9.3820949"><ele>330.6666666666667</ele><time>2026-04-12T10:54:26.998Z</time></trkpt><trkpt lat="40.3093079" lon="9.3823304"><ele>328.33333333333337</ele><time>2026-04-12T10:54:27.998Z</time></trkpt><trkpt lat="40.3093752" lon="9.3825453"><ele>326.0</ele><time>2026-04-12T10:54:28.998Z</time></trkpt><trkpt lat="40.3094655" lon="9.3827548"><ele>326.0</ele><time>2026-04-12T10:54:29.997Z</time></trkpt><trkpt lat="40.3095775" lon="9.3829281"><ele>326.0</ele><time>2026-04-12T10:54:30.998Z</time></trkpt><trkpt lat="40.3096835" lon="9.3830759"><ele>326.0</ele><time>2026-04-12T10:54:31.997Z</time></trkpt><trkpt lat="40.3097663" lon="9.3832526"><ele>326.6666666666667</ele><time>2026-04-12T10:54:32.998Z</time></trkpt><trkpt lat="40.309824" lon="9.3834888"><ele>327.3333333333333</ele><time>2026-04-12T10:54:33.998Z</time></trkpt><trkpt lat="40.309865" lon="9.3837699"><ele>328.0</ele><time>2026-04-12T10:54:34.999Z</time></trkpt><trkpt lat="40.3099099" lon="9.3840655"><ele>326.0</ele><time>2026-04-12T10:54:35.997Z</time></trkpt><trkpt lat="40.3099514" lon="9.3843301"><ele>324.0</ele><time>2026-04-12T10:54:36.998Z</time></trkpt><trkpt lat="40.3100133" lon="9.384568"><ele>322.0</ele><time>2026-04-12T10:54:37.997Z</time></trkpt><trkpt lat="40.3100788" lon="9.3847756"><ele>319.3333333333333</ele><time>2026-04-12T10:54:38.998Z</time></trkpt><trkpt lat="40.3101694" lon="9.3849429"><ele>316.6666666666667</ele><time>2026-04-12T10:54:39.997Z</time></trkpt><trkpt lat="40.3102613" lon="9.3851178"><ele>314.0</ele><time>2026-04-12T10:54:40.997Z</time></trkpt><trkpt lat="40.3103176" lon="9.385332"><ele>312.0</ele><time>2026-04-12T10:54:41.998Z</time></trkpt><trkpt lat="40.3103508" lon="9.3856017"><ele>310.0</ele><time>2026-04-12T10:54:42.998Z</time></trkpt><trkpt lat="40.310352" lon="9.3859162"><ele>308.0</ele><time>2026-04-12T10:54:43.999Z</time></trkpt><trkpt lat="40.3103402" lon="9.3862598"><ele>307.0</ele><time>2026-04-12T10:54:44.997Z</time></trkpt><trkpt lat="40.3103284" lon="9.386586"><ele>306.0</ele><time>2026-04-12T10:54:45.998Z</time></trkpt><trkpt lat="40.3103135" lon="9.3868895"><ele>305.3333333333333</ele><time>2026-04-12T10:54:46.999Z</time></trkpt><trkpt lat="40.3102988" lon="9.3871837"><ele>304.66666666666663</ele><time>2026-04-12T10:54:47.997Z</time></trkpt><trkpt lat="40.3102818" lon="9.3874641"><ele>304.0</ele><time>2026-04-12T10:54:48.997Z</time></trkpt><trkpt lat="40.3102621" lon="9.3877456"><ele>302.0</ele><time>2026-04-12T10:54:49.997Z</time></trkpt><trkpt lat="40.3102247" lon="9.3880403"><ele>300.0</ele><time>2026-04-12T10:54:50.997Z</time></trkpt><trkpt lat="40.3101629" lon="9.3883575"><ele>300.0</ele><time>2026-04-12T10:54:51.999Z</time></trkpt><trkpt lat="40.3100804" lon="9.3886668"><ele>300.0</ele><time>2026-04-12T10:54:52.999Z</time></trkpt><trkpt lat="40.3099875" lon="9.3889541"><ele>301.3333333333333</ele><time>2026-04-12T10:54:53.999Z</time></trkpt><trkpt lat="40.3099007" lon="9.3892173"><ele>302.66666666666663</ele><time>2026-04-12T10:54:54.997Z</time></trkpt><trkpt lat="40.3098217" lon="9.3894539"><ele>304.0</ele><time>2026-04-12T10:54:55.998Z</time></trkpt><trkpt lat="40.3097596" lon="9.3896982"><ele>300.66666666666663</ele><time>2026-04-12T10:54:56.998Z</time></trkpt><trkpt lat="40.3097193" lon="9.3899698"><ele>297.3333333333333</ele><time>2026-04-12T10:54:57.997Z</time></trkpt><trkpt lat="40.3097074" lon="9.3902454"><ele>294.0</ele><time>2026-04-12T10:54:58.998Z</time></trkpt><trkpt lat="40.3097305" lon="9.3905286"><ele>297.3333333333333</ele><time>2026-04-12T10:54:59.998Z</time></trkpt><trkpt lat="40.3097847" lon="9.3907807"><ele>300.66666666666663</ele><time>2026-04-12T10:55:00.998Z</time></trkpt><trkpt lat="40.3098386" lon="9.3910223"><ele>304.0</ele><time>2026-04-12T10:55:01.998Z</time></trkpt><trkpt lat="40.3098809" lon="9.3912565"><ele>301.3333333333333</ele><time>2026-04-12T10:55:02.998Z</time></trkpt><trkpt lat="40.3098982" lon="9.3915023"><ele>298.6666666666667</ele><time>2026-04-12T10:55:03.998Z</time></trkpt><trkpt lat="40.3098791" lon="9.3917688"><ele>296.0</ele><time>2026-04-12T10:55:04.998Z</time></trkpt><trkpt lat="40.3098129" lon="9.3920287"><ele>291.33333333333337</ele><time>2026-04-12T10:55:05.998Z</time></trkpt><trkpt lat="40.3097036" lon="9.3922728"><ele>286.6666666666667</ele><time>2026-04-12T10:55:06.996Z</time></trkpt><trkpt lat="40.3095781" lon="9.3924808"><ele>282.0</ele><time>2026-04-12T10:55:07.997Z</time></trkpt><trkpt lat="40.309435" lon="9.3926385"><ele>282.0</ele><time>2026-04-12T10:55:08.998Z</time></trkpt><trkpt lat="40.3092928" lon="9.3927749"><ele>282.0</ele><time>2026-04-12T10:55:09.997Z</time></trkpt><trkpt lat="40.3091691" lon="9.3929001"><ele>282.0</ele><time>2026-04-12T10:55:10.998Z</time></trkpt><trkpt lat="40.3090649" lon="9.3930306"><ele>284.6666666666667</ele><time>2026-04-12T10:55:11.996Z</time></trkpt><trkpt lat="40.3089911" lon="9.3931732"><ele>287.33333333333337</ele><time>2026-04-12T10:55:12.997Z</time></trkpt><trkpt lat="40.3089517" lon="9.3933644"><ele>290.0</ele><time>2026-04-12T10:55:13.997Z</time></trkpt><trkpt lat="40.3089542" lon="9.3936043"><ele>289.0</ele><time>2026-04-12T10:55:14.997Z</time></trkpt><trkpt lat="40.3089761" lon="9.3938627"><ele>288.0</ele><time>2026-04-12T10:55:15.997Z</time></trkpt><trkpt lat="40.3090487" lon="9.3941227"><ele>287.0</ele><time>2026-04-12T10:55:16.998Z</time></trkpt><trkpt lat="40.3091102" lon="9.3943692"><ele>287.0</ele><time>2026-04-12T10:55:17.998Z</time></trkpt><trkpt lat="40.3091734" lon="9.3946013"><ele>287.0</ele><time>2026-04-12T10:55:18.998Z</time></trkpt><trkpt lat="40.3092307" lon="9.3948227"><ele>287.0</ele><time>2026-04-12T10:55:19.998Z</time></trkpt><trkpt lat="40.3092939" lon="9.3950247"><ele>283.0</ele><time>2026-04-12T10:55:20.998Z</time></trkpt><trkpt lat="40.3093726" lon="9.3952112"><ele>279.0</ele><time>2026-04-12T10:55:21.997Z</time></trkpt><trkpt lat="40.3094746" lon="9.3953689"><ele>275.0</ele><time>2026-04-12T10:55:22.999Z</time></trkpt><trkpt lat="40.3096013" lon="9.3955085"><ele>275.0</ele><time>2026-04-12T10:55:23.998Z</time></trkpt><trkpt lat="40.309733" lon="9.3956325"><ele>275.0</ele><time>2026-04-12T10:55:24.998Z</time></trkpt><trkpt lat="40.3098445" lon="9.3957454"><ele>275.0</ele><time>2026-04-12T10:55:25.998Z</time></trkpt><trkpt lat="40.3099261" lon="9.3958594"><ele>275.0</ele><time>2026-04-12T10:55:26.998Z</time></trkpt><trkpt lat="40.3099699" lon="9.3960161"><ele>275.0</ele><time>2026-04-12T10:55:27.997Z</time></trkpt><trkpt lat="40.3099613" lon="9.3962219"><ele>275.0</ele><time>2026-04-12T10:55:28.997Z</time></trkpt><trkpt lat="40.3099077" lon="9.3964699"><ele>275.0</ele><time>2026-04-12T10:55:29.999Z</time></trkpt><trkpt lat="40.3098589" lon="9.3967068"><ele>272.33333333333337</ele><time>2026-04-12T10:55:30.998Z</time></trkpt><trkpt lat="40.3098124" lon="9.3969303"><ele>269.6666666666667</ele><time>2026-04-12T10:55:31.997Z</time></trkpt><trkpt lat="40.3097826" lon="9.3971289"><ele>267.0</ele><time>2026-04-12T10:55:32.999Z</time></trkpt><trkpt lat="40.3097778" lon="9.3973326"><ele>264.6666666666667</ele><time>2026-04-12T10:55:33.998Z</time></trkpt><trkpt lat="40.3098158" lon="9.3975433"><ele>262.33333333333337</ele><time>2026-04-12T10:55:34.997Z</time></trkpt><trkpt lat="40.3099081" lon="9.3977886"><ele>260.0</ele><time>2026-04-12T10:55:35.997Z</time></trkpt><trkpt lat="40.3100346" lon="9.3980593"><ele>258.0</ele><time>2026-04-12T10:55:36.998Z</time></trkpt><trkpt lat="40.3101892" lon="9.3983648"><ele>256.0</ele><time>2026-04-12T10:55:37.999Z</time></trkpt><trkpt lat="40.3103577" lon="9.3986991"><ele>255.5</ele><time>2026-04-12T10:55:38.999Z</time></trkpt><trkpt lat="40.310524" lon="9.3990244"><ele>255.0</ele><time>2026-04-12T10:55:39.997Z</time></trkpt><trkpt lat="40.3106893" lon="9.3993619"><ele>254.0</ele><time>2026-04-12T10:55:40.998Z</time></trkpt><trkpt lat="40.3108727" lon="9.3997246"><ele>253.0</ele><time>2026-04-12T10:55:41.996Z</time></trkpt><trkpt lat="40.3110539" lon="9.4000789"><ele>253.0</ele><time>2026-04-12T10:55:42.997Z</time></trkpt><trkpt lat="40.3112429" lon="9.4004488"><ele>253.0</ele><time>2026-04-12T10:55:43.999Z</time></trkpt><trkpt lat="40.3114461" lon="9.4008286"><ele>254.0</ele><time>2026-04-12T10:55:44.997Z</time></trkpt><trkpt lat="40.311653" lon="9.4012187"><ele>255.0</ele><time>2026-04-12T10:55:45.997Z</time></trkpt><trkpt lat="40.311862" lon="9.40164"><ele>251.0</ele><time>2026-04-12T10:55:46.998Z</time></trkpt><trkpt lat="40.312079" lon="9.4020913"><ele>247.0</ele><time>2026-04-12T10:55:47.997Z</time></trkpt><trkpt lat="40.3123002" lon="9.4025512"><ele>244.5</ele><time>2026-04-12T10:55:48.996Z</time></trkpt><trkpt lat="40.3125323" lon="9.4030205"><ele>242.0</ele><time>2026-04-12T10:55:49.999Z</time></trkpt><trkpt lat="40.312774" lon="9.4034967"><ele>241.0</ele><time>2026-04-12T10:55:50.996Z</time></trkpt><trkpt lat="40.3130195" lon="9.4039763"><ele>240.0</ele><time>2026-04-12T10:55:51.999Z</time></trkpt><trkpt lat="40.313269" lon="9.4044635"><ele>237.0</ele><time>2026-04-12T10:55:52.998Z</time></trkpt><trkpt lat="40.3135215" lon="9.4049619"><ele>237.0</ele><time>2026-04-12T10:55:53.998Z</time></trkpt><trkpt lat="40.3137553" lon="9.4054329"><ele>237.0</ele><time>2026-04-12T10:55:54.998Z</time></trkpt><trkpt lat="40.3139772" lon="9.4058788"><ele>237.0</ele><time>2026-04-12T10:55:55.999Z</time></trkpt><trkpt lat="40.3141839" lon="9.4062891"><ele>237.0</ele><time>2026-04-12T10:55:56.999Z</time></trkpt><trkpt lat="40.3143957" lon="9.4067018"><ele>237.0</ele><time>2026-04-12T10:55:57.998Z</time></trkpt><trkpt lat="40.3146041" lon="9.407115"><ele>237.0</ele><time>2026-04-12T10:55:58.997Z</time></trkpt><trkpt lat="40.3148019" lon="9.4075068"><ele>237.0</ele><time>2026-04-12T10:55:59.997Z</time></trkpt><trkpt lat="40.3149822" lon="9.4078581"><ele>237.0</ele><time>2026-04-12T10:56:00.996Z</time></trkpt><trkpt lat="40.3151408" lon="9.4081708"><ele>235.0</ele><time>2026-04-12T10:56:01.996Z</time></trkpt><trkpt lat="40.3152769" lon="9.4084391"><ele>233.0</ele><time>2026-04-12T10:56:02.997Z</time></trkpt><trkpt lat="40.3154" lon="9.4086772"><ele>234.0</ele><time>2026-04-12T10:56:03.997Z</time></trkpt><trkpt lat="40.3155103" lon="9.4088925"><ele>235.0</ele><time>2026-04-12T10:56:04.997Z</time></trkpt><trkpt lat="40.315607" lon="9.4090922"><ele>236.0</ele><time>2026-04-12T10:56:05.997Z</time></trkpt><trkpt lat="40.3157126" lon="9.4092996"><ele>236.0</ele><time>2026-04-12T10:56:06.999Z</time></trkpt><trkpt lat="40.3158108" lon="9.4095617"><ele>236.0</ele><time>2026-04-12T10:56:07.997Z</time></trkpt><trkpt lat="40.3158944" lon="9.4098817"><ele>236.0</ele><time>2026-04-12T10:56:08.999Z</time></trkpt><trkpt lat="40.3159685" lon="9.4102583"><ele>236.0</ele><time>2026-04-12T10:56:09.999Z</time></trkpt><trkpt lat="40.3160443" lon="9.4106713"><ele>235.0</ele><time>2026-04-12T10:56:10.998Z</time></trkpt><trkpt lat="40.3161221" lon="9.411112"><ele>234.0</ele><time>2026-04-12T10:56:11.997Z</time></trkpt><trkpt lat="40.316194" lon="9.4115207"><ele>233.0</ele><time>2026-04-12T10:56:12.998Z</time></trkpt><trkpt lat="40.3162612" lon="9.4119077"><ele>232.0</ele><time>2026-04-12T10:56:13.998Z</time></trkpt><trkpt lat="40.3163244" lon="9.4122899"><ele>232.0</ele><time>2026-04-12T10:56:14.998Z</time></trkpt><trkpt lat="40.3163856" lon="9.4126544"><ele>232.0</ele><time>2026-04-12T10:56:15.998Z</time></trkpt><trkpt lat="40.3164445" lon="9.413004"><ele>229.0</ele><time>2026-04-12T10:56:16.998Z</time></trkpt><trkpt lat="40.3164999" lon="9.4133263"><ele>226.0</ele><time>2026-04-12T10:56:17.998Z</time></trkpt><trkpt lat="40.3165521" lon="9.4136311"><ele>224.66666666666666</ele><time>2026-04-12T10:56:18.998Z</time></trkpt><trkpt lat="40.3166003" lon="9.4139189"><ele>223.33333333333331</ele><time>2026-04-12T10:56:19.999Z</time></trkpt><trkpt lat="40.3166492" lon="9.414199"><ele>222.0</ele><time>2026-04-12T10:56:20.998Z</time></trkpt><trkpt lat="40.3166968" lon="9.4145153"><ele>219.5</ele><time>2026-04-12T10:56:21.998Z</time></trkpt><trkpt lat="40.3167335" lon="9.4148758"><ele>217.0</ele><time>2026-04-12T10:56:22.998Z</time></trkpt><trkpt lat="40.3167422" lon="9.4152801"><ele>214.0</ele><time>2026-04-12T10:56:23.999Z</time></trkpt><trkpt lat="40.3167284" lon="9.4157152"><ele>211.0</ele><time>2026-04-12T10:56:24.998Z</time></trkpt><trkpt lat="40.3167069" lon="9.4161775"><ele>210.5</ele><time>2026-04-12T10:56:25.998Z</time></trkpt><trkpt lat="40.3166736" lon="9.4166597"><ele>210.0</ele><time>2026-04-12T10:56:26.999Z</time></trkpt><trkpt lat="40.3166434" lon="9.4171782"><ele>210.0</ele><time>2026-04-12T10:56:27.998Z</time></trkpt><trkpt lat="40.316608" lon="9.417708"><ele>210.0</ele><time>2026-04-12T10:56:28.997Z</time></trkpt><trkpt lat="40.3165719" lon="9.4182529"><ele>209.0</ele><time>2026-04-12T10:56:29.998Z</time></trkpt><trkpt lat="40.316534" lon="9.4188143"><ele>208.0</ele><time>2026-04-12T10:56:30.996Z</time></trkpt><trkpt lat="40.316494" lon="9.4193753"><ele>207.0</ele><time>2026-04-12T10:56:31.997Z</time></trkpt><trkpt lat="40.316455" lon="9.4199457"><ele>206.0</ele><time>2026-04-12T10:56:32.997Z</time></trkpt><trkpt lat="40.3164184" lon="9.4205257"><ele>206.0</ele><time>2026-04-12T10:56:33.998Z</time></trkpt><trkpt lat="40.3163838" lon="9.4210727"><ele>206.0</ele><time>2026-04-12T10:56:34.998Z</time></trkpt><trkpt lat="40.3163458" lon="9.42159"><ele>203.0</ele><time>2026-04-12T10:56:35.997Z</time></trkpt><trkpt lat="40.3163131" lon="9.4220785"><ele>200.0</ele><time>2026-04-12T10:56:36.998Z</time></trkpt><trkpt lat="40.3162837" lon="9.4225286"><ele>199.0</ele><time>2026-04-12T10:56:37.998Z</time></trkpt><trkpt lat="40.3162562" lon="9.422953"><ele>198.0</ele><time>2026-04-12T10:56:38.999Z</time></trkpt><trkpt lat="40.3162279" lon="9.4233465"><ele>198.0</ele><time>2026-04-12T10:56:39.997Z</time></trkpt><trkpt lat="40.3162045" lon="9.4237128"><ele>198.0</ele><time>2026-04-12T10:56:40.997Z</time></trkpt><trkpt lat="40.3161809" lon="9.4240519"><ele>198.0</ele><time>2026-04-12T10:56:41.998Z</time></trkpt><trkpt lat="40.3161604" lon="9.4243788"><ele>198.0</ele><time>2026-04-12T10:56:42.997Z</time></trkpt><trkpt lat="40.3161404" lon="9.424693"><ele>199.0</ele><time>2026-04-12T10:56:43.998Z</time></trkpt><trkpt lat="40.3161224" lon="9.4249847"><ele>200.0</ele><time>2026-04-12T10:56:44.998Z</time></trkpt><trkpt lat="40.3161063" lon="9.4252428"><ele>201.0</ele><time>2026-04-12T10:56:45.998Z</time></trkpt><trkpt lat="40.3160987" lon="9.4254777"><ele>201.0</ele><time>2026-04-12T10:56:46.998Z</time></trkpt><trkpt lat="40.3161192" lon="9.4257411"><ele>201.0</ele><time>2026-04-12T10:56:47.996Z</time></trkpt><trkpt lat="40.3161805" lon="9.4260268"><ele>201.0</ele><time>2026-04-12T10:56:48.998Z</time></trkpt><trkpt lat="40.316289" lon="9.4263383"><ele>203.5</ele><time>2026-04-12T10:56:49.997Z</time></trkpt><trkpt lat="40.3164208" lon="9.426648"><ele>206.0</ele><time>2026-04-12T10:56:50.997Z</time></trkpt><trkpt lat="40.3165721" lon="9.4269264"><ele>205.33333333333334</ele><time>2026-04-12T10:56:51.998Z</time></trkpt><trkpt lat="40.3167022" lon="9.4271824"><ele>204.66666666666669</ele><time>2026-04-12T10:56:52.997Z</time></trkpt><trkpt lat="40.3168142" lon="9.4274099"><ele>204.0</ele><time>2026-04-12T10:56:53.997Z</time></trkpt><trkpt lat="40.3169189" lon="9.4276501"><ele>204.0</ele><time>2026-04-12T10:56:54.997Z</time></trkpt><trkpt lat="40.3169844" lon="9.4279171"><ele>204.0</ele><time>2026-04-12T10:56:55.998Z</time></trkpt><trkpt lat="40.3170299" lon="9.4281731"><ele>204.0</ele><time>2026-04-12T10:56:56.996Z</time></trkpt><trkpt lat="40.3170912" lon="9.4284411"><ele>203.5</ele><time>2026-04-12T10:56:57.996Z</time></trkpt><trkpt lat="40.3172184" lon="9.4287346"><ele>203.0</ele><time>2026-04-12T10:56:58.997Z</time></trkpt><trkpt lat="40.3173566" lon="9.4290174"><ele>206.5</ele><time>2026-04-12T10:56:59.997Z</time></trkpt><trkpt lat="40.3175396" lon="9.4293069"><ele>210.0</ele><time>2026-04-12T10:57:00.998Z</time></trkpt><trkpt lat="40.3177093" lon="9.4295821"><ele>207.5</ele><time>2026-04-12T10:57:01.998Z</time></trkpt><trkpt lat="40.3178556" lon="9.4298412"><ele>205.0</ele><time>2026-04-12T10:57:02.997Z</time></trkpt><trkpt lat="40.3179997" lon="9.4300984"><ele>209.0</ele><time>2026-04-12T10:57:03.998Z</time></trkpt><trkpt lat="40.3181213" lon="9.4303855"><ele>213.0</ele><time>2026-04-12T10:57:04.998Z</time></trkpt><trkpt lat="40.3182182" lon="9.430729"><ele>213.0</ele><time>2026-04-12T10:57:05.997Z</time></trkpt><trkpt lat="40.3183228" lon="9.4310981"><ele>213.0</ele><time>2026-04-12T10:57:06.998Z</time></trkpt><trkpt lat="40.3184178" lon="9.4314489"><ele>210.5</ele><time>2026-04-12T10:57:07.997Z</time></trkpt><trkpt lat="40.3185009" lon="9.431773"><ele>208.0</ele><time>2026-04-12T10:57:08.997Z</time></trkpt><trkpt lat="40.3185885" lon="9.4320779"><ele>207.0</ele><time>2026-04-12T10:57:09.998Z</time></trkpt><trkpt lat="40.3186867" lon="9.432385"><ele>206.0</ele><time>2026-04-12T10:57:10.998Z</time></trkpt><trkpt lat="40.3188291" lon="9.4326957"><ele>209.5</ele><time>2026-04-12T10:57:11.998Z</time></trkpt><trkpt lat="40.319002" lon="9.4330175"><ele>213.0</ele><time>2026-04-12T10:57:12.998Z</time></trkpt><trkpt lat="40.3191962" lon="9.4333566"><ele>213.0</ele><time>2026-04-12T10:57:13.998Z</time></trkpt><trkpt lat="40.3194033" lon="9.4337093"><ele>213.0</ele><time>2026-04-12T10:57:14.998Z</time></trkpt><trkpt lat="40.3196221" lon="9.4340864"><ele>213.5</ele><time>2026-04-12T10:57:15.996Z</time></trkpt><trkpt lat="40.319851" lon="9.4344793"><ele>214.0</ele><time>2026-04-12T10:57:16.999Z</time></trkpt><trkpt lat="40.3200821" lon="9.4348744"><ele>214.0</ele><time>2026-04-12T10:57:17.997Z</time></trkpt><trkpt lat="40.3203138" lon="9.4352739"><ele>214.0</ele><time>2026-04-12T10:57:18.996Z</time></trkpt><trkpt lat="40.3205268" lon="9.4356413"><ele>215.0</ele><time>2026-04-12T10:57:19.996Z</time></trkpt><trkpt lat="40.3207236" lon="9.4359864"><ele>216.0</ele><time>2026-04-12T10:57:20.997Z</time></trkpt><trkpt lat="40.3209065" lon="9.4363071"><ele>216.0</ele><time>2026-04-12T10:57:21.997Z</time></trkpt><trkpt lat="40.321071" lon="9.4365891"><ele>216.0</ele><time>2026-04-12T10:57:22.998Z</time></trkpt><trkpt lat="40.3212222" lon="9.4368497"><ele>216.0</ele><time>2026-04-12T10:57:23.997Z</time></trkpt><trkpt lat="40.3213614" lon="9.4370884"><ele>216.0</ele><time>2026-04-12T10:57:24.996Z</time></trkpt><trkpt lat="40.3214895" lon="9.4373143"><ele>216.0</ele><time>2026-04-12T10:57:25.997Z</time></trkpt><trkpt lat="40.3216385" lon="9.4375476"><ele>217.0</ele><time>2026-04-12T10:57:26.998Z</time></trkpt><trkpt lat="40.3218191" lon="9.4377633"><ele>218.0</ele><time>2026-04-12T10:57:27.998Z</time></trkpt><trkpt lat="40.322024" lon="9.4379759"><ele>218.0</ele><time>2026-04-12T10:57:28.998Z</time></trkpt><trkpt lat="40.3222244" lon="9.4382134"><ele>218.0</ele><time>2026-04-12T10:57:29.997Z</time></trkpt><trkpt lat="40.3224003" lon="9.4384728"><ele>219.66666666666669</ele><time>2026-04-12T10:57:30.998Z</time></trkpt><trkpt lat="40.3225508" lon="9.4387082"><ele>221.33333333333331</ele><time>2026-04-12T10:57:31.999Z</time></trkpt><trkpt lat="40.3226811" lon="9.4389172"><ele>223.0</ele><time>2026-04-12T10:57:32.997Z</time></trkpt><trkpt lat="40.3227972" lon="9.4390994"><ele>223.0</ele><time>2026-04-12T10:57:33.997Z</time></trkpt><trkpt lat="40.3229378" lon="9.4392474"><ele>223.0</ele><time>2026-04-12T10:57:34.998Z</time></trkpt><trkpt lat="40.3231181" lon="9.4393584"><ele>223.0</ele><time>2026-04-12T10:57:35.997Z</time></trkpt><trkpt lat="40.3232921" lon="9.4394571"><ele>223.66666666666666</ele><time>2026-04-12T10:57:36.998Z</time></trkpt><trkpt lat="40.3234589" lon="9.4395753"><ele>224.33333333333331</ele><time>2026-04-12T10:57:37.999Z</time></trkpt><trkpt lat="40.3236166" lon="9.439746"><ele>225.0</ele><time>2026-04-12T10:57:38.999Z</time></trkpt><trkpt lat="40.3237618" lon="9.4399743"><ele>225.0</ele><time>2026-04-12T10:57:39.998Z</time></trkpt><trkpt lat="40.3238815" lon="9.4402022"><ele>225.0</ele><time>2026-04-12T10:57:40.997Z</time></trkpt><trkpt lat="40.3239871" lon="9.4404393"><ele>225.0</ele><time>2026-04-12T10:57:41.998Z</time></trkpt><trkpt lat="40.3240688" lon="9.4407279"><ele>226.5</ele><time>2026-04-12T10:57:42.997Z</time></trkpt><trkpt lat="40.3241276" lon="9.4410506"><ele>228.0</ele><time>2026-04-12T10:57:43.998Z</time></trkpt><trkpt lat="40.3241836" lon="9.4414084"><ele>228.0</ele><time>2026-04-12T10:57:44.998Z</time></trkpt><trkpt lat="40.3242348" lon="9.4417995"><ele>228.0</ele><time>2026-04-12T10:57:45.997Z</time></trkpt><trkpt lat="40.3242719" lon="9.4422214"><ele>229.5</ele><time>2026-04-12T10:57:46.997Z</time></trkpt><trkpt lat="40.3242966" lon="9.4426623"><ele>231.0</ele><time>2026-04-12T10:57:47.998Z</time></trkpt><trkpt lat="40.3243088" lon="9.4431269"><ele>232.5</ele><time>2026-04-12T10:57:48.999Z</time></trkpt><trkpt lat="40.324313" lon="9.4435891"><ele>234.0</ele><time>2026-04-12T10:57:49.998Z</time></trkpt><trkpt lat="40.324317" lon="9.4440173"><ele>235.5</ele><time>2026-04-12T10:57:50.997Z</time></trkpt><trkpt lat="40.3243218" lon="9.4444073"><ele>237.0</ele><time>2026-04-12T10:57:51.997Z</time></trkpt><trkpt lat="40.3243237" lon="9.4447561"><ele>239.5</ele><time>2026-04-12T10:57:52.999Z</time></trkpt><trkpt lat="40.3243281" lon="9.445079"><ele>242.0</ele><time>2026-04-12T10:57:53.998Z</time></trkpt><trkpt lat="40.324333" lon="9.445369"><ele>242.0</ele><time>2026-04-12T10:57:54.997Z</time></trkpt><trkpt lat="40.3243347" lon="9.4456607"><ele>242.0</ele><time>2026-04-12T10:57:55.998Z</time></trkpt><trkpt lat="40.3243152" lon="9.4459694"><ele>240.5</ele><time>2026-04-12T10:57:56.997Z</time></trkpt><trkpt lat="40.3242691" lon="9.4462978"><ele>239.0</ele><time>2026-04-12T10:57:57.999Z</time></trkpt><trkpt lat="40.3241888" lon="9.4466429"><ele>239.0</ele><time>2026-04-12T10:57:58.996Z</time></trkpt><trkpt lat="40.3240988" lon="9.446991"><ele>239.0</ele><time>2026-04-12T10:57:59.997Z</time></trkpt><trkpt lat="40.3240121" lon="9.4473205"><ele>239.0</ele><time>2026-04-12T10:58:00.999Z</time></trkpt><trkpt lat="40.3239254" lon="9.4476357"><ele>239.0</ele><time>2026-04-12T10:58:01.997Z</time></trkpt><trkpt lat="40.3238513" lon="9.4479192"><ele>237.0</ele><time>2026-04-12T10:58:02.997Z</time></trkpt><trkpt lat="40.323789" lon="9.4481706"><ele>235.0</ele><time>2026-04-12T10:58:03.998Z</time></trkpt><trkpt lat="40.3237469" lon="9.4483825"><ele>233.0</ele><time>2026-04-12T10:58:04.998Z</time></trkpt><trkpt lat="40.3237339" lon="9.4485845"><ele>233.66666666666669</ele><time>2026-04-12T10:58:05.996Z</time></trkpt><trkpt lat="40.3237694" lon="9.4488159"><ele>234.33333333333331</ele><time>2026-04-12T10:58:06.998Z</time></trkpt><trkpt lat="40.3238676" lon="9.4490559"><ele>235.0</ele><time>2026-04-12T10:58:07.999Z</time></trkpt><trkpt lat="40.323988" lon="9.4492924"><ele>232.33333333333331</ele><time>2026-04-12T10:58:08.997Z</time></trkpt><trkpt lat="40.324127" lon="9.4495008"><ele>229.66666666666669</ele><time>2026-04-12T10:58:09.996Z</time></trkpt><trkpt lat="40.3242443" lon="9.4496964"><ele>227.0</ele><time>2026-04-12T10:58:10.999Z</time></trkpt><trkpt lat="40.3243492" lon="9.4498848"><ele>227.0</ele><time>2026-04-12T10:58:11.999Z</time></trkpt><trkpt lat="40.3244353" lon="9.4501042"><ele>227.0</ele><time>2026-04-12T10:58:12.998Z</time></trkpt><trkpt lat="40.3244937" lon="9.4503645"><ele>227.0</ele><time>2026-04-12T10:58:13.996Z</time></trkpt><trkpt lat="40.3245278" lon="9.450659"><ele>230.5</ele><time>2026-04-12T10:58:14.998Z</time></trkpt><trkpt lat="40.3245375" lon="9.4509537"><ele>234.0</ele><time>2026-04-12T10:58:15.997Z</time></trkpt><trkpt lat="40.3245312" lon="9.4512681"><ele>231.5</ele><time>2026-04-12T10:58:16.998Z</time></trkpt><trkpt lat="40.3244933" lon="9.4516091"><ele>229.0</ele><time>2026-04-12T10:58:17.999Z</time></trkpt><trkpt lat="40.3244434" lon="9.4519598"><ele>224.5</ele><time>2026-04-12T10:58:18.996Z</time></trkpt><trkpt lat="40.3243849" lon="9.4523668"><ele>220.0</ele><time>2026-04-12T10:58:19.997Z</time></trkpt><trkpt lat="40.3243446" lon="9.4527855"><ele>218.5</ele><time>2026-04-12T10:58:20.998Z</time></trkpt><trkpt lat="40.3243147" lon="9.4531941"><ele>217.0</ele><time>2026-04-12T10:58:21.997Z</time></trkpt><trkpt lat="40.3242893" lon="9.4535789"><ele>216.0</ele><time>2026-04-12T10:58:22.997Z</time></trkpt><trkpt lat="40.3242641" lon="9.4539419"><ele>215.0</ele><time>2026-04-12T10:58:23.996Z</time></trkpt><trkpt lat="40.3242426" lon="9.4542785"><ele>215.0</ele><time>2026-04-12T10:58:24.996Z</time></trkpt><trkpt lat="40.3242274" lon="9.45459"><ele>215.0</ele><time>2026-04-12T10:58:25.997Z</time></trkpt><trkpt lat="40.324212" lon="9.4548743"><ele>212.5</ele><time>2026-04-12T10:58:26.998Z</time></trkpt><trkpt lat="40.3242113" lon="9.4551557"><ele>210.0</ele><time>2026-04-12T10:58:27.997Z</time></trkpt><trkpt lat="40.3093079" lon="9.3823304"><ele>248.66666666666669</ele><time>2026-04-12T10:54:27.998Z</time></trkpt><trkpt lat="40.3093752" lon="9.3825453"><ele>287.33333333333337</ele><time>2026-04-12T10:54:28.998Z</time></trkpt><trkpt lat="40.3094655" lon="9.3827548"><ele>326.0</ele><time>2026-04-12T10:54:29.997Z</time></trkpt><trkpt lat="40.3095775" lon="9.3829281"><ele>326.6666666666667</ele><time>2026-04-12T10:54:30.998Z</time></trkpt><trkpt lat="40.3096835" lon="9.3830759"><ele>327.3333333333333</ele><time>2026-04-12T10:54:31.997Z</time></trkpt><trkpt lat="40.3097663" lon="9.3832526"><ele>328.0</ele><time>2026-04-12T10:54:32.998Z</time></trkpt><trkpt lat="40.309824" lon="9.3834888"><ele>328.0</ele><time>2026-04-12T10:54:33.998Z</time></trkpt><trkpt lat="40.309865" lon="9.3837699"><ele>328.0</ele><time>2026-04-12T10:54:34.999Z</time></trkpt><trkpt lat="40.3099099" lon="9.3840655"><ele>328.0</ele><time>2026-04-12T10:54:35.997Z</time></trkpt><trkpt lat="40.3099514" lon="9.3843301"><ele>326.0</ele><time>2026-04-12T10:54:36.998Z</time></trkpt><trkpt lat="40.3100133" lon="9.384568"><ele>324.0</ele><time>2026-04-12T10:54:37.997Z</time></trkpt><trkpt lat="40.3100788" lon="9.3847756"><ele>322.0</ele><time>2026-04-12T10:54:38.998Z</time></trkpt><trkpt lat="40.3101694" lon="9.3849429"><ele>319.3333333333333</ele><time>2026-04-12T10:54:39.997Z</time></trkpt><trkpt lat="40.3102613" lon="9.3851178"><ele>316.6666666666667</ele><time>2026-04-12T10:54:40.997Z</time></trkpt><trkpt lat="40.3103176" lon="9.385332"><ele>314.0</ele><time>2026-04-12T10:54:41.998Z</time></trkpt><trkpt lat="40.3103508" lon="9.3856017"><ele>311.0</ele><time>2026-04-12T10:54:42.998Z</time></trkpt><trkpt lat="40.310352" lon="9.3859162"><ele>308.0</ele><time>2026-04-12T10:54:43.999Z</time></trkpt><trkpt lat="40.3103402" lon="9.3862598"><ele>307.0</ele><time>2026-04-12T10:54:44.997Z</time></trkpt><trkpt lat="40.3103284" lon="9.386586"><ele>306.0</ele><time>2026-04-12T10:54:45.998Z</time></trkpt><trkpt lat="40.3103135" lon="9.3868895"><ele>305.3333333333333</ele><time>2026-04-12T10:54:46.999Z</time></trkpt><trkpt lat="40.3102988" lon="9.3871837"><ele>304.66666666666663</ele><time>2026-04-12T10:54:47.997Z</time></trkpt><trkpt lat="40.3102818" lon="9.3874641"><ele>304.0</ele><time>2026-04-12T10:54:48.997Z</time></trkpt><trkpt lat="40.3102621" lon="9.3877456"><ele>302.0</ele><time>2026-04-12T10:54:49.997Z</time></trkpt><trkpt lat="40.3102247" lon="9.3880403"><ele>300.0</ele><time>2026-04-12T10:54:50.997Z</time></trkpt><trkpt lat="40.3101629" lon="9.3883575"><ele>300.0</ele><time>2026-04-12T10:54:51.999Z</time></trkpt><trkpt lat="40.3100804" lon="9.3886668"><ele>300.0</ele><time>2026-04-12T10:54:52.999Z</time></trkpt><trkpt lat="40.3099875" lon="9.3889541"><ele>301.3333333333333</ele><time>2026-04-12T10:54:53.999Z</time></trkpt><trkpt lat="40.3099007" lon="9.3892173"><ele>302.66666666666663</ele><time>2026-04-12T10:54:54.997Z</time></trkpt><trkpt lat="40.3098217" lon="9.3894539"><ele>304.0</ele><time>2026-04-12T10:54:55.998Z</time></trkpt><trkpt lat="40.3097596" lon="9.3896982"><ele>300.66666666666663</ele><time>2026-04-12T10:54:56.998Z</time></trkpt><trkpt lat="40.3097193" lon="9.3899698"><ele>297.3333333333333</ele><time>2026-04-12T10:54:57.997Z</time></trkpt><trkpt lat="40.3097074" lon="9.3902454"><ele>294.0</ele><time>2026-04-12T10:54:58.998Z</time></trkpt><trkpt lat="40.3097305" lon="9.3905286"><ele>297.3333333333333</ele><time>2026-04-12T10:54:59.998Z</time></trkpt><trkpt lat="40.3097847" lon="9.3907807"><ele>300.66666666666663</ele><time>2026-04-12T10:55:00.998Z</time></trkpt><trkpt lat="40.3098386" lon="9.3910223"><ele>304.0</ele><time>2026-04-12T10:55:01.998Z</time></trkpt><trkpt lat="40.3098809" lon="9.3912565"><ele>301.3333333333333</ele><time>2026-04-12T10:55:02.998Z</time></trkpt><trkpt lat="40.3098982" lon="9.3915023"><ele>298.6666666666667</ele><time>2026-04-12T10:55:03.998Z</time></trkpt><trkpt lat="40.3098791" lon="9.3917688"><ele>296.0</ele><time>2026-04-12T10:55:04.998Z</time></trkpt><trkpt lat="40.3098129" lon="9.3920287"><ele>291.33333333333337</ele><time>2026-04-12T10:55:05.998Z</time></trkpt><trkpt lat="40.3097036" lon="9.3922728"><ele>286.6666666666667</ele><time>2026-04-12T10:55:06.996Z</time></trkpt><trkpt lat="40.3095781" lon="9.3924808"><ele>282.0</ele><time>2026-04-12T10:55:07.997Z</time></trkpt><trkpt lat="40.309435" lon="9.3926385"><ele>282.0</ele><time>2026-04-12T10:55:08.998Z</time></trkpt><trkpt lat="40.3092928" lon="9.3927749"><ele>282.0</ele><time>2026-04-12T10:55:09.997Z</time></trkpt><trkpt lat="40.3091691" lon="9.3929001"><ele>282.0</ele><time>2026-04-12T10:55:10.998Z</time></trkpt><trkpt lat="40.3090649" lon="9.3930306"><ele>284.6666666666667</ele><time>2026-04-12T10:55:11.996Z</time></trkpt><trkpt lat="40.3089911" lon="9.3931732"><ele>287.33333333333337</ele><time>2026-04-12T10:55:12.997Z</time></trkpt><trkpt lat="40.3089517" lon="9.3933644"><ele>290.0</ele><time>2026-04-12T10:55:13.997Z</time></trkpt><trkpt lat="40.3089542" lon="9.3936043"><ele>289.0</ele><time>2026-04-12T10:55:14.997Z</time></trkpt><trkpt lat="40.3089761" lon="9.3938627"><ele>288.0</ele><time>2026-04-12T10:55:15.997Z</time></trkpt><trkpt lat="40.3090487" lon="9.3941227"><ele>287.0</ele><time>2026-04-12T10:55:16.998Z</time></trkpt><trkpt lat="40.3091102" lon="9.3943692"><ele>287.0</ele><time>2026-04-12T10:55:17.998Z</time></trkpt><trkpt lat="40.3091734" lon="9.3946013"><ele>287.0</ele><time>2026-04-12T10:55:18.998Z</time></trkpt><trkpt lat="40.3092307" lon="9.3948227"><ele>287.0</ele><time>2026-04-12T10:55:19.998Z</time></trkpt><trkpt lat="40.3092939" lon="9.3950247"><ele>283.0</ele><time>2026-04-12T10:55:20.998Z</time></trkpt><trkpt lat="40.3093726" lon="9.3952112"><ele>279.0</ele><time>2026-04-12T10:55:21.997Z</time></trkpt><trkpt lat="40.3094746" lon="9.3953689"><ele>275.0</ele><time>2026-04-12T10:55:22.999Z</time></trkpt><trkpt lat="40.3096013" lon="9.3955085"><ele>275.0</ele><time>2026-04-12T10:55:23.998Z</time></trkpt><trkpt lat="40.309733" lon="9.3956325"><ele>275.0</ele><time>2026-04-12T10:55:24.998Z</time></trkpt><trkpt lat="40.3098445" lon="9.3957454"><ele>275.0</ele><time>2026-04-12T10:55:25.998Z</time></trkpt><trkpt lat="40.3099261" lon="9.3958594"><ele>275.0</ele><time>2026-04-12T10:55:26.998Z</time></trkpt><trkpt lat="40.3099699" lon="9.3960161"><ele>275.0</ele><time>2026-04-12T10:55:27.997Z</time></trkpt><trkpt lat="40.3099613" lon="9.3962219"><ele>275.0</ele><time>2026-04-12T10:55:28.997Z</time></trkpt><trkpt lat="40.3099077" lon="9.3964699"><ele>275.0</ele><time>2026-04-12T10:55:29.999Z</time></trkpt><trkpt lat="40.3098589" lon="9.3967068"><ele>272.33333333333337</ele><time>2026-04-12T10:55:30.998Z</time></trkpt><trkpt lat="40.3098124" lon="9.3969303"><ele>269.6666666666667</ele><time>2026-04-12T10:55:31.997Z</time></trkpt><trkpt lat="40.3097826" lon="9.3971289"><ele>267.0</ele><time>2026-04-12T10:55:32.999Z</time></trkpt><trkpt lat="40.3097778" lon="9.3973326"><ele>264.6666666666667</ele><time>2026-04-12T10:55:33.998Z</time></trkpt><trkpt lat="40.3098158" lon="9.3975433"><ele>262.33333333333337</ele><time>2026-04-12T10:55:34.997Z</time></trkpt><trkpt lat="40.3099081" lon="9.3977886"><ele>260.0</ele><time>2026-04-12T10:55:35.997Z</time></trkpt><trkpt lat="40.3100346" lon="9.3980593"><ele>258.0</ele><time>2026-04-12T10:55:36.998Z</time></trkpt><trkpt lat="40.3101892" lon="9.3983648"><ele>256.0</ele><time>2026-04-12T10:55:37.999Z</time></trkpt><trkpt lat="40.3103577" lon="9.3986991"><ele>255.5</ele><time>2026-04-12T10:55:38.999Z</time></trkpt><trkpt lat="40.310524" lon="9.3990244"><ele>255.0</ele><time>2026-04-12T10:55:39.997Z</time></trkpt><trkpt lat="40.3106893" lon="9.3993619"><ele>254.0</ele><time>2026-04-12T10:55:40.998Z</time></trkpt><trkpt lat="40.3108727" lon="9.3997246"><ele>253.0</ele><time>2026-04-12T10:55:41.996Z</time></trkpt><trkpt lat="40.3110539" lon="9.4000789"><ele>253.0</ele><time>2026-04-12T10:55:42.997Z</time></trkpt><trkpt lat="40.3112429" lon="9.4004488"><ele>253.0</ele><time>2026-04-12T10:55:43.999Z</time></trkpt><trkpt lat="40.3114461" lon="9.4008286"><ele>254.0</ele><time>2026-04-12T10:55:44.997Z</time></trkpt><trkpt lat="40.311653" lon="9.4012187"><ele>255.0</ele><time>2026-04-12T10:55:45.997Z</time></trkpt><trkpt lat="40.311862" lon="9.40164"><ele>251.0</ele><time>2026-04-12T10:55:46.998Z</time></trkpt><trkpt lat="40.312079" lon="9.4020913"><ele>247.0</ele><time>2026-04-12T10:55:47.997Z</time></trkpt><trkpt lat="40.3123002" lon="9.4025512"><ele>244.5</ele><time>2026-04-12T10:55:48.996Z</time></trkpt><trkpt lat="40.3125323" lon="9.4030205"><ele>242.0</ele><time>2026-04-12T10:55:49.999Z</time></trkpt><trkpt lat="40.312774" lon="9.4034967"><ele>241.0</ele><time>2026-04-12T10:55:50.996Z</time></trkpt><trkpt lat="40.3130195" lon="9.4039763"><ele>240.0</ele><time>2026-04-12T10:55:51.999Z</time></trkpt><trkpt lat="40.313269" lon="9.4044635"><ele>237.0</ele><time>2026-04-12T10:55:52.998Z</time></trkpt><trkpt lat="40.3135215" lon="9.4049619"><ele>237.0</ele><time>2026-04-12T10:55:53.998Z</time></trkpt><trkpt lat="40.3137553" lon="9.4054329"><ele>237.0</ele><time>2026-04-12T10:55:54.998Z</time></trkpt><trkpt lat="40.3139772" lon="9.4058788"><ele>237.0</ele><time>2026-04-12T10:55:55.999Z</time></trkpt><trkpt lat="40.3141839" lon="9.4062891"><ele>237.0</ele><time>2026-04-12T10:55:56.999Z</time></trkpt><trkpt lat="40.3143957" lon="9.4067018"><ele>237.0</ele><time>2026-04-12T10:55:57.998Z</time></trkpt><trkpt lat="40.3146041" lon="9.407115"><ele>237.0</ele><time>2026-04-12T10:55:58.997Z</time></trkpt><trkpt lat="40.3148019" lon="9.4075068"><ele>237.0</ele><time>2026-04-12T10:55:59.997Z</time></trkpt><trkpt lat="40.3149822" lon="9.4078581"><ele>237.0</ele><time>2026-04-12T10:56:00.996Z</time></trkpt><trkpt lat="40.3151408" lon="9.4081708"><ele>235.0</ele><time>2026-04-12T10:56:01.996Z</time></trkpt><trkpt lat="40.3152769" lon="9.4084391"><ele>233.0</ele><time>2026-04-12T10:56:02.997Z</time></trkpt><trkpt lat="40.3154" lon="9.4086772"><ele>234.0</ele><time>2026-04-12T10:56:03.997Z</time></trkpt><trkpt lat="40.3155103" lon="9.4088925"><ele>235.0</ele><time>2026-04-12T10:56:04.997Z</time></trkpt><trkpt lat="40.315607" lon="9.4090922"><ele>236.0</ele><time>2026-04-12T10:56:05.997Z</time></trkpt><trkpt lat="40.3157126" lon="9.4092996"><ele>236.0</ele><time>2026-04-12T10:56:06.999Z</time></trkpt><trkpt lat="40.3158108" lon="9.4095617"><ele>236.0</ele><time>2026-04-12T10:56:07.997Z</time></trkpt><trkpt lat="40.3158944" lon="9.4098817"><ele>236.0</ele><time>2026-04-12T10:56:08.999Z</time></trkpt><trkpt lat="40.3159685" lon="9.4102583"><ele>236.0</ele><time>2026-04-12T10:56:09.999Z</time></trkpt><trkpt lat="40.3160443" lon="9.4106713"><ele>235.0</ele><time>2026-04-12T10:56:10.998Z</time></trkpt><trkpt lat="40.3161221" lon="9.411112"><ele>234.0</ele><time>2026-04-12T10:56:11.997Z</time></trkpt><trkpt lat="40.316194" lon="9.4115207"><ele>233.0</ele><time>2026-04-12T10:56:12.998Z</time></trkpt><trkpt lat="40.3162612" lon="9.4119077"><ele>232.0</ele><time>2026-04-12T10:56:13.998Z</time></trkpt><trkpt lat="40.3163244" lon="9.4122899"><ele>232.0</ele><time>2026-04-12T10:56:14.998Z</time></trkpt><trkpt lat="40.3163856" lon="9.4126544"><ele>232.0</ele><time>2026-04-12T10:56:15.998Z</time></trkpt><trkpt lat="40.3164445" lon="9.413004"><ele>229.0</ele><time>2026-04-12T10:56:16.998Z</time></trkpt><trkpt lat="40.3164999" lon="9.4133263"><ele>226.0</ele><time>2026-04-12T10:56:17.998Z</time></trkpt><trkpt lat="40.3165521" lon="9.4136311"><ele>224.66666666666666</ele><time>2026-04-12T10:56:18.998Z</time></trkpt><trkpt lat="40.3166003" lon="9.4139189"><ele>223.33333333333331</ele><time>2026-04-12T10:56:19.999Z</time></trkpt><trkpt lat="40.3166492" lon="9.414199"><ele>222.0</ele><time>2026-04-12T10:56:20.998Z</time></trkpt><trkpt lat="40.3166968" lon="9.4145153"><ele>219.5</ele><time>2026-04-12T10:56:21.998Z</time></trkpt><trkpt lat="40.3167335" lon="9.4148758"><ele>217.0</ele><time>2026-04-12T10:56:22.998Z</time></trkpt><trkpt lat="40.3167422" lon="9.4152801"><ele>214.0</ele><time>2026-04-12T10:56:23.999Z</time></trkpt><trkpt lat="40.3167284" lon="9.4157152"><ele>211.0</ele><time>2026-04-12T10:56:24.998Z</time></trkpt><trkpt lat="40.3167069" lon="9.4161775"><ele>210.5</ele><time>2026-04-12T10:56:25.998Z</time></trkpt><trkpt lat="40.3166736" lon="9.4166597"><ele>210.0</ele><time>2026-04-12T10:56:26.999Z</time></trkpt><trkpt lat="40.3166434" lon="9.4171782"><ele>210.0</ele><time>2026-04-12T10:56:27.998Z</time></trkpt><trkpt lat="40.316608" lon="9.417708"><ele>210.0</ele><time>2026-04-12T10:56:28.997Z</time></trkpt><trkpt lat="40.3165719" lon="9.4182529"><ele>209.0</ele><time>2026-04-12T10:56:29.998Z</time></trkpt><trkpt lat="40.316534" lon="9.4188143"><ele>208.0</ele><time>2026-04-12T10:56:30.996Z</time></trkpt><trkpt lat="40.316494" lon="9.4193753"><ele>207.0</ele><time>2026-04-12T10:56:31.997Z</time></trkpt><trkpt lat="40.316455" lon="9.4199457"><ele>206.0</ele><time>2026-04-12T10:56:32.997Z</time></trkpt><trkpt lat="40.3164184" lon="9.4205257"><ele>206.0</ele><time>2026-04-12T10:56:33.998Z</time></trkpt><trkpt lat="40.3163838" lon="9.4210727"><ele>206.0</ele><time>2026-04-12T10:56:34.998Z</time></trkpt><trkpt lat="40.3163458" lon="9.42159"><ele>203.0</ele><time>2026-04-12T10:56:35.997Z</time></trkpt><trkpt lat="40.3163131" lon="9.4220785"><ele>200.0</ele><time>2026-04-12T10:56:36.998Z</time></trkpt><trkpt lat="40.3162837" lon="9.4225286"><ele>199.0</ele><time>2026-04-12T10:56:37.998Z</time></trkpt><trkpt lat="40.3162562" lon="9.422953"><ele>198.0</ele><time>2026-04-12T10:56:38.999Z</time></trkpt><trkpt lat="40.3162279" lon="9.4233465"><ele>198.0</ele><time>2026-04-12T10:56:39.997Z</time></trkpt><trkpt lat="40.3162045" lon="9.4237128"><ele>198.0</ele><time>2026-04-12T10:56:40.997Z</time></trkpt><trkpt lat="40.3161809" lon="9.4240519"><ele>198.0</ele><time>2026-04-12T10:56:41.998Z</time></trkpt><trkpt lat="40.3161604" lon="9.4243788"><ele>198.0</ele><time>2026-04-12T10:56:42.997Z</time></trkpt><trkpt lat="40.3161404" lon="9.424693"><ele>199.0</ele><time>2026-04-12T10:56:43.998Z</time></trkpt><trkpt lat="40.3161224" lon="9.4249847"><ele>200.0</ele><time>2026-04-12T10:56:44.998Z</time></trkpt><trkpt lat="40.3161063" lon="9.4252428"><ele>201.0</ele><time>2026-04-12T10:56:45.998Z</time></trkpt><trkpt lat="40.3160987" lon="9.4254777"><ele>201.0</ele><time>2026-04-12T10:56:46.998Z</time></trkpt><trkpt lat="40.3161192" lon="9.4257411"><ele>201.0</ele><time>2026-04-12T10:56:47.996Z</time></trkpt><trkpt lat="40.3161805" lon="9.4260268"><ele>201.0</ele><time>2026-04-12T10:56:48.998Z</time></trkpt><trkpt lat="40.316289" lon="9.4263383"><ele>203.5</ele><time>2026-04-12T10:56:49.997Z</time></trkpt><trkpt lat="40.3164208" lon="9.426648"><ele>206.0</ele><time>2026-04-12T10:56:50.997Z</time></trkpt><trkpt lat="40.3165721" lon="9.4269264"><ele>205.33333333333334</ele><time>2026-04-12T10:56:51.998Z</time></trkpt><trkpt lat="40.3167022" lon="9.4271824"><ele>204.66666666666669</ele><time>2026-04-12T10:56:52.997Z</time></trkpt><trkpt lat="40.3168142" lon="9.4274099"><ele>204.0</ele><time>2026-04-12T10:56:53.997Z</time></trkpt><trkpt lat="40.3169189" lon="9.4276501"><ele>204.0</ele><time>2026-04-12T10:56:54.997Z</time></trkpt><trkpt lat="40.3169844" lon="9.4279171"><ele>204.0</ele><time>2026-04-12T10:56:55.998Z</time></trkpt><trkpt lat="40.3170299" lon="9.4281731"><ele>204.0</ele><time>2026-04-12T10:56:56.996Z</time></trkpt><trkpt lat="40.3170912" lon="9.4284411"><ele>203.5</ele><time>2026-04-12T10:56:57.996Z</time></trkpt><trkpt lat="40.3172184" lon="9.4287346"><ele>203.0</ele><time>2026-04-12T10:56:58.997Z</time></trkpt><trkpt lat="40.3173566" lon="9.4290174"><ele>206.5</ele><time>2026-04-12T10:56:59.997Z</time></trkpt><trkpt lat="40.3175396" lon="9.4293069"><ele>210.0</ele><time>2026-04-12T10:57:00.998Z</time></trkpt><trkpt lat="40.3177093" lon="9.4295821"><ele>207.5</ele><time>2026-04-12T10:57:01.998Z</time></trkpt><trkpt lat="40.3178556" lon="9.4298412"><ele>205.0</ele><time>2026-04-12T10:57:02.997Z</time></trkpt><trkpt lat="40.3179997" lon="9.4300984"><ele>209.0</ele><time>2026-04-12T10:57:03.998Z</time></trkpt><trkpt lat="40.3181213" lon="9.4303855"><ele>213.0</ele><time>2026-04-12T10:57:04.998Z</time></trkpt><trkpt lat="40.3182182" lon="9.430729"><ele>213.0</ele><time>2026-04-12T10:57:05.997Z</time></trkpt><trkpt lat="40.3183228" lon="9.4310981"><ele>213.0</ele><time>2026-04-12T10:57:06.998Z</time></trkpt><trkpt lat="40.3184178" lon="9.4314489"><ele>210.5</ele><time>2026-04-12T10:57:07.997Z</time></trkpt><trkpt lat="40.3185009" lon="9.431773"><ele>208.0</ele><time>2026-04-12T10:57:08.997Z</time></trkpt><trkpt lat="40.3185885" lon="9.4320779"><ele>207.0</ele><time>2026-04-12T10:57:09.998Z</time></trkpt><trkpt lat="40.3186867" lon="9.432385"><ele>206.0</ele><time>2026-04-12T10:57:10.998Z</time></trkpt><trkpt lat="40.3188291" lon="9.4326957"><ele>209.5</ele><time>2026-04-12T10:57:11.998Z</time></trkpt><trkpt lat="40.319002" lon="9.4330175"><ele>213.0</ele><time>2026-04-12T10:57:12.998Z</time></trkpt><trkpt lat="40.3191962" lon="9.4333566"><ele>213.0</ele><time>2026-04-12T10:57:13.998Z</time></trkpt><trkpt lat="40.3194033" lon="9.4337093"><ele>213.0</ele><time>2026-04-12T10:57:14.998Z</time></trkpt><trkpt lat="40.3196221" lon="9.4340864"><ele>213.5</ele><time>2026-04-12T10:57:15.996Z</time></trkpt><trkpt lat="40.319851" lon="9.4344793"><ele>214.0</ele><time>2026-04-12T10:57:16.999Z</time></trkpt><trkpt lat="40.3200821" lon="9.4348744"><ele>214.0</ele><time>2026-04-12T10:57:17.997Z</time></trkpt><trkpt lat="40.3203138" lon="9.4352739"><ele>214.0</ele><time>2026-04-12T10:57:18.996Z</time></trkpt><trkpt lat="40.3205268" lon="9.4356413"><ele>215.0</ele><time>2026-04-12T10:57:19.996Z</time></trkpt><trkpt lat="40.3207236" lon="9.4359864"><ele>216.0</ele><time>2026-04-12T10:57:20.997Z</time></trkpt><trkpt lat="40.3209065" lon="9.4363071"><ele>216.0</ele><time>2026-04-12T10:57:21.997Z</time></trkpt><trkpt lat="40.321071" lon="9.4365891"><ele>216.0</ele><time>2026-04-12T10:57:22.998Z</time></trkpt><trkpt lat="40.3212222" lon="9.4368497"><ele>216.0</ele><time>2026-04-12T10:57:23.997Z</time></trkpt><trkpt lat="40.3213614" lon="9.4370884"><ele>216.0</ele><time>2026-04-12T10:57:24.996Z</time></trkpt><trkpt lat="40.3214895" lon="9.4373143"><ele>216.0</ele><time>2026-04-12T10:57:25.997Z</time></trkpt><trkpt lat="40.3216385" lon="9.4375476"><ele>217.0</ele><time>2026-04-12T10:57:26.998Z</time></trkpt><trkpt lat="40.3218191" lon="9.4377633"><ele>218.0</ele><time>2026-04-12T10:57:27.998Z</time></trkpt><trkpt lat="40.322024" lon="9.4379759"><ele>218.0</ele><time>2026-04-12T10:57:28.998Z</time></trkpt><trkpt lat="40.3222244" lon="9.4382134"><ele>218.0</ele><time>2026-04-12T10:57:29.997Z</time></trkpt><trkpt lat="40.3224003" lon="9.4384728"><ele>219.66666666666669</ele><time>2026-04-12T10:57:30.998Z</time></trkpt><trkpt lat="40.3225508" lon="9.4387082"><ele>221.33333333333331</ele><time>2026-04-12T10:57:31.999Z</time></trkpt><trkpt lat="40.3226811" lon="9.4389172"><ele>223.0</ele><time>2026-04-12T10:57:32.997Z</time></trkpt><trkpt lat="40.3227972" lon="9.4390994"><ele>223.0</ele><time>2026-04-12T10:57:33.997Z</time></trkpt><trkpt lat="40.3229378" lon="9.4392474"><ele>223.0</ele><time>2026-04-12T10:57:34.998Z</time></trkpt><trkpt lat="40.3231181" lon="9.4393584"><ele>223.0</ele><time>2026-04-12T10:57:35.997Z</time></trkpt><trkpt lat="40.3232921" lon="9.4394571"><ele>223.66666666666666</ele><time>2026-04-12T10:57:36.998Z</time></trkpt><trkpt lat="40.3234589" lon="9.4395753"><ele>224.33333333333331</ele><time>2026-04-12T10:57:37.999Z</time></trkpt><trkpt lat="40.3236166" lon="9.439746"><ele>225.0</ele><time>2026-04-12T10:57:38.999Z</time></trkpt><trkpt lat="40.3237618" lon="9.4399743"><ele>225.0</ele><time>2026-04-12T10:57:39.998Z</time></trkpt><trkpt lat="40.3238815" lon="9.4402022"><ele>225.0</ele><time>2026-04-12T10:57:40.997Z</time></trkpt><trkpt lat="40.3239871" lon="9.4404393"><ele>225.0</ele><time>2026-04-12T10:57:41.998Z</time></trkpt><trkpt lat="40.3240688" lon="9.4407279"><ele>226.5</ele><time>2026-04-12T10:57:42.997Z</time></trkpt><trkpt lat="40.3241276" lon="9.4410506"><ele>228.0</ele><time>2026-04-12T10:57:43.998Z</time></trkpt><trkpt lat="40.3241836" lon="9.4414084"><ele>228.0</ele><time>2026-04-12T10:57:44.998Z</time></trkpt><trkpt lat="40.3242348" lon="9.4417995"><ele>228.0</ele><time>2026-04-12T10:57:45.997Z</time></trkpt><trkpt lat="40.3242719" lon="9.4422214"><ele>229.5</ele><time>2026-04-12T10:57:46.997Z</time></trkpt><trkpt lat="40.3242966" lon="9.4426623"><ele>231.0</ele><time>2026-04-12T10:57:47.998Z</time></trkpt><trkpt lat="40.3243088" lon="9.4431269"><ele>232.5</ele><time>2026-04-12T10:57:48.999Z</time></trkpt><trkpt lat="40.324313" lon="9.4435891"><ele>234.0</ele><time>2026-04-12T10:57:49.998Z</time></trkpt><trkpt lat="40.324317" lon="9.4440173"><ele>235.5</ele><time>2026-04-12T10:57:50.997Z</time></trkpt><trkpt lat="40.3243218" lon="9.4444073"><ele>237.0</ele><time>2026-04-12T10:57:51.997Z</time></trkpt><trkpt lat="40.3243237" lon="9.4447561"><ele>239.5</ele><time>2026-04-12T10:57:52.999Z</time></trkpt><trkpt lat="40.3243281" lon="9.445079"><ele>242.0</ele><time>2026-04-12T10:57:53.998Z</time></trkpt><trkpt lat="40.324333" lon="9.445369"><ele>242.0</ele><time>2026-04-12T10:57:54.997Z</time></trkpt><trkpt lat="40.3243347" lon="9.4456607"><ele>242.0</ele><time>2026-04-12T10:57:55.998Z</time></trkpt><trkpt lat="40.3243152" lon="9.4459694"><ele>240.5</ele><time>2026-04-12T10:57:56.997Z</time></trkpt><trkpt lat="40.3242691" lon="9.4462978"><ele>239.0</ele><time>2026-04-12T10:57:57.999Z</time></trkpt><trkpt lat="40.3241888" lon="9.4466429"><ele>239.0</ele><time>2026-04-12T10:57:58.996Z</time></trkpt><trkpt lat="40.3240988" lon="9.446991"><ele>239.0</ele><time>2026-04-12T10:57:59.997Z</time></trkpt><trkpt lat="40.3240121" lon="9.4473205"><ele>239.0</ele><time>2026-04-12T10:58:00.999Z</time></trkpt><trkpt lat="40.3239254" lon="9.4476357"><ele>239.0</ele><time>2026-04-12T10:58:01.997Z</time></trkpt><trkpt lat="40.3238513" lon="9.4479192"><ele>237.0</ele><time>2026-04-12T10:58:02.997Z</time></trkpt><trkpt lat="40.323789" lon="9.4481706"><ele>235.0</ele><time>2026-04-12T10:58:03.998Z</time></trkpt><trkpt lat="40.3237469" lon="9.4483825"><ele>233.0</ele><time>2026-04-12T10:58:04.998Z</time></trkpt><trkpt lat="40.3237339" lon="9.4485845"><ele>233.66666666666669</ele><time>2026-04-12T10:58:05.996Z</time></trkpt><trkpt lat="40.3237694" lon="9.4488159"><ele>234.33333333333331</ele><time>2026-04-12T10:58:06.998Z</time></trkpt><trkpt lat="40.3238676" lon="9.4490559"><ele>235.0</ele><time>2026-04-12T10:58:07.999Z</time></trkpt><trkpt lat="40.323988" lon="9.4492924"><ele>232.33333333333331</ele><time>2026-04-12T10:58:08.997Z</time></trkpt><trkpt lat="40.324127" lon="9.4495008"><ele>229.66666666666669</ele><time>2026-04-12T10:58:09.996Z</time></trkpt><trkpt lat="40.3242443" lon="9.4496964"><ele>227.0</ele><time>2026-04-12T10:58:10.999Z</time></trkpt><trkpt lat="40.3243492" lon="9.4498848"><ele>227.0</ele><time>2026-04-12T10:58:11.999Z</time></trkpt><trkpt lat="40.3244353" lon="9.4501042"><ele>227.0</ele><time>2026-04-12T10:58:12.998Z</time></trkpt><trkpt lat="40.3244937" lon="9.4503645"><ele>227.0</ele><time>2026-04-12T10:58:13.996Z</time></trkpt><trkpt lat="40.3245278" lon="9.450659"><ele>230.5</ele><time>2026-04-12T10:58:14.998Z</time></trkpt><trkpt lat="40.3245375" lon="9.4509537"><ele>234.0</ele><time>2026-04-12T10:58:15.997Z</time></trkpt><trkpt lat="40.3245312" lon="9.4512681"><ele>231.5</ele><time>2026-04-12T10:58:16.998Z</time></trkpt><trkpt lat="40.3244933" lon="9.4516091"><ele>229.0</ele><time>2026-04-12T10:58:17.999Z</time></trkpt><trkpt lat="40.3244434" lon="9.4519598"><ele>224.5</ele><time>2026-04-12T10:58:18.996Z</time></trkpt><trkpt lat="40.3243849" lon="9.4523668"><ele>220.0</ele><time>2026-04-12T10:58:19.997Z</time></trkpt><trkpt lat="40.3243446" lon="9.4527855"><ele>218.5</ele><time>2026-04-12T10:58:20.998Z</time></trkpt><trkpt lat="40.3243147" lon="9.4531941"><ele>217.0</ele><time>2026-04-12T10:58:21.997Z</time></trkpt><trkpt lat="40.3242893" lon="9.4535789"><ele>216.0</ele><time>2026-04-12T10:58:22.997Z</time></trkpt><trkpt lat="40.3242641" lon="9.4539419"><ele>215.0</ele><time>2026-04-12T10:58:23.996Z</time></trkpt><trkpt lat="40.3242426" lon="9.4542785"><ele>215.0</ele><time>2026-04-12T10:58:24.996Z</time></trkpt><trkpt lat="40.3242274" lon="9.45459"><ele>215.0</ele><time>2026-04-12T10:58:25.997Z</time></trkpt><trkpt lat="40.324212" lon="9.4548743"><ele>213.33333333333334</ele><time>2026-04-12T10:58:26.998Z</time></trkpt><trkpt lat="40.3242113" lon="9.4551557"><ele>211.66666666666669</ele><time>2026-04-12T10:58:27.997Z</time></trkpt><trkpt lat="40.3242466" lon="9.4554589"><ele>210.0</ele><time>2026-04-12T10:58:28.997Z</time></trkpt><trkpt lat="40.3243283" lon="9.4557699"><ele>207.5</ele><time>2026-04-12T10:58:29.997Z</time></trkpt><trkpt lat="40.3244064" lon="9.4560746"><ele>205.0</ele><time>2026-04-12T10:58:30.997Z</time></trkpt><trkpt lat="40.3244613" lon="9.4563923"><ele>205.0</ele><time>2026-04-12T10:58:31.999Z</time></trkpt><trkpt lat="40.3244819" lon="9.4567389"><ele>205.0</ele><time>2026-04-12T10:58:32.997Z</time></trkpt><trkpt lat="40.3244699" lon="9.4571175"><ele>203.5</ele><time>2026-04-12T10:58:33.998Z</time></trkpt><trkpt lat="40.3244475" lon="9.4575139"><ele>202.0</ele><time>2026-04-12T10:58:34.998Z</time></trkpt><trkpt lat="40.3244213" lon="9.4578903"><ele>203.5</ele><time>2026-04-12T10:58:35.998Z</time></trkpt><trkpt lat="40.3243997" lon="9.4582436"><ele>205.0</ele><time>2026-04-12T10:58:36.999Z</time></trkpt><trkpt lat="40.3243839" lon="9.4586037"><ele>204.5</ele><time>2026-04-12T10:58:37.998Z</time></trkpt><trkpt lat="40.3244067" lon="9.4589761"><ele>204.0</ele><time>2026-04-12T10:58:38.999Z</time></trkpt><trkpt lat="40.3244512" lon="9.4593759"><ele>203.5</ele><time>2026-04-12T10:58:39.998Z</time></trkpt><trkpt lat="40.3245058" lon="9.4597643"><ele>203.0</ele><time>2026-04-12T10:58:40.996Z</time></trkpt><trkpt lat="40.3245601" lon="9.4601312"><ele>204.0</ele><time>2026-04-12T10:58:41.997Z</time></trkpt><trkpt lat="40.3246123" lon="9.4604648"><ele>205.0</ele><time>2026-04-12T10:58:42.997Z</time></trkpt><trkpt lat="40.3246534" lon="9.4607676"><ele>205.0</ele><time>2026-04-12T10:58:43.997Z</time></trkpt><trkpt lat="40.324681" lon="9.4610497"><ele>205.0</ele><time>2026-04-12T10:58:44.997Z</time></trkpt><trkpt lat="40.3246895" lon="9.4613088"><ele>205.0</ele><time>2026-04-12T10:58:45.998Z</time></trkpt><trkpt lat="40.3246909" lon="9.4615579"><ele>204.0</ele><time>2026-04-12T10:58:46.997Z</time></trkpt><trkpt lat="40.3247175" lon="9.4618061"><ele>203.0</ele><time>2026-04-12T10:58:47.998Z</time></trkpt><trkpt lat="40.3248006" lon="9.4620716"><ele>202.0</ele><time>2026-04-12T10:58:48.997Z</time></trkpt><trkpt lat="40.324927" lon="9.4623288"><ele>197.5</ele><time>2026-04-12T10:58:49.997Z</time></trkpt><trkpt lat="40.3250468" lon="9.4626069"><ele>193.0</ele><time>2026-04-12T10:58:50.997Z</time></trkpt><trkpt lat="40.3251487" lon="9.4629348"><ele>194.5</ele><time>2026-04-12T10:58:51.998Z</time></trkpt><trkpt lat="40.3252442" lon="9.4632682"><ele>196.0</ele><time>2026-04-12T10:58:52.999Z</time></trkpt><trkpt lat="40.3253281" lon="9.4635862"><ele>198.0</ele><time>2026-04-12T10:58:53.997Z</time></trkpt><trkpt lat="40.3254079" lon="9.4638854"><ele>200.0</ele><time>2026-04-12T10:58:54.997Z</time></trkpt><trkpt lat="40.3254837" lon="9.4641719"><ele>200.0</ele><time>2026-04-12T10:58:55.997Z</time></trkpt><trkpt lat="40.3255594" lon="9.4644584"><ele>200.0</ele><time>2026-04-12T10:58:56.998Z</time></trkpt><trkpt lat="40.3256296" lon="9.4647439"><ele>194.0</ele><time>2026-04-12T10:58:57.998Z</time></trkpt><trkpt lat="40.3256971" lon="9.4650391"><ele>188.0</ele><time>2026-04-12T10:58:58.998Z</time></trkpt><trkpt lat="40.3257506" lon="9.4653522"><ele>187.0</ele><time>2026-04-12T10:58:59.998Z</time></trkpt><trkpt lat="40.3257947" lon="9.4657059"><ele>186.0</ele><time>2026-04-12T10:59:00.998Z</time></trkpt><trkpt lat="40.32583" lon="9.4660919"><ele>184.5</ele><time>2026-04-12T10:59:01.999Z</time></trkpt><trkpt lat="40.3258436" lon="9.4665089"><ele>183.0</ele><time>2026-04-12T10:59:02.998Z</time></trkpt><trkpt lat="40.3258425" lon="9.4669214"><ele>184.0</ele><time>2026-04-12T10:59:03.997Z</time></trkpt><trkpt lat="40.3258514" lon="9.4673024"><ele>185.0</ele><time>2026-04-12T10:59:04.997Z</time></trkpt><trkpt lat="40.3258684" lon="9.467656"><ele>186.5</ele><time>2026-04-12T10:59:05.997Z</time></trkpt><trkpt lat="40.3258847" lon="9.4679716"><ele>188.0</ele><time>2026-04-12T10:59:06.997Z</time></trkpt><trkpt lat="40.3259248" lon="9.4682738"><ele>188.0</ele><time>2026-04-12T10:59:07.998Z</time></trkpt><trkpt lat="40.3259996" lon="9.4685528"><ele>188.0</ele><time>2026-04-12T10:59:08.997Z</time></trkpt><trkpt lat="40.3260796" lon="9.4687867"><ele>188.0</ele><time>2026-04-12T10:59:09.998Z</time></trkpt><trkpt lat="40.326152" lon="9.4689984"><ele>188.66666666666666</ele><time>2026-04-12T10:59:10.997Z</time></trkpt><trkpt lat="40.3262117" lon="9.4692419"><ele>189.33333333333334</ele><time>2026-04-12T10:59:11.997Z</time></trkpt><trkpt lat="40.326232" lon="9.4695285"><ele>190.0</ele><time>2026-04-12T10:59:12.999Z</time></trkpt><trkpt lat="40.3262388" lon="9.4697948"><ele>190.0</ele><time>2026-04-12T10:59:13.997Z</time></trkpt><trkpt lat="40.326263" lon="9.4700831"><ele>190.0</ele><time>2026-04-12T10:59:14.997Z</time></trkpt><trkpt lat="40.3263198" lon="9.4703484"><ele>190.0</ele><time>2026-04-12T10:59:15.997Z</time></trkpt><trkpt lat="40.3263729" lon="9.4705828"><ele>186.33333333333334</ele><time>2026-04-12T10:59:16.998Z</time></trkpt><trkpt lat="40.3264076" lon="9.4708096"><ele>182.66666666666666</ele><time>2026-04-12T10:59:17.998Z</time></trkpt><trkpt lat="40.3264118" lon="9.4710441"><ele>179.0</ele><time>2026-04-12T10:59:18.999Z</time></trkpt><trkpt lat="40.3264078" lon="9.471263"><ele>178.0</ele><time>2026-04-12T10:59:19.997Z</time></trkpt><trkpt lat="40.3264109" lon="9.4714738"><ele>177.0</ele><time>2026-04-12T10:59:20.998Z</time></trkpt><trkpt lat="40.3264799" lon="9.4716966"><ele>176.0</ele><time>2026-04-12T10:59:21.998Z</time></trkpt><trkpt lat="40.3265694" lon="9.4718919"><ele>176.0</ele><time>2026-04-12T10:59:22.998Z</time></trkpt><trkpt lat="40.3267172" lon="9.4720695"><ele>176.0</ele><time>2026-04-12T10:59:23.997Z</time></trkpt><trkpt lat="40.3269054" lon="9.4722462"><ele>176.0</ele><time>2026-04-12T10:59:24.996Z</time></trkpt><trkpt lat="40.3270892" lon="9.4724085"><ele>176.0</ele><time>2026-04-12T10:59:25.998Z</time></trkpt><trkpt lat="40.3272587" lon="9.4725495"><ele>176.0</ele><time>2026-04-12T10:59:26.997Z</time></trkpt><trkpt lat="40.3274096" lon="9.4726713"><ele>176.0</ele><time>2026-04-12T10:59:27.997Z</time></trkpt><trkpt lat="40.32755" lon="9.4727613"><ele>176.0</ele><time>2026-04-12T10:59:28.998Z</time></trkpt><trkpt lat="40.3277035" lon="9.4728039"><ele>176.0</ele><time>2026-04-12T10:59:29.998Z</time></trkpt><trkpt lat="40.3278603" lon="9.4728175"><ele>176.0</ele><time>2026-04-12T10:59:30.998Z</time></trkpt><trkpt lat="40.3280212" lon="9.4728587"><ele>176.33333333333331</ele><time>2026-04-12T10:59:31.997Z</time></trkpt><trkpt lat="40.3282046" lon="9.4729628"><ele>176.66666666666666</ele><time>2026-04-12T10:59:32.996Z</time></trkpt><trkpt lat="40.3284041" lon="9.4731148"><ele>177.0</ele><time>2026-04-12T10:59:33.998Z</time></trkpt><trkpt lat="40.3285962" lon="9.47327"><ele>177.0</ele><time>2026-04-12T10:59:34.996Z</time></trkpt><trkpt lat="40.3287834" lon="9.4734053"><ele>177.0</ele><time>2026-04-12T10:59:35.998Z</time></trkpt><trkpt lat="40.3289985" lon="9.4735219"><ele>177.0</ele><time>2026-04-12T10:59:36.996Z</time></trkpt><trkpt lat="40.3292317" lon="9.47359"><ele>176.33333333333334</ele><time>2026-04-12T10:59:37.997Z</time></trkpt><trkpt lat="40.3294551" lon="9.4736444"><ele>175.66666666666669</ele><time>2026-04-12T10:59:38.997Z</time></trkpt><trkpt lat="40.3296658" lon="9.4737011"><ele>175.0</ele><time>2026-04-12T10:59:39.998Z</time></trkpt><trkpt lat="40.3298807" lon="9.4737826"><ele>175.0</ele><time>2026-04-12T10:59:40.997Z</time></trkpt><trkpt lat="40.330095" lon="9.47391"><ele>175.0</ele><time>2026-04-12T10:59:41.998Z</time></trkpt><trkpt lat="40.3303122" lon="9.4740932"><ele>175.0</ele><time>2026-04-12T10:59:42.998Z</time></trkpt><trkpt lat="40.3305416" lon="9.4743109"><ele>175.0</ele><time>2026-04-12T10:59:43.998Z</time></trkpt><trkpt lat="40.3307665" lon="9.4745329"><ele>175.5</ele><time>2026-04-12T10:59:44.997Z</time></trkpt><trkpt lat="40.3309761" lon="9.4747513"><ele>176.0</ele><time>2026-04-12T10:59:45.997Z</time></trkpt><trkpt lat="40.3311876" lon="9.4749605"><ele>172.5</ele><time>2026-04-12T10:59:46.999Z</time></trkpt><trkpt lat="40.3314198" lon="9.4751728"><ele>169.0</ele><time>2026-04-12T10:59:47.997Z</time></trkpt><trkpt lat="40.3316783" lon="9.4753732"><ele>172.0</ele><time>2026-04-12T10:59:48.997Z</time></trkpt><trkpt lat="40.3319451" lon="9.4755594"><ele>175.0</ele><time>2026-04-12T10:59:49.999Z</time></trkpt><trkpt lat="40.3322008" lon="9.4757485"><ele>172.0</ele><time>2026-04-12T10:59:50.997Z</time></trkpt><trkpt lat="40.3324633" lon="9.4759673"><ele>169.0</ele><time>2026-04-12T10:59:51.997Z</time></trkpt><trkpt lat="40.3326902" lon="9.4761841"><ele>169.0</ele><time>2026-04-12T10:59:52.998Z</time></trkpt><trkpt lat="40.3328991" lon="9.4763834"><ele>169.0</ele><time>2026-04-12T10:59:53.997Z</time></trkpt><trkpt lat="40.3331094" lon="9.476585"><ele>169.0</ele><time>2026-04-12T10:59:54.998Z</time></trkpt><trkpt lat="40.3333373" lon="9.4767898"><ele>169.0</ele><time>2026-04-12T10:59:55.998Z</time></trkpt><trkpt lat="40.3335926" lon="9.4769939"><ele>169.5</ele><time>2026-04-12T10:59:56.996Z</time></trkpt><trkpt lat="40.3338644" lon="9.477203"><ele>170.0</ele><time>2026-04-12T10:59:57.996Z</time></trkpt><trkpt lat="40.3341515" lon="9.477412"><ele>170.0</ele><time>2026-04-12T10:59:58.997Z</time></trkpt><trkpt lat="40.3344214" lon="9.4775962"><ele>170.0</ele><time>2026-04-12T10:59:59.998Z</time></trkpt><trkpt lat="40.3346799" lon="9.4777511"><ele>171.5</ele><time>2026-04-12T11:00:00.999Z</time></trkpt><trkpt lat="40.3349195" lon="9.4778988"><ele>173.0</ele><time>2026-04-12T11:00:01.997Z</time></trkpt><trkpt lat="40.3351468" lon="9.4780334"><ele>173.0</ele><time>2026-04-12T11:00:02.998Z</time></trkpt><trkpt lat="40.3353529" lon="9.4781743"><ele>173.0</ele><time>2026-04-12T11:00:03.996Z</time></trkpt><trkpt lat="40.3355469" lon="9.4783077"><ele>170.33333333333331</ele><time>2026-04-12T11:00:04.998Z</time></trkpt><trkpt lat="40.3357263" lon="9.4784318"><ele>167.66666666666666</ele><time>2026-04-12T11:00:05.996Z</time></trkpt><trkpt lat="40.3358937" lon="9.4785538"><ele>165.0</ele><time>2026-04-12T11:00:06.996Z</time></trkpt><trkpt lat="40.3360444" lon="9.478684"><ele>164.0</ele><time>2026-04-12T11:00:07.997Z</time></trkpt><trkpt lat="40.3361907" lon="9.4788462"><ele>163.0</ele><time>2026-04-12T11:00:08.997Z</time></trkpt><trkpt lat="40.3363398" lon="9.4790531"><ele>162.0</ele><time>2026-04-12T11:00:09.998Z</time></trkpt><trkpt lat="40.336496" lon="9.4792963"><ele>162.0</ele><time>2026-04-12T11:00:10.999Z</time></trkpt><trkpt lat="40.3366397" lon="9.4795312"><ele>162.0</ele><time>2026-04-12T11:00:11.997Z</time></trkpt><trkpt lat="40.3367687" lon="9.4797451"><ele>162.0</ele><time>2026-04-12T11:00:12.997Z</time></trkpt><trkpt lat="40.3368746" lon="9.4799207"><ele>162.0</ele><time>2026-04-12T11:00:13.998Z</time></trkpt><trkpt lat="40.336971" lon="9.48008"><ele>162.0</ele><time>2026-04-12T11:00:14.998Z</time></trkpt><trkpt lat="40.3370666" lon="9.4802073"><ele>162.0</ele><time>2026-04-12T11:00:15.998Z</time></trkpt><trkpt lat="40.3371769" lon="9.4803011"><ele>162.0</ele><time>2026-04-12T11:00:16.997Z</time></trkpt><trkpt lat="40.3373185" lon="9.480343"><ele>162.0</ele><time>2026-04-12T11:00:17.997Z</time></trkpt><trkpt lat="40.3374756" lon="9.4803181"><ele>162.0</ele><time>2026-04-12T11:00:18.998Z</time></trkpt><trkpt lat="40.3376215" lon="9.4802872"><ele>162.0</ele><time>2026-04-12T11:00:19.998Z</time></trkpt><trkpt lat="40.3377542" lon="9.4802834"><ele>162.0</ele><time>2026-04-12T11:00:20.997Z</time></trkpt><trkpt lat="40.3378782" lon="9.4803248"><ele>162.0</ele><time>2026-04-12T11:00:21.996Z</time></trkpt><trkpt lat="40.3379938" lon="9.4804188"><ele>162.0</ele><time>2026-04-12T11:00:22.997Z</time></trkpt><trkpt lat="40.3381074" lon="9.4805641"><ele>162.0</ele><time>2026-04-12T11:00:23.997Z</time></trkpt><trkpt lat="40.3381967" lon="9.4808177"><ele>163.0</ele><time>2026-04-12T11:00:24.998Z</time></trkpt><trkpt lat="40.3383051" lon="9.481101"><ele>164.0</ele><time>2026-04-12T11:00:25.999Z</time></trkpt><trkpt lat="40.33842" lon="9.4814215"><ele>164.0</ele><time>2026-04-12T11:00:26.997Z</time></trkpt><trkpt lat="40.3385375" lon="9.4817447"><ele>164.0</ele><time>2026-04-12T11:00:27.996Z</time></trkpt><trkpt lat="40.3386448" lon="9.4820463"><ele>163.5</ele><time>2026-04-12T11:00:28.996Z</time></trkpt><trkpt lat="40.338747" lon="9.4823308"><ele>163.0</ele><time>2026-04-12T11:00:29.997Z</time></trkpt><trkpt lat="40.3388418" lon="9.4825908"><ele>163.0</ele><time>2026-04-12T11:00:30.997Z</time></trkpt><trkpt lat="40.3389321" lon="9.4828293"><ele>163.0</ele><time>2026-04-12T11:00:31.997Z</time></trkpt><trkpt lat="40.3390181" lon="9.4830491"><ele>163.0</ele><time>2026-04-12T11:00:32.996Z</time></trkpt><trkpt lat="40.3391" lon="9.4832775"><ele>163.0</ele><time>2026-04-12T11:00:33.997Z</time></trkpt><trkpt lat="40.3391861" lon="9.4835193"><ele>163.0</ele><time>2026-04-12T11:00:34.997Z</time></trkpt><trkpt lat="40.3392647" lon="9.4837448"><ele>163.0</ele><time>2026-04-12T11:00:35.997Z</time></trkpt><trkpt lat="40.339332" lon="9.4839577"><ele>162.66666666666669</ele><time>2026-04-12T11:00:36.998Z</time></trkpt><trkpt lat="40.3393857" lon="9.4842102"><ele>162.33333333333334</ele><time>2026-04-12T11:00:37.998Z</time></trkpt><trkpt lat="40.339418" lon="9.4845146"><ele>162.0</ele><time>2026-04-12T11:00:38.996Z</time></trkpt><trkpt lat="40.339444" lon="9.4848672"><ele>161.5</ele><time>2026-04-12T11:00:39.997Z</time></trkpt><trkpt lat="40.3394581" lon="9.485264"><ele>161.0</ele><time>2026-04-12T11:00:40.996Z</time></trkpt><trkpt lat="40.339472" lon="9.4856984"><ele>159.5</ele><time>2026-04-12T11:00:41.996Z</time></trkpt><trkpt lat="40.3394906" lon="9.4861589"><ele>158.0</ele><time>2026-04-12T11:00:42.998Z</time></trkpt><trkpt lat="40.3395065" lon="9.4866491"><ele>157.5</ele><time>2026-04-12T11:00:43.997Z</time></trkpt><trkpt lat="40.3395247" lon="9.4871599"><ele>157.0</ele><time>2026-04-12T11:00:44.998Z</time></trkpt><trkpt lat="40.3395424" lon="9.4876803"><ele>157.5</ele><time>2026-04-12T11:00:45.998Z</time></trkpt><trkpt lat="40.3395596" lon="9.4881677"><ele>158.0</ele><time>2026-04-12T11:00:46.998Z</time></trkpt><trkpt lat="40.3395785" lon="9.4886261"><ele>158.0</ele><time>2026-04-12T11:00:47.997Z</time></trkpt><trkpt lat="40.3395917" lon="9.4890521"><ele>158.0</ele><time>2026-04-12T11:00:48.997Z</time></trkpt><trkpt lat="40.3396042" lon="9.4894441"><ele>157.0</ele><time>2026-04-12T11:00:49.997Z</time></trkpt><trkpt lat="40.3396171" lon="9.4897969"><ele>156.0</ele><time>2026-04-12T11:00:50.998Z</time></trkpt><trkpt lat="40.3396286" lon="9.4901211"><ele>156.0</ele><time>2026-04-12T11:00:51.998Z</time></trkpt><trkpt lat="40.3396407" lon="9.4904238"><ele>156.0</ele><time>2026-04-12T11:00:52.998Z</time></trkpt><trkpt lat="40.3396456" lon="9.4907073"><ele>156.0</ele><time>2026-04-12T11:00:53.998Z</time></trkpt><trkpt lat="40.3396564" lon="9.4909705"><ele>156.0</ele><time>2026-04-12T11:00:54.997Z</time></trkpt><trkpt lat="40.3396656" lon="9.4912143"><ele>156.0</ele><time>2026-04-12T11:00:55.998Z</time></trkpt><trkpt lat="40.3396738" lon="9.4914329"><ele>156.0</ele><time>2026-04-12T11:00:56.999Z</time></trkpt><trkpt lat="40.3396928" lon="9.4916276"><ele>156.25</ele><time>2026-04-12T11:00:57.997Z</time></trkpt><trkpt lat="40.3397271" lon="9.4918023"><ele>156.5</ele><time>2026-04-12T11:00:58.999Z</time></trkpt><trkpt lat="40.339795" lon="9.4919664"><ele>156.75</ele><time>2026-04-12T11:00:59.998Z</time></trkpt><trkpt lat="40.3399042" lon="9.4921103"><ele>157.0</ele><time>2026-04-12T11:01:00.998Z</time></trkpt><trkpt lat="40.3400465" lon="9.4922288"><ele>157.0</ele><time>2026-04-12T11:01:01.997Z</time></trkpt><trkpt lat="40.3402536" lon="9.4922855"><ele>157.0</ele><time>2026-04-12T11:01:02.997Z</time></trkpt><trkpt lat="40.3404441" lon="9.492363"><ele>157.0</ele><time>2026-04-12T11:01:03.997Z</time></trkpt><trkpt lat="40.3406478" lon="9.4924808"><ele>157.66666666666669</ele><time>2026-04-12T11:01:04.997Z</time></trkpt><trkpt lat="40.3408313" lon="9.4926018"><ele>158.33333333333334</ele><time>2026-04-12T11:01:05.998Z</time></trkpt><trkpt lat="40.3409817" lon="9.4927595"><ele>159.0</ele><time>2026-04-12T11:01:06.996Z</time></trkpt><trkpt lat="40.3411268" lon="9.4929609"><ele>159.5</ele><time>2026-04-12T11:01:07.998Z</time></trkpt><trkpt lat="40.3412674" lon="9.4932265"><ele>160.0</ele><time>2026-04-12T11:01:08.999Z</time></trkpt><trkpt lat="40.341413" lon="9.493536"><ele>159.5</ele><time>2026-04-12T11:01:09.996Z</time></trkpt><trkpt lat="40.3415469" lon="9.4938432"><ele>159.0</ele><time>2026-04-12T11:01:10.997Z</time></trkpt><trkpt lat="40.3416684" lon="9.4941274"><ele>159.0</ele><time>2026-04-12T11:01:11.997Z</time></trkpt><trkpt lat="40.3417821" lon="9.4944039"><ele>159.0</ele><time>2026-04-12T11:01:12.998Z</time></trkpt><trkpt lat="40.3418805" lon="9.4946691"><ele>159.0</ele><time>2026-04-12T11:01:13.997Z</time></trkpt><trkpt lat="40.341948" lon="9.4949271"><ele>159.0</ele><time>2026-04-12T11:01:14.997Z</time></trkpt><trkpt lat="40.342002" lon="9.4952068"><ele>159.0</ele><time>2026-04-12T11:01:15.998Z</time></trkpt><trkpt lat="40.3420247" lon="9.4954831"><ele>159.0</ele><time>2026-04-12T11:01:16.997Z</time></trkpt><trkpt lat="40.3420314" lon="9.4957262"><ele>159.0</ele><time>2026-04-12T11:01:17.998Z</time></trkpt><trkpt lat="40.3420432" lon="9.4959403"><ele>159.0</ele><time>2026-04-12T11:01:18.999Z</time></trkpt><trkpt lat="40.3420872" lon="9.4961431"><ele>160.33333333333334</ele><time>2026-04-12T11:01:19.996Z</time></trkpt><trkpt lat="40.3421847" lon="9.4963522"><ele>161.66666666666669</ele><time>2026-04-12T11:01:20.997Z</time></trkpt><trkpt lat="40.3423241" lon="9.496585"><ele>163.0</ele><time>2026-04-12T11:01:21.998Z</time></trkpt><trkpt lat="40.342466" lon="9.4968728"><ele>166.5</ele><time>2026-04-12T11:01:22.996Z</time></trkpt><trkpt lat="40.3425961" lon="9.4971536"><ele>170.0</ele><time>2026-04-12T11:01:23.997Z</time></trkpt><trkpt lat="40.3427119" lon="9.4974167"><ele>170.0</ele><time>2026-04-12T11:01:24.998Z</time></trkpt><trkpt lat="40.3428178" lon="9.4976644"><ele>170.0</ele><time>2026-04-12T11:01:25.999Z</time></trkpt><trkpt lat="40.3429062" lon="9.4978939"><ele>170.0</ele><time>2026-04-12T11:01:26.998Z</time></trkpt><trkpt lat="40.3429825" lon="9.4981245"><ele>172.5</ele><time>2026-04-12T11:01:27.999Z</time></trkpt><trkpt lat="40.3429976" lon="9.4984027"><ele>175.0</ele><time>2026-04-12T11:01:28.997Z</time></trkpt><trkpt lat="40.3429921" lon="9.4987156"><ele>176.5</ele><time>2026-04-12T11:01:29.998Z</time></trkpt><trkpt lat="40.3429782" lon="9.4990287"><ele>178.0</ele><time>2026-04-12T11:01:30.998Z</time></trkpt><trkpt lat="40.3429609" lon="9.4993148"><ele>178.0</ele><time>2026-04-12T11:01:31.997Z</time></trkpt><trkpt lat="40.3429484" lon="9.4995731"><ele>178.0</ele><time>2026-04-12T11:01:32.997Z</time></trkpt><trkpt lat="40.3429472" lon="9.4998051"><ele>178.0</ele><time>2026-04-12T11:01:33.997Z</time></trkpt><trkpt lat="40.3429719" lon="9.5000192"><ele>178.66666666666669</ele><time>2026-04-12T11:01:34.997Z</time></trkpt><trkpt lat="40.3430453" lon="9.5002307"><ele>179.33333333333334</ele><time>2026-04-12T11:01:35.998Z</time></trkpt><trkpt lat="40.3431741" lon="9.5004195"><ele>180.0</ele><time>2026-04-12T11:01:36.998Z</time></trkpt><trkpt lat="40.3433161" lon="9.5005627"><ele>176.33333333333334</ele><time>2026-04-12T11:01:37.997Z</time></trkpt><trkpt lat="40.3434424" lon="9.5007036"><ele>172.66666666666669</ele><time>2026-04-12T11:01:38.997Z</time></trkpt><trkpt lat="40.3435509" lon="9.5008975"><ele>169.0</ele><time>2026-04-12T11:01:39.999Z</time></trkpt><trkpt lat="40.343635" lon="9.501149"><ele>174.5</ele><time>2026-04-12T11:01:40.997Z</time></trkpt><trkpt lat="40.3437047" lon="9.5014503"><ele>180.0</ele><time>2026-04-12T11:01:41.997Z</time></trkpt><trkpt lat="40.3437545" lon="9.5017899"><ele>181.5</ele><time>2026-04-12T11:01:42.998Z</time></trkpt><trkpt lat="40.3437872" lon="9.502142"><ele>183.0</ele><time>2026-04-12T11:01:43.997Z</time></trkpt><trkpt lat="40.3438256" lon="9.502496"><ele>177.0</ele><time>2026-04-12T11:01:44.997Z</time></trkpt><trkpt lat="40.3438993" lon="9.5028631"><ele>171.0</ele><time>2026-04-12T11:01:45.997Z</time></trkpt><trkpt lat="40.3439751" lon="9.5032166"><ele>171.0</ele><time>2026-04-12T11:01:46.998Z</time></trkpt><trkpt lat="40.3440163" lon="9.5035551"><ele>171.0</ele><time>2026-04-12T11:01:47.996Z</time></trkpt><trkpt lat="40.3440657" lon="9.5039071"><ele>173.0</ele><time>2026-04-12T11:01:48.997Z</time></trkpt><trkpt lat="40.3441404" lon="9.5042901"><ele>175.0</ele><time>2026-04-12T11:01:49.997Z</time></trkpt><trkpt lat="40.3442387" lon="9.5046993"><ele>175.0</ele><time>2026-04-12T11:01:50.998Z</time></trkpt><trkpt lat="40.3443353" lon="9.5050746"><ele>175.0</ele><time>2026-04-12T11:01:51.998Z</time></trkpt><trkpt lat="40.3444236" lon="9.5054237"><ele>176.5</ele><time>2026-04-12T11:01:52.998Z</time></trkpt><trkpt lat="40.3445055" lon="9.5057345"><ele>178.0</ele><time>2026-04-12T11:01:53.998Z</time></trkpt><trkpt lat="40.3445831" lon="9.506021"><ele>178.33333333333334</ele><time>2026-04-12T11:01:54.997Z</time></trkpt><trkpt lat="40.3446573" lon="9.5062797"><ele>178.66666666666666</ele><time>2026-04-12T11:01:55.998Z</time></trkpt><trkpt lat="40.3447139" lon="9.5065115"><ele>179.0</ele><time>2026-04-12T11:01:56.999Z</time></trkpt><trkpt lat="40.3447643" lon="9.5067171"><ele>179.0</ele><time>2026-04-12T11:01:57.998Z</time></trkpt><trkpt lat="40.3448271" lon="9.506899"><ele>179.0</ele><time>2026-04-12T11:01:58.997Z</time></trkpt><trkpt lat="40.3449289" lon="9.5070675"><ele>179.0</ele><time>2026-04-12T11:01:59.998Z</time></trkpt><trkpt lat="40.3450952" lon="9.5072099"><ele>179.0</ele><time>2026-04-12T11:02:00.996Z</time></trkpt><trkpt lat="40.3452742" lon="9.5073159"><ele>179.0</ele><time>2026-04-12T11:02:01.997Z</time></trkpt><trkpt lat="40.3454694" lon="9.5074438"><ele>179.0</ele><time>2026-04-12T11:02:02.996Z</time></trkpt><trkpt lat="40.3456607" lon="9.507624"><ele>179.66666666666666</ele><time>2026-04-12T11:02:03.999Z</time></trkpt><trkpt lat="40.3458133" lon="9.5078111"><ele>180.33333333333334</ele><time>2026-04-12T11:02:04.997Z</time></trkpt><trkpt lat="40.3459368" lon="9.507977"><ele>181.0</ele><time>2026-04-12T11:02:05.997Z</time></trkpt><trkpt lat="40.3460366" lon="9.5081178"><ele>181.0</ele><time>2026-04-12T11:02:06.997Z</time></trkpt><trkpt lat="40.3461096" lon="9.508229"><ele>181.0</ele><time>2026-04-12T11:02:07.997Z</time></trkpt><trkpt lat="40.3461685" lon="9.5083188"><ele>181.0</ele><time>2026-04-12T11:02:08.998Z</time></trkpt><trkpt lat="40.3462153" lon="9.5083837"><ele>181.0</ele><time>2026-04-12T11:02:09.997Z</time></trkpt><trkpt lat="40.3462848" lon="9.5084656"><ele>181.0</ele><time>2026-04-12T11:02:11.998Z</time></trkpt></trkseg><trkseg><trkpt lat="40.1584779" lon="9.5080409"><ele>1005.9999999999999</ele><time>2026-04-12T12:24:44.997Z</time></trkpt><trkpt lat="40.158518" lon="9.507939"><ele>1006.0</ele><time>2026-04-12T12:24:47.997Z</time></trkpt><trkpt lat="40.1585387" lon="9.5078392"><ele>1006.0</ele><time>2026-04-12T12:24:50.998Z</time></trkpt><trkpt lat="40.1584862" lon="9.5077515"><ele>1006.0</ele><time>2026-04-12T12:24:52.998Z</time></trkpt><trkpt lat="40.1583998" lon="9.5076564"><ele>1005.9999999999999</ele><time>2026-04-12T12:24:54.996Z</time></trkpt><trkpt lat="40.1583417" lon="9.5076009"><ele>1006.0</ele><time>2026-04-12T12:24:55.995Z</time></trkpt><trkpt lat="40.1582758" lon="9.5075363"><ele>1005.75</ele><time>2026-04-12T12:24:56.997Z</time></trkpt><trkpt lat="40.1581998" lon="9.5074606"><ele>1005.5</ele><time>2026-04-12T12:24:57.996Z</time></trkpt><trkpt lat="40.158111" lon="9.5073889"><ele>1005.25</ele><time>2026-04-12T12:24:58.997Z</time></trkpt><trkpt lat="40.157989" lon="9.5073157"><ele>1005.0</ele><time>2026-04-12T12:24:59.997Z</time></trkpt><trkpt lat="40.157847" lon="9.5072419"><ele>1005.0</ele><time>2026-04-12T12:25:00.998Z</time></trkpt><trkpt lat="40.1576724" lon="9.5071619"><ele>1005.0</ele><time>2026-04-12T12:25:01.995Z</time></trkpt><trkpt lat="40.1574722" lon="9.5070843"><ele>1005.0</ele><time>2026-04-12T12:25:02.997Z</time></trkpt><trkpt lat="40.1572664" lon="9.507021"><ele>1013.3333333333333</ele><time>2026-04-12T12:25:03.998Z</time></trkpt><trkpt lat="40.1570589" lon="9.5069582"><ele>1021.6666666666666</ele><time>2026-04-12T12:25:04.997Z</time></trkpt><trkpt lat="40.1568489" lon="9.5069286"><ele>1030.0</ele><time>2026-04-12T12:25:05.997Z</time></trkpt><trkpt lat="40.1566227" lon="9.5069431"><ele>1034.5</ele><time>2026-04-12T12:25:06.997Z</time></trkpt><trkpt lat="40.1563852" lon="9.5070019"><ele>1039.0</ele><time>2026-04-12T12:25:07.997Z</time></trkpt><trkpt lat="40.1561538" lon="9.5070819"><ele>1026.5</ele><time>2026-04-12T12:25:08.998Z</time></trkpt><trkpt lat="40.1559241" lon="9.5071351"><ele>1014.0</ele><time>2026-04-12T12:25:09.996Z</time></trkpt><trkpt lat="40.1557015" lon="9.5071644"><ele>1014.0</ele><time>2026-04-12T12:25:10.997Z</time></trkpt><trkpt lat="40.155498" lon="9.5071896"><ele>1014.0</ele><time>2026-04-12T12:25:11.998Z</time></trkpt><trkpt lat="40.1125566" lon="9.5149163"><ele>908.0</ele><time>2026-04-12T12:29:40.984Z</time></trkpt></trkseg><trkseg><trkpt lat="40.2860283" lon="9.5858806"><ele>394.0</ele><time>2026-04-12T14:18:13.199Z</time></trkpt><trkpt lat="40.2875043" lon="9.5855452"><ele>378.0</ele><time>2026-04-12T14:18:24.548Z</time></trkpt><trkpt lat="40.2883592" lon="9.584837"><ele>367.0</ele><time>2026-04-12T14:18:30.456Z</time></trkpt><trkpt lat="40.293211" lon="9.584739"><ele>367.0</ele><time>2026-04-12T14:18:59.553Z</time></trkpt><trkpt lat="40.2961648" lon="9.5840704"><ele>370.0</ele><time>2026-04-12T14:20:12.517Z</time></trkpt><trkpt lat="40.2966485" lon="9.583934"><ele>345.0</ele><time>2026-04-12T14:21:56.927Z</time></trkpt><trkpt lat="40.2968231" lon="9.5791331"><ele>161.0</ele><time>2026-04-12T14:22:38.187Z</time></trkpt><trkpt lat="40.3162876" lon="9.535151"><ele>333.0</ele><time>2026-04-12T14:28:35.179Z</time></trkpt><trkpt lat="40.3052318" lon="9.3448418"><ele>535.0</ele><time>2026-04-12T14:45:38.843Z</time></trkpt><trkpt lat="40.3178511" lon="9.3387729"><ele>539.0</ele><time>2026-04-12T14:46:59.527Z</time></trkpt><trkpt lat="40.3273067" lon="9.3392294"><ele>542.0</ele><time>2026-04-12T14:47:18.266Z</time></trkpt><trkpt lat="40.3261184" lon="9.3385419"><ele>547.0</ele><time>2026-04-12T14:48:18.106Z</time></trkpt><trkpt lat="40.3240439" lon="9.3380493"><ele>547.0</ele><time>2026-04-12T14:48:57.386Z</time></trkpt><trkpt lat="40.3239902" lon="9.3379697"><ele>547.0</ele><time>2026-04-12T14:49:33.571Z</time></trkpt><trkpt lat="40.3232744" lon="9.3386114"><ele>538.5</ele><time>2026-04-12T14:50:35.148Z</time></trkpt><trkpt lat="40.3234788" lon="9.3384349"><ele>530.0</ele><time>2026-04-12T14:50:37.696Z</time></trkpt><trkpt lat="40.3240944" lon="9.338068"><ele>535.6666666666666</ele><time>2026-04-12T14:51:25.091Z</time></trkpt><trkpt lat="40.3242622" lon="9.3380468"><ele>541.3333333333334</ele><time>2026-04-12T14:51:33.065Z</time></trkpt><trkpt lat="40.3240354" lon="9.3380098"><ele>547.0</ele><time>2026-04-12T14:53:09.221Z</time></trkpt><trkpt lat="40.3239333" lon="9.3379863"><ele>528.0</ele><time>2026-04-12T14:53:15.448Z</time></trkpt><trkpt lat="40.3234564" lon="9.3383855"><ele>530.0</ele><time>2026-04-12T14:57:14.927Z</time></trkpt><trkpt lat="40.3240193" lon="9.3380694"><ele>538.0</ele><time>2026-04-12T14:57:44.751Z</time></trkpt><trkpt lat="40.3229599" lon="9.3379181"><ele>546.0</ele><time>2026-04-12T14:59:18.879Z</time></trkpt><trkpt lat="40.3225508" lon="9.3371759"><ele>546.5</ele><time>2026-04-12T14:59:26.083Z</time></trkpt><trkpt lat="40.3221208" lon="9.33713"><ele>547.0</ele><time>2026-04-12T14:59:37.549Z</time></trkpt><trkpt lat="40.3219404" lon="9.336844"><ele>547.0</ele><time>2026-04-12T14:59:43.833Z</time></trkpt><trkpt lat="40.3219611" lon="9.3361713"><ele>547.0</ele><time>2026-04-12T14:59:49.915Z</time></trkpt><trkpt lat="40.3221467" lon="9.3357368"><ele>547.0</ele><time>2026-04-12T14:59:56.058Z</time></trkpt><trkpt lat="40.3223029" lon="9.335607"><ele>548.5</ele><time>2026-04-12T15:00:02.259Z</time></trkpt><trkpt lat="40.3226784" lon="9.3353137"><ele>550.0</ele><time>2026-04-12T15:00:20.633Z</time></trkpt><trkpt lat="40.3228475" lon="9.3342072"><ele>546.0</ele><time>2026-04-12T15:00:35.715Z</time></trkpt><trkpt lat="40.3241088" lon="9.3308719"><ele>553.0</ele><time>2026-04-12T15:01:27.698Z</time></trkpt><trkpt lat="40.3214928" lon="9.3250092"><ele>546.0</ele><time>2026-04-12T15:02:16.362Z</time></trkpt><trkpt lat="40.3213347" lon="9.3239289"><ele>546.0</ele><time>2026-04-12T15:02:35.562Z</time></trkpt><trkpt lat="40.3204075" lon="9.3206635"><ele>548.5</ele><time>2026-04-12T15:03:20.166Z</time></trkpt><trkpt lat="40.320581" lon="9.3207707"><ele>551.0</ele><time>2026-04-12T15:03:26.131Z</time></trkpt><trkpt lat="40.3257607" lon="9.312618"><ele>467.0</ele><time>2026-04-12T15:04:22.471Z</time></trkpt><trkpt lat="40.3255466" lon="9.2803818"><ele>460.0</ele><time>2026-04-12T15:06:48.085Z</time></trkpt><trkpt lat="40.323662" lon="9.2677552"><ele>388.0</ele><time>2026-04-12T15:06:53.583Z</time></trkpt><trkpt lat="40.3181913" lon="9.1653935"><ele>309.0</ele><time>2026-04-12T15:12:30.787Z</time></trkpt><trkpt lat="40.3969003" lon="9.045534"><ele>406.0</ele><time>2026-04-12T15:21:20.871Z</time></trkpt><trkpt lat="40.4411482" lon="9.0596177"><ele>443.0</ele><time>2026-04-12T15:26:15.762Z</time></trkpt><trkpt lat="40.4421592" lon="9.0586893"><ele>466.0</ele><time>2026-04-12T15:26:52.899Z</time></trkpt><trkpt lat="40.4431516" lon="9.0569279"><ele>473.0</ele><time>2026-04-12T15:27:14.022Z</time></trkpt><trkpt lat="40.4440913" lon="9.0573246"><ele>473.0</ele><time>2026-04-12T15:28:15.299Z</time></trkpt></trkseg></trk></gpx>